Darstellungsparameter: Aktuell verwendete Einstellungen:
Skalierung der Graphiken ... ?
xyx+y,   Skalierungsfaktor:      Skalierung: Modus: x, Faktor: 1
Darstellungszeitraum ... ?
Vom - - bis: - -   Zeitraum: 14.01.2019 - 13.07.2019
Min/Max/Avg-Anzeige ... ?
Zeige MMA aktuell
Zeige MMA Monat
Zeige MMA alles
Zeige --A aktuell
Zeige --A Monat
Zeige --A alles
Keine MMA-Anzeige
MMA:
Minimum Maximum Average (ber die Originaldaten)
MMA-Basis: 14.01.2019 - 13.07.2019
Quicknavigation für Darstellung... ?
Tage:      1T, 2T, 3T, 5T -1T -2T -3T -5T +1T +2T +3T +5T
Wochen: 1W, 2W, 3W -1W -2W -3W +1W +2W +3W
Monate: 1M, 3M, 6M -1M -3M -6M +1M +3M +6M
Jahre:    1J, 3J, 5J, 10J -1J -3J -5J -10J +1J +3J +5J +10J
Nutze für die Darstellung ... ?
Originaldaten oder Mittelwerte auf ...
Stundenbasis Tagesbasis Wochenbasis
Monatsbasis Jahresbasis      Datenbasis: Original-Daten
Darstellen als:
Statistik (Auto) Statistik J:M      Darstellung:
Zur Graphik,    zurück zur Übersicht aller Sensoren.
 
Tabellarische Datenbersicht: ?
 
Sensor: Nr:Datum:Temp:Feuchte:Taupunkt:
Aussen-T/F 1 14-01-2019 00:00:00 7.2 C 89 % 5.51 C
2 14-01-2019 00:05:00 7.3 C 88 % 5.45 C
3 14-01-2019 00:10:00 7.3 C 88 % 5.45 C
4 14-01-2019 00:15:00 7.3 C 88 % 5.45 C
5 14-01-2019 00:20:00 7.3 C 88 % 5.45 C
6 14-01-2019 00:25:00 7.3 C 88 % 5.45 C
7 14-01-2019 00:30:00 7.3 C 88 % 5.45 C
8 14-01-2019 00:35:00 7.3 C 88 % 5.45 C
9 14-01-2019 00:40:00 7.4 C 88 % 5.55 C
10 14-01-2019 00:45:00 7.4 C 88 % 5.55 C
11 14-01-2019 00:50:00 7.4 C 86 % 5.22 C
12 14-01-2019 00:55:00 7.4 C 86 % 5.22 C
13 14-01-2019 01:00:00 7.3 C 86 % 5.12 C
14 14-01-2019 01:05:00 7.1 C 87 % 5.09 C
15 14-01-2019 01:10:00 7 C 87 % 4.99 C
16 14-01-2019 01:15:00 6.9 C 88 % 5.05 C
17 14-01-2019 01:20:00 6.8 C 89 % 5.12 C
18 14-01-2019 01:25:00 6.8 C 89 % 5.12 C
19 14-01-2019 01:30:00 6.9 C 89 % 5.22 C
20 14-01-2019 01:35:00 7.1 C 88 % 5.25 C
21 14-01-2019 01:40:00 7.2 C 88 % 5.35 C
22 14-01-2019 01:45:00 7.2 C 87 % 5.19 C
23 14-01-2019 01:50:00 7.2 C 87 % 5.19 C
24 14-01-2019 01:55:00 7.3 C 86 % 5.12 C
25 14-01-2019 02:00:00 7.3 C 86 % 5.12 C
Sensor: Nr:Datum:Temp:Feuchte:Taupunkt:
Aussen-T/F 26 14-01-2019 02:05:00 7.4 C 86 % 5.22 C
27 14-01-2019 02:10:00 7.3 C 86 % 5.12 C
28 14-01-2019 02:15:00 7.3 C 85 % 4.95 C
29 14-01-2019 02:20:00 7.4 C 85 % 5.05 C
30 14-01-2019 02:25:00 7.4 C 84 % 4.88 C
31 14-01-2019 02:30:00 7.4 C 83 % 4.71 C
32 14-01-2019 02:35:00 7.4 C 83 % 4.71 C
33 14-01-2019 02:40:00 7.5 C 83 % 4.81 C
34 14-01-2019 02:45:00 7.6 C 83 % 4.9 C
35 14-01-2019 02:50:00 7.5 C 83 % 4.81 C
36 14-01-2019 02:55:00 7.6 C 82 % 4.73 C
37 14-01-2019 03:00:00 7.6 C 81 % 4.55 C
38 14-01-2019 03:05:00 7.7 C 81 % 4.65 C
39 14-01-2019 03:10:00 7.6 C 82 % 4.73 C
40 14-01-2019 03:15:00 7.3 C 83 % 4.61 C
41 14-01-2019 03:20:00 6.6 C 86 % 4.43 C
42 14-01-2019 03:25:00 6.3 C 87 % 4.3 C
43 14-01-2019 03:30:00 6.1 C 89 % 4.43 C
44 14-01-2019 03:35:00 6 C 89 % 4.33 C
45 14-01-2019 03:40:00 6 C 91 % 4.65 C
46 14-01-2019 03:45:00 5.9 C 91 % 4.55 C
47 14-01-2019 03:50:00 6 C 91 % 4.65 C
48 14-01-2019 03:55:00 6 C 91 % 4.65 C
49 14-01-2019 04:00:00 6.1 C 91 % 4.74 C
50 14-01-2019 04:05:00 6.3 C 90 % 4.78 C
Sensor: Nr:Datum:Temp:Feuchte:Taupunkt:
Aussen-T/F 51 14-01-2019 04:10:00 6.4 C 89 % 4.72 C
52 14-01-2019 04:15:00 6.6 C 89 % 4.92 C
53 14-01-2019 04:20:00 6.7 C 87 % 4.69 C
54 14-01-2019 04:25:00 6.8 C 86 % 4.63 C
55 14-01-2019 04:30:00 7 C 85 % 4.66 C
56 14-01-2019 04:35:00 7.1 C 85 % 4.75 C
57 14-01-2019 04:40:00 6.9 C 85 % 4.56 C
58 14-01-2019 04:45:00 6.9 C 85 % 4.56 C
59 14-01-2019 04:50:00 6.9 C 85 % 4.56 C
60 14-01-2019 04:55:00 6.9 C 85 % 4.56 C
61 14-01-2019 05:00:00 7 C 85 % 4.66 C
62 14-01-2019 05:05:00 7 C 85 % 4.66 C
63 14-01-2019 05:10:00 7 C 85 % 4.66 C
64 14-01-2019 05:15:00 7 C 85 % 4.66 C
65 14-01-2019 05:20:00 7.1 C 85 % 4.75 C
66 14-01-2019 05:25:00 7.1 C 85 % 4.75 C
67 14-01-2019 05:30:00 7.2 C 85 % 4.85 C
68 14-01-2019 05:35:00 7.2 C 85 % 4.85 C
69 14-01-2019 05:40:00 7.2 C 85 % 4.85 C
70 14-01-2019 05:45:00 7.2 C 86 % 5.02 C
71 14-01-2019 05:50:00 7.1 C 86 % 4.92 C
72 14-01-2019 05:55:00 7.1 C 86 % 4.92 C
73 14-01-2019 06:00:00 7.1 C 86 % 4.92 C
74 14-01-2019 06:05:00 7.1 C 87 % 5.09 C
75 14-01-2019 06:10:00 6.9 C 88 % 5.05 C
Sensor: Nr:Datum:Temp:Feuchte:Taupunkt:
Aussen-T/F 76 14-01-2019 06:15:00 6.8 C 88 % 4.96 C
77 14-01-2019 06:20:00 6.7 C 88 % 4.86 C
78 14-01-2019 06:25:00 6.7 C 87 % 4.69 C
79 14-01-2019 06:30:00 6.7 C 87 % 4.69 C
80 14-01-2019 06:35:00 6.6 C 87 % 4.6 C
81 14-01-2019 06:40:00 6.6 C 87 % 4.6 C
82 14-01-2019 06:45:00 6.5 C 87 % 4.5 C
83 14-01-2019 06:50:00 6.5 C 87 % 4.5 C
84 14-01-2019 06:55:00 6.5 C 87 % 4.5 C
85 14-01-2019 07:00:00 6.5 C 88 % 4.66 C
86 14-01-2019 07:05:00 6.5 C 87 % 4.5 C
87 14-01-2019 07:10:00 6.5 C 87 % 4.5 C
88 14-01-2019 07:15:00 6.6 C 87 % 4.6 C
89 14-01-2019 07:20:00 6.5 C 87 % 4.5 C
90 14-01-2019 07:25:00 6.4 C 88 % 4.56 C
91 14-01-2019 07:30:00 6.3 C 88 % 4.46 C
92 14-01-2019 07:35:00 6.2 C 89 % 4.53 C
93 14-01-2019 07:40:00 6.2 C 90 % 4.69 C
94 14-01-2019 07:45:00 6.1 C 90 % 4.59 C
95 14-01-2019 07:50:00 6.1 C 90 % 4.59 C
96 14-01-2019 07:55:00 6.1 C 91 % 4.74 C
97 14-01-2019 08:00:00 6.1 C 91 % 4.74 C
98 14-01-2019 08:05:00 6.1 C 90 % 4.59 C
99 14-01-2019 08:10:00 6.1 C 90 % 4.59 C
100 14-01-2019 08:15:00 6.2 C 90 % 4.69 C
Sensor: Nr:Datum:Temp:Feuchte:Taupunkt:
Aussen-T/F 101 14-01-2019 08:20:00 6.2 C 90 % 4.69 C
102 14-01-2019 08:25:00 6.3 C 89 % 4.62 C
103 14-01-2019 08:30:00 6.3 C 89 % 4.62 C
104 14-01-2019 08:35:00 6.3 C 89 % 4.62 C
105 14-01-2019 08:40:00 6.3 C 89 % 4.62 C
106 14-01-2019 08:45:00 6.3 C 89 % 4.62 C
107 14-01-2019 08:50:00 6.3 C 89 % 4.62 C
108 14-01-2019 08:55:00 6.3 C 89 % 4.62 C
109 14-01-2019 09:00:00 6.3 C 90 % 4.78 C
110 14-01-2019 09:05:00 6.3 C 90 % 4.78 C
111 14-01-2019 09:10:00 6.3 C 90 % 4.78 C
112 14-01-2019 09:15:00 6.3 C 90 % 4.78 C
113 14-01-2019 09:20:00 6.3 C 89 % 4.62 C
114 14-01-2019 09:25:00 6.4 C 89 % 4.72 C
115 14-01-2019 09:30:00 6.4 C 89 % 4.72 C
116 14-01-2019 09:35:00 6.4 C 88 % 4.56 C
117 14-01-2019 09:40:00 6.5 C 88 % 4.66 C
118 14-01-2019 09:45:00 6.6 C 88 % 4.76 C
119 14-01-2019 09:50:00 6.6 C 88 % 4.76 C
120 14-01-2019 09:55:00 6.7 C 88 % 4.86 C
121 14-01-2019 10:00:00 6.6 C 88 % 4.76 C
122 14-01-2019 10:05:00 6.6 C 88 % 4.76 C
123 14-01-2019 10:10:00 6.6 C 89 % 4.92 C
124 14-01-2019 10:15:00 6.6 C 89 % 4.92 C
125 14-01-2019 10:20:00 6.6 C 88 % 4.76 C
Sensor: Nr:Datum:Temp:Feuchte:Taupunkt:
Aussen-T/F 126 14-01-2019 10:25:00 6.6 C 88 % 4.76 C
127 14-01-2019 10:30:00 6.5 C 89 % 4.82 C
128 14-01-2019 10:35:00 6.4 C 89 % 4.72 C
129 14-01-2019 10:40:00 6.3 C 90 % 4.78 C
130 14-01-2019 10:45:00 6.2 C 90 % 4.69 C
131 14-01-2019 10:50:00 6.2 C 91 % 4.84 C
132 14-01-2019 10:55:00 5.6 C 89 % 3.93 C
133 14-01-2019 11:00:00 5.1 C 90 % 3.6 C
134 14-01-2019 11:05:00 4.8 C 91 % 3.46 C
135 14-01-2019 11:10:00 4.6 C 92 % 3.42 C
136 14-01-2019 11:15:00 4.4 C 92 % 3.22 C
137 14-01-2019 11:20:00 4.4 C 93 % 3.37 C
138 14-01-2019 11:25:00 4.3 C 93 % 3.27 C
139 14-01-2019 11:30:00 4.3 C 93 % 3.27 C
140 14-01-2019 11:35:00 4.2 C 92 % 3.02 C
141 14-01-2019 11:40:00 4.2 C 92 % 3.02 C
142 14-01-2019 11:45:00 4.2 C 92 % 3.02 C
143 14-01-2019 11:50:00 4.2 C 92 % 3.02 C
144 14-01-2019 11:55:00 4.2 C 92 % 3.02 C
145 14-01-2019 12:00:00 4.2 C 92 % 3.02 C
146 14-01-2019 12:05:00 4.3 C 93 % 3.27 C
147 14-01-2019 12:10:00 4.5 C 93 % 3.47 C
148 14-01-2019 12:15:00 4.6 C 93 % 3.57 C
149 14-01-2019 12:20:00 4.6 C 92 % 3.42 C
150 14-01-2019 12:25:00 4.7 C 92 % 3.51 C
Sensor: Nr:Datum:Temp:Feuchte:Taupunkt:
Aussen-T/F 151 14-01-2019 12:30:00 4.7 C 92 % 3.51 C
152 14-01-2019 12:35:00 4.8 C 92 % 3.61 C
153 14-01-2019 12:40:00 4.9 C 92 % 3.71 C
154 14-01-2019 12:45:00 5 C 91 % 3.66 C
155 14-01-2019 12:50:00 5.1 C 91 % 3.76 C
156 14-01-2019 12:55:00 5.1 C 91 % 3.76 C
157 14-01-2019 13:00:00 5.2 C 90 % 3.7 C
158 14-01-2019 13:05:00 5.2 C 90 % 3.7 C
159 14-01-2019 13:10:00 5.2 C 90 % 3.7 C
160 14-01-2019 13:15:00 5.3 C 90 % 3.8 C
161 14-01-2019 13:20:00 5.3 C 89 % 3.64 C
162 14-01-2019 13:25:00 5.3 C 89 % 3.64 C
163 14-01-2019 13:30:00 5.3 C 89 % 3.64 C
164 14-01-2019 13:35:00 5.4 C 89 % 3.74 C
165 14-01-2019 13:40:00 5.4 C 89 % 3.74 C
166 14-01-2019 13:45:00 5.6 C 89 % 3.93 C
167 14-01-2019 13:50:00 5.6 C 88 % 3.77 C
168 14-01-2019 13:55:00 5.6 C 88 % 3.77 C
169 14-01-2019 14:00:00 5.3 C 87 % 3.32 C
170 14-01-2019 14:05:00 4.9 C 87 % 2.92 C
171 14-01-2019 14:10:00 4.6 C 88 % 2.79 C
172 14-01-2019 14:15:00 4.5 C 88 % 2.69 C
173 14-01-2019 14:20:00 4.4 C 89 % 2.75 C
174 14-01-2019 14:25:00 4.4 C 88 % 2.59 C
175 14-01-2019 14:30:00 4.3 C 88 % 2.49 C
Sensor: Nr:Datum:Temp:Feuchte:Taupunkt:
Aussen-T/F 176 14-01-2019 14:35:00 4.1 C 89 % 2.45 C
177 14-01-2019 14:40:00 4 C 89 % 2.36 C
178 14-01-2019 14:45:00 3.9 C 90 % 2.41 C
179 14-01-2019 14:50:00 3.8 C 90 % 2.31 C
180 14-01-2019 14:55:00 3.8 C 90 % 2.31 C
181 14-01-2019 15:00:00 3.7 C 91 % 2.37 C
182 14-01-2019 15:05:00 3.8 C 91 % 2.47 C
183 14-01-2019 15:10:00 3.8 C 91 % 2.47 C
184 14-01-2019 15:15:00 3.9 C 90 % 2.41 C
185 14-01-2019 15:20:00 4 C 90 % 2.51 C
186 14-01-2019 15:25:00 3.9 C 90 % 2.41 C
187 14-01-2019 15:30:00 4 C 90 % 2.51 C
188 14-01-2019 15:35:00 4.1 C 90 % 2.61 C
189 14-01-2019 15:40:00 4.2 C 91 % 2.87 C
190 14-01-2019 15:45:00 4.3 C 90 % 2.81 C
191 14-01-2019 15:50:00 4.4 C 90 % 2.91 C
192 14-01-2019 15:55:00 4.5 C 90 % 3.01 C
193 14-01-2019 16:00:00 4.6 C 90 % 3.1 C
194 14-01-2019 16:05:00 4.6 C 90 % 3.1 C
195 14-01-2019 16:10:00 4.4 C 89 % 2.75 C
196 14-01-2019 16:15:00 4.1 C 89 % 2.45 C
197 14-01-2019 16:20:00 3.8 C 90 % 2.31 C
198 14-01-2019 16:25:00 3.7 C 91 % 2.37 C
199 14-01-2019 16:30:00 3.6 C 91 % 2.27 C
200 14-01-2019 16:35:00 3.4 C 91 % 2.07 C
Sensor: Nr:Datum:Temp:Feuchte:Taupunkt:
Aussen-T/F 201 14-01-2019 16:40:00 3.3 C 91 % 1.98 C
202 14-01-2019 16:45:00 3.3 C 91 % 1.98 C
203 14-01-2019 16:50:00 3.2 C 91 % 1.88 C
204 14-01-2019 16:55:00 3.2 C 91 % 1.88 C
205 14-01-2019 17:00:00 3.1 C 91 % 1.78 C
206 14-01-2019 17:05:00 2.9 C 91 % 1.58 C
207 14-01-2019 17:10:00 2.7 C 91 % 1.38 C
208 14-01-2019 17:15:00 2.7 C 92 % 1.53 C
209 14-01-2019 17:20:00 2.7 C 92 % 1.53 C
210 14-01-2019 17:25:00 2.7 C 92 % 1.53 C
211 14-01-2019 17:30:00 2.7 C 93 % 1.68 C
212 14-01-2019 17:35:00 2.7 C 93 % 1.68 C
213 14-01-2019 17:40:00 2.7 C 93 % 1.68 C
214 14-01-2019 17:45:00 2.6 C 93 % 1.59 C
215 14-01-2019 17:50:00 2.6 C 93 % 1.59 C
216 14-01-2019 17:55:00 2.6 C 93 % 1.59 C
217 14-01-2019 18:00:00 2.6 C 93 % 1.59 C
218 14-01-2019 18:05:00 2.6 C 93 % 1.59 C
219 14-01-2019 18:10:00 2.6 C 93 % 1.59 C
220 14-01-2019 18:15:00 2.6 C 94 % 1.73 C
221 14-01-2019 18:20:00 2.6 C 93 % 1.59 C
222 14-01-2019 18:25:00 2.6 C 93 % 1.59 C
223 14-01-2019 18:30:00 2.5 C 93 % 1.49 C
224 14-01-2019 18:35:00 2.7 C 94 % 1.83 C
225 14-01-2019 18:40:00 2.9 C 94 % 2.03 C
Sensor: Nr:Datum:Temp:Feuchte:Taupunkt:
Aussen-T/F 226 14-01-2019 18:45:00 3.1 C 94 % 2.23 C
227 14-01-2019 18:50:00 3.2 C 93 % 2.18 C
228 14-01-2019 18:55:00 3.1 C 93 % 2.08 C
229 14-01-2019 19:00:00 3.1 C 93 % 2.08 C
230 14-01-2019 19:05:00 3.1 C 93 % 2.08 C
231 14-01-2019 19:10:00 3 C 93 % 1.98 C
232 14-01-2019 19:15:00 2.9 C 93 % 1.88 C
233 14-01-2019 19:20:00 2.9 C 93 % 1.88 C
234 14-01-2019 19:25:00 2.8 C 92 % 1.63 C
235 14-01-2019 19:30:00 2.7 C 93 % 1.68 C
236 14-01-2019 19:35:00 2.6 C 93 % 1.59 C
237 14-01-2019 19:40:00 2.6 C 93 % 1.59 C
238 14-01-2019 19:45:00 2.5 C 93 % 1.49 C
239 14-01-2019 19:50:00 2.4 C 93 % 1.39 C
240 14-01-2019 19:55:00 2.3 C 93 % 1.29 C
241 14-01-2019 20:00:00 2.4 C 94 % 1.54 C
242 14-01-2019 20:05:00 2.4 C 94 % 1.54 C
243 14-01-2019 20:10:00 2.4 C 94 % 1.54 C
244 14-01-2019 20:15:00 2.4 C 94 % 1.54 C
245 14-01-2019 20:20:00 2.4 C 94 % 1.54 C
246 14-01-2019 20:25:00 2.3 C 94 % 1.44 C
247 14-01-2019 20:30:00 2.3 C 94 % 1.44 C
248 14-01-2019 20:35:00 2.4 C 94 % 1.54 C
249 14-01-2019 20:40:00 2.4 C 94 % 1.54 C
250 14-01-2019 20:45:00 2.4 C 94 % 1.54 C
Sensor: Nr:Datum:Temp:Feuchte:Taupunkt:
Aussen-T/F 251 14-01-2019 20:50:00 2.4 C 94 % 1.54 C
252 14-01-2019 20:55:00 2.5 C 94 % 1.63 C
253 14-01-2019 21:00:00 2.6 C 94 % 1.73 C
254 14-01-2019 21:05:00 2.7 C 94 % 1.83 C
255 14-01-2019 21:10:00 2.7 C 94 % 1.83 C
256 14-01-2019 21:15:00 2.8 C 94 % 1.93 C
257 14-01-2019 21:20:00 2.9 C 94 % 2.03 C
258 14-01-2019 21:25:00 3 C 94 % 2.13 C
259 14-01-2019 21:30:00 3 C 93 % 1.98 C
260 14-01-2019 21:35:00 3.1 C 93 % 2.08 C
261 14-01-2019 21:40:00 3.2 C 92 % 2.03 C
262 14-01-2019 21:45:00 3.3 C 92 % 2.13 C
263 14-01-2019 21:50:00 3.4 C 91 % 2.07 C
264 14-01-2019 21:55:00 3.5 C 91 % 2.17 C
265 14-01-2019 22:00:00 3.6 C 90 % 2.12 C
266 14-01-2019 22:05:00 3.6 C 90 % 2.12 C
267 14-01-2019 22:10:00 3.5 C 90 % 2.02 C
268 14-01-2019 22:15:00 3.6 C 90 % 2.12 C
269 14-01-2019 22:20:00 3.6 C 90 % 2.12 C
270 14-01-2019 22:25:00 3.6 C 90 % 2.12 C
271 14-01-2019 22:30:00 3.6 C 90 % 2.12 C
272 14-01-2019 22:35:00 3.6 C 90 % 2.12 C
273 14-01-2019 22:40:00 3.6 C 90 % 2.12 C
274 14-01-2019 22:45:00 3.6 C 90 % 2.12 C
275 14-01-2019 22:50:00 3.6 C 90 % 2.12 C
Sensor: Nr:Datum:Temp:Feuchte:Taupunkt:
Aussen-T/F 276 14-01-2019 22:55:00 3.6 C 89 % 1.96 C
277 14-01-2019 23:00:00 3.6 C 89 % 1.96 C
278 14-01-2019 23:05:00 3.6 C 89 % 1.96 C
279 14-01-2019 23:10:00 3.7 C 89 % 2.06 C
280 14-01-2019 23:15:00 3.7 C 90 % 2.22 C
281 14-01-2019 23:20:00 3.6 C 90 % 2.12 C
282 14-01-2019 23:25:00 3.6 C 90 % 2.12 C
283 14-01-2019 23:30:00 3.5 C 90 % 2.02 C
284 14-01-2019 23:35:00 3.4 C 91 % 2.07 C
285 14-01-2019 23:40:00 3.4 C 91 % 2.07 C
286 14-01-2019 23:45:00 3.3 C 91 % 1.98 C
287 14-01-2019 23:50:00 3.3 C 91 % 1.98 C
288 14-01-2019 23:55:00 3.3 C 91 % 1.98 C
289 15-01-2019 00:00:00 3.3 C 91 % 1.98 C
290 15-01-2019 00:05:00 3.3 C 91 % 1.98 C
291 15-01-2019 00:10:00 3.3 C 91 % 1.98 C
292 15-01-2019 00:15:00 3.3 C 91 % 1.98 C
293 15-01-2019 00:20:00 3.3 C 91 % 1.98 C
294 15-01-2019 00:25:00 3.3 C 91 % 1.98 C
295 15-01-2019 00:30:00 3.3 C 91 % 1.98 C
296 15-01-2019 00:35:00 3.3 C 91 % 1.98 C
297 15-01-2019 00:40:00 3.3 C 91 % 1.98 C
298 15-01-2019 00:45:00 3.3 C 91 % 1.98 C
299 15-01-2019 00:50:00 3.3 C 91 % 1.98 C
300 15-01-2019 00:55:00 3.3 C 91 % 1.98 C
Sensor: Nr:Datum:Temp:Feuchte:Taupunkt:
Aussen-T/F 301 15-01-2019 01:00:00 3.2 C 91 % 1.88 C
302 15-01-2019 01:05:00 3.2 C 91 % 1.88 C
303 15-01-2019 01:10:00 3.2 C 91 % 1.88 C
304 15-01-2019 01:15:00 3.3 C 90 % 1.82 C
305 15-01-2019 01:20:00 3.3 C 90 % 1.82 C
306 15-01-2019 01:25:00 3.3 C 90 % 1.82 C
307 15-01-2019 01:30:00 3.3 C 90 % 1.82 C
308 15-01-2019 01:35:00 3.3 C 90 % 1.82 C
309 15-01-2019 01:40:00 3.3 C 90 % 1.82 C
310 15-01-2019 01:45:00 3.2 C 90 % 1.72 C
311 15-01-2019 01:50:00 3.2 C 90 % 1.72 C
312 15-01-2019 01:55:00 3.2 C 90 % 1.72 C
313 15-01-2019 02:00:00 3.1 C 90 % 1.62 C
314 15-01-2019 02:05:00 3.1 C 90 % 1.62 C
315 15-01-2019 02:10:00 3.1 C 90 % 1.62 C
316 15-01-2019 02:15:00 3.1 C 90 % 1.62 C
317 15-01-2019 02:20:00 3 C 90 % 1.52 C
318 15-01-2019 02:25:00 2.9 C 90 % 1.43 C
319 15-01-2019 02:30:00 2.8 C 90 % 1.33 C
320 15-01-2019 02:35:00 2.8 C 90 % 1.33 C
321 15-01-2019 02:40:00 2.8 C 91 % 1.48 C
322 15-01-2019 02:45:00 2.8 C 91 % 1.48 C
323 15-01-2019 02:50:00 2.9 C 91 % 1.58 C
324 15-01-2019 02:55:00 2.9 C 91 % 1.58 C
325 15-01-2019 03:00:00 2.9 C 91 % 1.58 C
Sensor: Nr:Datum:Temp:Feuchte:Taupunkt:
Aussen-T/F 326 15-01-2019 03:05:00 2.9 C 91 % 1.58 C
327 15-01-2019 03:10:00 2.9 C 91 % 1.58 C
328 15-01-2019 03:15:00 2.9 C 91 % 1.58 C
329 15-01-2019 03:20:00 2.9 C 91 % 1.58 C
330 15-01-2019 03:25:00 3 C 91 % 1.68 C
331 15-01-2019 03:30:00 2.9 C 91 % 1.58 C
332 15-01-2019 03:35:00 3 C 91 % 1.68 C
333 15-01-2019 03:40:00 3 C 91 % 1.68 C
334 15-01-2019 03:45:00 3 C 91 % 1.68 C
335 15-01-2019 03:50:00 3 C 91 % 1.68 C
336 15-01-2019 03:55:00 3 C 91 % 1.68 C
337 15-01-2019 04:00:00 2.9 C 91 % 1.58 C
338 15-01-2019 04:05:00 2.9 C 91 % 1.58 C
339 15-01-2019 04:10:00 2.7 C 91 % 1.38 C
340 15-01-2019 04:15:00 2.6 C 91 % 1.28 C
341 15-01-2019 04:20:00 2.5 C 91 % 1.18 C
342 15-01-2019 04:25:00 2.4 C 92 % 1.24 C
343 15-01-2019 04:30:00 2.4 C 92 % 1.24 C
344 15-01-2019 04:35:00 2.5 C 92 % 1.34 C
345 15-01-2019 04:40:00 2.6 C 93 % 1.59 C
346 15-01-2019 04:45:00 2.6 C 93 % 1.59 C
347 15-01-2019 04:50:00 2.7 C 93 % 1.68 C
348 15-01-2019 04:55:00 2.7 C 93 % 1.68 C
349 15-01-2019 05:00:00 2.7 C 93 % 1.68 C
350 15-01-2019 05:05:00 2.8 C 93 % 1.78 C
Sensor: Nr:Datum:Temp:Feuchte:Taupunkt:
Aussen-T/F 351 15-01-2019 05:10:00 2.8 C 92 % 1.63 C
352 15-01-2019 05:15:00 2.8 C 92 % 1.63 C
353 15-01-2019 05:20:00 2.8 C 92 % 1.63 C
354 15-01-2019 05:25:00 2.8 C 92 % 1.63 C
355 15-01-2019 05:30:00 2.8 C 92 % 1.63 C
356 15-01-2019 05:35:00 2.8 C 92 % 1.63 C
357 15-01-2019 05:40:00 2.8 C 93 % 1.78 C
358 15-01-2019 05:45:00 2.9 C 93 % 1.88 C
359 15-01-2019 05:50:00 2.9 C 93 % 1.88 C
360 15-01-2019 05:55:00 3 C 92 % 1.83 C
361 15-01-2019 06:00:00 3 C 92 % 1.83 C
362 15-01-2019 06:05:00 3 C 92 % 1.83 C
363 15-01-2019 06:10:00 2.9 C 92 % 1.73 C
364 15-01-2019 06:15:00 2.9 C 92 % 1.73 C
365 15-01-2019 06:20:00 2.8 C 92 % 1.63 C
366 15-01-2019 06:25:00 2.8 C 92 % 1.63 C
367 15-01-2019 06:30:00 2.8 C 92 % 1.63 C
368 15-01-2019 06:35:00 2.8 C 93 % 1.78 C
369 15-01-2019 06:40:00 2.7 C 93 % 1.68 C
370 15-01-2019 06:45:00 2.7 C 93 % 1.68 C
371 15-01-2019 06:50:00 2.7 C 93 % 1.68 C
372 15-01-2019 06:55:00 2.7 C 93 % 1.68 C
373 15-01-2019 07:00:00 2.8 C 93 % 1.78 C
374 15-01-2019 07:05:00 2.8 C 93 % 1.78 C
375 15-01-2019 07:10:00 2.8 C 93 % 1.78 C
Sensor: Nr:Datum:Temp:Feuchte:Taupunkt:
Aussen-T/F 376 15-01-2019 07:15:00 2.8 C 93 % 1.78 C
377 15-01-2019 07:20:00 2.8 C 93 % 1.78 C
378 15-01-2019 07:25:00 2.8 C 93 % 1.78 C
379 15-01-2019 07:30:00 2.8 C 93 % 1.78 C
380 15-01-2019 07:35:00 2.8 C 93 % 1.78 C
381 15-01-2019 07:40:00 2.9 C 93 % 1.88 C
382 15-01-2019 07:45:00 3.1 C 93 % 2.08 C
383 15-01-2019 07:50:00 3.1 C 93 % 2.08 C
384 15-01-2019 07:55:00 3.2 C 93 % 2.18 C
385 15-01-2019 08:00:00 3.3 C 93 % 2.28 C
386 15-01-2019 08:05:00 3.3 C 92 % 2.13 C
387 15-01-2019 08:10:00 3.3 C 92 % 2.13 C
388 15-01-2019 08:15:00 3.3 C 92 % 2.13 C
389 15-01-2019 08:20:00 3.4 C 92 % 2.23 C
390 15-01-2019 08:25:00 3.4 C 92 % 2.23 C
391 15-01-2019 08:30:00 3.6 C 91 % 2.27 C
392 15-01-2019 08:35:00 3.6 C 91 % 2.27 C
393 15-01-2019 08:40:00 3.6 C 91 % 2.27 C
394 15-01-2019 08:45:00 3.7 C 91 % 2.37 C
395 15-01-2019 08:50:00 3.7 C 91 % 2.37 C
396 15-01-2019 08:55:00 3.7 C 91 % 2.37 C
397 15-01-2019 09:00:00 3.8 C 91 % 2.47 C
398 15-01-2019 09:05:00 3.8 C 91 % 2.47 C
399 15-01-2019 09:10:00 3.8 C 91 % 2.47 C
400 15-01-2019 09:15:00 3.8 C 91 % 2.47 C
Sensor: Nr:Datum:Temp:Feuchte:Taupunkt:
Aussen-T/F 401 15-01-2019 09:20:00 3.9 C 91 % 2.57 C
402 15-01-2019 09:25:00 3.9 C 91 % 2.57 C
403 15-01-2019 09:30:00 4 C 91 % 2.67 C
404 15-01-2019 09:35:00 4.1 C 91 % 2.77 C
405 15-01-2019 09:40:00 4.1 C 91 % 2.77 C
406 15-01-2019 09:45:00 4.1 C 91 % 2.77 C
407 15-01-2019 09:50:00 4.2 C 91 % 2.87 C
408 15-01-2019 09:55:00 4.3 C 91 % 2.96 C
409 15-01-2019 10:00:00 4.3 C 90 % 2.81 C
410 15-01-2019 10:05:00 4.4 C 90 % 2.91 C
411 15-01-2019 10:10:00 4.5 C 90 % 3.01 C
412 15-01-2019 10:15:00 4.6 C 90 % 3.1 C
413 15-01-2019 10:20:00 4.7 C 90 % 3.2 C
414 15-01-2019 10:25:00 4.7 C 89 % 3.05 C
415 15-01-2019 10:30:00 4.8 C 89 % 3.14 C
416 15-01-2019 10:35:00 4.9 C 89 % 3.24 C
417 15-01-2019 10:40:00 4.9 C 89 % 3.24 C
418 15-01-2019 10:45:00 5 C 89 % 3.34 C
419 15-01-2019 10:50:00 5.1 C 89 % 3.44 C
420 15-01-2019 10:55:00 5.1 C 89 % 3.44 C
421 15-01-2019 11:00:00 5.1 C 89 % 3.44 C
422 15-01-2019 11:05:00 5.1 C 89 % 3.44 C
423 15-01-2019 11:10:00 5.2 C 89 % 3.54 C
424 15-01-2019 11:15:00 5.2 C 89 % 3.54 C
425 15-01-2019 11:20:00 5.3 C 89 % 3.64 C
Sensor: Nr:Datum:Temp:Feuchte:Taupunkt:
Aussen-T/F 426 15-01-2019 11:25:00 5.3 C 89 % 3.64 C
427 15-01-2019 11:30:00 5.4 C 89 % 3.74 C
428 15-01-2019 11:35:00 5.4 C 89 % 3.74 C
429 15-01-2019 11:40:00 5.5 C 89 % 3.84 C
430 15-01-2019 11:45:00 5.5 C 88 % 3.67 C
431 15-01-2019 11:50:00 5.6 C 88 % 3.77 C
432 15-01-2019 11:55:00 5.6 C 88 % 3.77 C
433 15-01-2019 12:00:00 5.7 C 88 % 3.87 C
434 15-01-2019 12:05:00 5.8 C 88 % 3.97 C
435 15-01-2019 12:10:00 5.8 C 88 % 3.97 C
436 15-01-2019 12:15:00 5.9 C 87 % 3.91 C
437 15-01-2019 12:20:00 5.9 C 87 % 3.91 C
438 15-01-2019 12:25:00 6 C 87 % 4 C
439 15-01-2019 12:30:00 6.1 C 87 % 4.1 C
440 15-01-2019 12:35:00 6.1 C 87 % 4.1 C
441 15-01-2019 12:40:00 6.2 C 87 % 4.2 C
442 15-01-2019 12:45:00 6.3 C 87 % 4.3 C
443 15-01-2019 12:50:00 6.3 C 86 % 4.14 C
444 15-01-2019 12:55:00 6.4 C 85 % 4.07 C
445 15-01-2019 13:00:00 6.5 C 85 % 4.17 C
446 15-01-2019 13:05:00 6.6 C 86 % 4.43 C
447 15-01-2019 13:10:00 6.6 C 85 % 4.26 C
448 15-01-2019 13:15:00 6.6 C 85 % 4.26 C
449 15-01-2019 13:20:00 6.6 C 85 % 4.26 C
450 15-01-2019 13:25:00 6.6 C 85 % 4.26 C
Sensor: Nr:Datum:Temp:Feuchte:Taupunkt:
Aussen-T/F 451 15-01-2019 13:30:00 6.6 C 85 % 4.26 C
452 15-01-2019 13:35:00 6.7 C 84 % 4.19 C
453 15-01-2019 13:40:00 6.7 C 84 % 4.19 C
454 15-01-2019 13:45:00 6.8 C 84 % 4.29 C
455 15-01-2019 13:50:00 6.8 C 84 % 4.29 C
456 15-01-2019 13:55:00 6.8 C 83 % 4.12 C
457 15-01-2019 14:00:00 6.8 C 84 % 4.29 C
458 15-01-2019 14:05:00 6.8 C 84 % 4.29 C
459 15-01-2019 14:10:00 6.8 C 84 % 4.29 C
460 15-01-2019 14:15:00 6.8 C 83 % 4.12 C
461 15-01-2019 14:20:00 6.8 C 83 % 4.12 C
462 15-01-2019 14:25:00 6.8 C 84 % 4.29 C
463 15-01-2019 14:30:00 6.8 C 84 % 4.29 C
464 15-01-2019 14:35:00 6.8 C 84 % 4.29 C
465 15-01-2019 14:40:00 6.8 C 84 % 4.29 C
466 15-01-2019 14:45:00 6.8 C 84 % 4.29 C
467 15-01-2019 14:50:00 6.8 C 84 % 4.29 C
468 15-01-2019 14:55:00 6.7 C 84 % 4.19 C
469 15-01-2019 15:00:00 6.7 C 84 % 4.19 C
470 15-01-2019 15:05:00 6.7 C 84 % 4.19 C
471 15-01-2019 15:10:00 6.7 C 84 % 4.19 C
472 15-01-2019 15:15:00 6.7 C 85 % 4.36 C
473 15-01-2019 15:20:00 6.7 C 84 % 4.19 C
474 15-01-2019 15:25:00 6.7 C 84 % 4.19 C
475 15-01-2019 15:30:00 6.7 C 84 % 4.19 C
Sensor: Nr:Datum:Temp:Feuchte:Taupunkt:
Aussen-T/F 476 15-01-2019 15:35:00 6.7 C 84 % 4.19 C
477 15-01-2019 15:40:00 6.7 C 84 % 4.19 C
478 15-01-2019 15:45:00 6.7 C 84 % 4.19 C
479 15-01-2019 15:50:00 6.6 C 84 % 4.1 C
480 15-01-2019 15:55:00 6.6 C 84 % 4.1 C
481 15-01-2019 16:00:00 6.6 C 84 % 4.1 C
482 15-01-2019 16:05:00 6.6 C 84 % 4.1 C
483 15-01-2019 16:10:00 6.6 C 84 % 4.1 C
484 15-01-2019 16:15:00 6.6 C 84 % 4.1 C
485 15-01-2019 16:20:00 6.5 C 85 % 4.17 C
486 15-01-2019 16:25:00 6.5 C 85 % 4.17 C
487 15-01-2019 16:30:00 6.4 C 85 % 4.07 C
488 15-01-2019 16:35:00 6.4 C 85 % 4.07 C
489 15-01-2019 16:40:00 6.4 C 85 % 4.07 C
490 15-01-2019 16:45:00 6.4 C 86 % 4.23 C
491 15-01-2019 16:50:00 6.4 C 86 % 4.23 C
492 15-01-2019 16:55:00 6.3 C 86 % 4.14 C
493 15-01-2019 17:00:00 6.3 C 86 % 4.14 C
494 15-01-2019 17:05:00 6.3 C 86 % 4.14 C
495 15-01-2019 17:10:00 6.3 C 86 % 4.14 C
496 15-01-2019 17:15:00 6.3 C 86 % 4.14 C
497 15-01-2019 17:20:00 6.3 C 86 % 4.14 C
498 15-01-2019 17:25:00 6.3 C 86 % 4.14 C
499 15-01-2019 17:30:00 6.3 C 85 % 3.97 C
500 15-01-2019 17:35:00 6.4 C 85 % 4.07 C
Sensor: Nr:Datum:Temp:Feuchte:Taupunkt:
Aussen-T/F 501 15-01-2019 17:40:00 6.4 C 84 % 3.9 C
502 15-01-2019 17:45:00 6.5 C 84 % 4 C
503 15-01-2019 17:50:00 6.6 C 83 % 3.92 C
504 15-01-2019 17:55:00 6.6 C 83 % 3.92 C
505 15-01-2019 18:00:00 6.6 C 83 % 3.92 C
506 15-01-2019 18:05:00 6.7 C 83 % 4.02 C
507 15-01-2019 18:10:00 6.7 C 83 % 4.02 C
508 15-01-2019 18:15:00 6.7 C 83 % 4.02 C
509 15-01-2019 18:20:00 6.7 C 83 % 4.02 C
510 15-01-2019 18:25:00 6.7 C 83 % 4.02 C
511 15-01-2019 18:30:00 6.7 C 83 % 4.02 C
512 15-01-2019 18:35:00 6.6 C 83 % 3.92 C
513 15-01-2019 18:40:00 6.6 C 83 % 3.92 C
514 15-01-2019 18:45:00 6.6 C 83 % 3.92 C
515 15-01-2019 18:50:00 6.6 C 84 % 4.1 C
516 15-01-2019 18:55:00 6.6 C 85 % 4.26 C
517 15-01-2019 19:00:00 6.5 C 85 % 4.17 C
518 15-01-2019 19:05:00 6.4 C 85 % 4.07 C
519 15-01-2019 19:10:00 6.3 C 85 % 3.97 C
520 15-01-2019 19:15:00 6.3 C 85 % 3.97 C
521 15-01-2019 19:20:00 6.3 C 86 % 4.14 C
522 15-01-2019 19:25:00 6.3 C 86 % 4.14 C
523 15-01-2019 19:30:00 6.2 C 86 % 4.04 C
524 15-01-2019 19:35:00 6.2 C 87 % 4.2 C
525 15-01-2019 19:40:00 6.2 C 87 % 4.2 C
Sensor: Nr:Datum:Temp:Feuchte:Taupunkt:
Aussen-T/F 526 15-01-2019 19:45:00 6.1 C 88 % 4.27 C
527 15-01-2019 19:50:00 6.1 C 89 % 4.43 C
528 15-01-2019 19:55:00 6 C 89 % 4.33 C
529 15-01-2019 20:00:00 5.9 C 89 % 4.23 C
530 15-01-2019 20:05:00 5.8 C 90 % 4.29 C
531 15-01-2019 20:10:00 5.8 C 90 % 4.29 C
532 15-01-2019 20:15:00 5.8 C 90 % 4.29 C
533 15-01-2019 20:20:00 5.7 C 91 % 4.35 C
534 15-01-2019 20:25:00 5.7 C 91 % 4.35 C
535 15-01-2019 20:30:00 5.6 C 91 % 4.25 C
536 15-01-2019 20:35:00 5.6 C 91 % 4.25 C
537 15-01-2019 20:40:00 5.6 C 91 % 4.25 C
538 15-01-2019 20:45:00 5.6 C 92 % 4.41 C
539 15-01-2019 20:50:00 5.5 C 92 % 4.31 C
540 15-01-2019 20:55:00 5.5 C 91 % 4.15 C
541 15-01-2019 21:00:00 5.5 C 91 % 4.15 C
542 15-01-2019 21:05:00 5.4 C 91 % 4.05 C
543 15-01-2019 21:10:00 5.4 C 92 % 4.21 C
544 15-01-2019 21:15:00 5.4 C 92 % 4.21 C
545 15-01-2019 21:20:00 5.4 C 92 % 4.21 C
546 15-01-2019 21:25:00 5.4 C 92 % 4.21 C
547 15-01-2019 21:30:00 5.3 C 92 % 4.11 C
548 15-01-2019 21:35:00 5.3 C 92 % 4.11 C
549 15-01-2019 21:40:00 5.3 C 92 % 4.11 C
550 15-01-2019 21:45:00 5.3 C 92 % 4.11 C
Sensor: Nr:Datum:Temp:Feuchte:Taupunkt:
Aussen-T/F 551 15-01-2019 21:50:00 5.3 C 92 % 4.11 C
552 15-01-2019 21:55:00 5.3 C 92 % 4.11 C
553 15-01-2019 22:00:00 5.3 C 92 % 4.11 C
554 15-01-2019 22:05:00 5.3 C 92 % 4.11 C
555 15-01-2019 22:10:00 5.3 C 92 % 4.11 C
556 15-01-2019 22:15:00 5.3 C 92 % 4.11 C
557 15-01-2019 22:20:00 5.3 C 92 % 4.11 C
558 15-01-2019 22:25:00 5.3 C 92 % 4.11 C
559 15-01-2019 22:30:00 5.3 C 92 % 4.11 C
560 15-01-2019 22:35:00 5.3 C 92 % 4.11 C
561 15-01-2019 22:40:00 5.4 C 92 % 4.21 C
562 15-01-2019 22:45:00 5.4 C 92 % 4.21 C
563 15-01-2019 22:50:00 5.4 C 91 % 4.05 C
564 15-01-2019 22:55:00 5.4 C 91 % 4.05 C
565 15-01-2019 23:00:00 5.4 C 92 % 4.21 C
566 15-01-2019 23:05:00 5.4 C 92 % 4.21 C
567 15-01-2019 23:10:00 5.4 C 92 % 4.21 C
568 15-01-2019 23:15:00 5.5 C 91 % 4.15 C
569 15-01-2019 23:20:00 5.5 C 91 % 4.15 C
570 15-01-2019 23:25:00 5.5 C 91 % 4.15 C
571 15-01-2019 23:30:00 5.5 C 92 % 4.31 C
572 15-01-2019 23:35:00 5.5 C 92 % 4.31 C
573 15-01-2019 23:40:00 5.5 C 92 % 4.31 C
574 15-01-2019 23:45:00 5.5 C 92 % 4.31 C
575 15-01-2019 23:50:00 5.4 C 92 % 4.21 C
Sensor: Nr:Datum:Temp:Feuchte:Taupunkt:
Aussen-T/F 576 15-01-2019 23:55:00 5.4 C 92 % 4.21 C
577 16-01-2019 00:00:00 5.4 C 92 % 4.21 C
578 16-01-2019 00:05:00 5.3 C 92 % 4.11 C
579 16-01-2019 00:10:00 5.3 C 92 % 4.11 C
580 16-01-2019 00:15:00 5.2 C 93 % 4.16 C
581 16-01-2019 00:20:00 5.2 C 93 % 4.16 C
582 16-01-2019 00:25:00 5.2 C 93 % 4.16 C
583 16-01-2019 00:30:00 5.2 C 93 % 4.16 C
584 16-01-2019 00:35:00 5.2 C 93 % 4.16 C
585 16-01-2019 00:40:00 5.2 C 94 % 4.32 C
586 16-01-2019 00:45:00 5.2 C 94 % 4.32 C
587 16-01-2019 00:50:00 5.2 C 94 % 4.32 C
588 16-01-2019 00:55:00 5.2 C 94 % 4.32 C
589 16-01-2019 01:00:00 5.2 C 94 % 4.32 C
590 16-01-2019 01:05:00 5.2 C 94 % 4.32 C
591 16-01-2019 01:10:00 5.2 C 94 % 4.32 C
592 16-01-2019 01:15:00 5.2 C 95 % 4.47 C
593 16-01-2019 01:20:00 5.2 C 94 % 4.32 C
594 16-01-2019 01:25:00 5.2 C 95 % 4.47 C
595 16-01-2019 01:30:00 5.2 C 95 % 4.47 C
596 16-01-2019 01:35:00 5.2 C 95 % 4.47 C
597 16-01-2019 01:40:00 5.2 C 95 % 4.47 C
598 16-01-2019 01:45:00 5.2 C 95 % 4.47 C
599 16-01-2019 01:50:00 5.2 C 95 % 4.47 C
600 16-01-2019 01:55:00 5.2 C 95 % 4.47 C
Sensor: Nr:Datum:Temp:Feuchte:Taupunkt:
Aussen-T/F 601 16-01-2019 02:00:00 5.2 C 95 % 4.47 C
602 16-01-2019 02:05:00 5.2 C 95 % 4.47 C
603 16-01-2019 02:10:00 5.2 C 95 % 4.47 C
604 16-01-2019 02:15:00 5.2 C 95 % 4.47 C
605 16-01-2019 02:20:00 5.2 C 95 % 4.47 C
606 16-01-2019 02:25:00 5.3 C 94 % 4.41 C
607 16-01-2019 02:30:00 5.3 C 94 % 4.41 C
608 16-01-2019 02:35:00 5.3 C 94 % 4.41 C
609 16-01-2019 02:40:00 5.3 C 94 % 4.41 C
610 16-01-2019 02:45:00 5.3 C 94 % 4.41 C
611 16-01-2019 02:50:00 5.4 C 94 % 4.51 C
612 16-01-2019 02:55:00 5.4 C 93 % 4.36 C
613 16-01-2019 03:00:00 5.4 C 93 % 4.36 C
614 16-01-2019 03:05:00 5.4 C 93 % 4.36 C
615 16-01-2019 03:10:00 5.4 C 92 % 4.21 C
616 16-01-2019 03:15:00 5.5 C 92 % 4.31 C
617 16-01-2019 03:20:00 5.6 C 92 % 4.41 C
618 16-01-2019 03:25:00 5.6 C 91 % 4.25 C
619 16-01-2019 03:30:00 5.4 C 91 % 4.05 C
620 16-01-2019 03:35:00 5.4 C 91 % 4.05 C
621 16-01-2019 03:40:00 5.4 C 91 % 4.05 C
622 16-01-2019 03:45:00 5.4 C 90 % 3.89 C
623 16-01-2019 03:50:00 5.4 C 90 % 3.89 C
624 16-01-2019 03:55:00 5.4 C 90 % 3.89 C
625 16-01-2019 04:00:00 5.5 C 90 % 3.99 C
Sensor: Nr:Datum:Temp:Feuchte:Taupunkt:
Aussen-T/F 626 16-01-2019 04:05:00 5.5 C 89 % 3.84 C
627 16-01-2019 04:10:00 5.5 C 89 % 3.84 C
628 16-01-2019 04:15:00 5.5 C 89 % 3.84 C
629 16-01-2019 04:20:00 5.4 C 89 % 3.74 C
630 16-01-2019 04:25:00 5.4 C 89 % 3.74 C
631 16-01-2019 04:30:00 5.4 C 88 % 3.58 C
632 16-01-2019 04:35:00 5.5 C 88 % 3.67 C
633 16-01-2019 04:40:00 5.5 C 88 % 3.67 C
634 16-01-2019 04:45:00 5.6 C 87 % 3.61 C
635 16-01-2019 04:50:00 5.6 C 87 % 3.61 C
636 16-01-2019 04:55:00 5.6 C 87 % 3.61 C
637 16-01-2019 05:00:00 5.5 C 87 % 3.51 C
638 16-01-2019 05:05:00 5.5 C 87 % 3.51 C
639 16-01-2019 05:10:00 5.5 C 87 % 3.51 C
640 16-01-2019 05:15:00 5.5 C 87 % 3.51 C
641 16-01-2019 05:20:00 5.5 C 87 % 3.51 C
642 16-01-2019 05:25:00 5.5 C 87 % 3.51 C
643 16-01-2019 05:30:00 5.6 C 87 % 3.61 C
644 16-01-2019 05:35:00 5.6 C 87 % 3.61 C
645 16-01-2019 05:40:00 5.6 C 87 % 3.61 C
646 16-01-2019 05:45:00 5.7 C 86 % 3.55 C
647 16-01-2019 05:50:00 5.7 C 86 % 3.55 C
648 16-01-2019 05:55:00 5.7 C 86 % 3.55 C
649 16-01-2019 06:00:00 5.7 C 86 % 3.55 C
650 16-01-2019 06:05:00 5.7 C 86 % 3.55 C
Sensor: Nr:Datum:Temp:Feuchte:Taupunkt:
Aussen-T/F 651 16-01-2019 06:10:00 5.7 C 85 % 3.38 C
652 16-01-2019 06:15:00 5.7 C 85 % 3.38 C
653 16-01-2019 06:20:00 5.7 C 85 % 3.38 C
654 16-01-2019 06:25:00 5.7 C 85 % 3.38 C
655 16-01-2019 06:30:00 5.7 C 86 % 3.55 C
656 16-01-2019 06:35:00 5.7 C 86 % 3.55 C
657 16-01-2019 06:40:00 5.6 C 85 % 3.28 C
658 16-01-2019 06:45:00 5.6 C 85 % 3.28 C
659 16-01-2019 06:50:00 5.6 C 85 % 3.28 C
660 16-01-2019 06:55:00 5.6 C 85 % 3.28 C
661 16-01-2019 07:00:00 5.6 C 85 % 3.28 C
662 16-01-2019 07:05:00 5.6 C 85 % 3.28 C
663 16-01-2019 07:10:00 5.5 C 85 % 3.18 C
664 16-01-2019 07:15:00 5.6 C 85 % 3.28 C
665 16-01-2019 07:20:00 5.5 C 85 % 3.18 C
666 16-01-2019 07:25:00 5.5 C 85 % 3.18 C
667 16-01-2019 07:30:00 5.5 C 85 % 3.18 C
668 16-01-2019 07:35:00 5.5 C 84 % 3.02 C
669 16-01-2019 07:40:00 5.5 C 84 % 3.02 C
670 16-01-2019 07:45:00 5.5 C 84 % 3.02 C
671 16-01-2019 07:50:00 5.5 C 84 % 3.02 C
672 16-01-2019 07:55:00 5.4 C 84 % 2.92 C
673 16-01-2019 08:00:00 5.4 C 84 % 2.92 C
674 16-01-2019 08:05:00 5.4 C 83 % 2.75 C
675 16-01-2019 08:10:00 5.4 C 83 % 2.75 C
Sensor: Nr:Datum:Temp:Feuchte:Taupunkt:
Aussen-T/F 676 16-01-2019 08:15:00 5.4 C 83 % 2.75 C
677 16-01-2019 08:20:00 5.4 C 83 % 2.75 C
678 16-01-2019 08:25:00 5.3 C 83 % 2.65 C
679 16-01-2019 08:30:00 5.3 C 83 % 2.65 C
680 16-01-2019 08:35:00 5.3 C 84 % 2.82 C
681 16-01-2019 08:40:00 5.3 C 84 % 2.82 C
682 16-01-2019 08:45:00 5.2 C 84 % 2.72 C
683 16-01-2019 08:50:00 5.2 C 84 % 2.72 C
684 16-01-2019 08:55:00 5.2 C 84 % 2.72 C
685 16-01-2019 09:00:00 5.2 C 83 % 2.56 C
686 16-01-2019 09:05:00 5.2 C 83 % 2.56 C
687 16-01-2019 09:10:00 5.2 C 83 % 2.56 C
688 16-01-2019 09:15:00 5.2 C 83 % 2.56 C
689 16-01-2019 09:20:00 5.2 C 83 % 2.56 C
690 16-01-2019 09:25:00 5.2 C 83 % 2.56 C
691 16-01-2019 09:30:00 5.2 C 83 % 2.56 C
692 16-01-2019 09:35:00 5.2 C 83 % 2.56 C
693 16-01-2019 09:40:00 5.2 C 83 % 2.56 C
694 16-01-2019 09:45:00 5.2 C 83 % 2.56 C
695 16-01-2019 09:50:00 5.2 C 83 % 2.56 C
696 16-01-2019 09:55:00 5.2 C 83 % 2.56 C
697 16-01-2019 10:00:00 5.2 C 83 % 2.56 C
698 16-01-2019 10:05:00 5.2 C 83 % 2.56 C
699 16-01-2019 10:10:00 5.2 C 83 % 2.56 C
700 16-01-2019 10:15:00 5.2 C 84 % 2.72 C
Sensor: Nr:Datum:Temp:Feuchte:Taupunkt:
Aussen-T/F 701 16-01-2019 10:20:00 5.2 C 83 % 2.56 C
702 16-01-2019 10:25:00 5.2 C 83 % 2.56 C
703 16-01-2019 10:30:00 5.2 C 83 % 2.56 C
704 16-01-2019 10:35:00 5.2 C 83 % 2.56 C
705 16-01-2019 10:40:00 5.2 C 83 % 2.56 C
706 16-01-2019 10:45:00 5.2 C 83 % 2.56 C
707 16-01-2019 10:50:00 5.2 C 83 % 2.56 C
708 16-01-2019 10:55:00 5.2 C 83 % 2.56 C
709 16-01-2019 11:00:00 5.2 C 83 % 2.56 C
710 16-01-2019 11:05:00 5.2 C 83 % 2.56 C
711 16-01-2019 11:10:00 5.2 C 83 % 2.56 C
712 16-01-2019 11:15:00 5.2 C 83 % 2.56 C
713 16-01-2019 11:20:00 5.2 C 83 % 2.56 C
714 16-01-2019 11:25:00 5.2 C 82 % 2.39 C
715 16-01-2019 11:30:00 5.2 C 82 % 2.39 C
716 16-01-2019 11:35:00 5.2 C 83 % 2.56 C
717 16-01-2019 11:40:00 5.2 C 82 % 2.39 C
718 16-01-2019 11:45:00 5.3 C 82 % 2.48 C
719 16-01-2019 11:50:00 5.3 C 82 % 2.48 C
720 16-01-2019 11:55:00 5.3 C 82 % 2.48 C
721 16-01-2019 12:00:00 5.3 C 82 % 2.48 C
722 16-01-2019 12:05:00 5.3 C 82 % 2.48 C
723 16-01-2019 12:10:00 5.4 C 82 % 2.58 C
724 16-01-2019 12:15:00 5.4 C 81 % 2.41 C
725 16-01-2019 12:20:00 5.4 C 82 % 2.58 C
Sensor: Nr:Datum:Temp:Feuchte:Taupunkt:
Aussen-T/F 726 16-01-2019 12:25:00 5.5 C 82 % 2.68 C
727 16-01-2019 12:30:00 5.6 C 82 % 2.78 C
728 16-01-2019 12:35:00 5.6 C 81 % 2.6 C
729 16-01-2019 12:40:00 5.6 C 81 % 2.6 C
730 16-01-2019 12:45:00 5.6 C 81 % 2.6 C
731 16-01-2019 12:50:00 5.7 C 81 % 2.7 C
732 16-01-2019 12:55:00 5.7 C 81 % 2.7 C
733 16-01-2019 13:00:00 5.7 C 81 % 2.7 C
734 16-01-2019 13:05:00 5.8 C 80 % 2.62 C
735 16-01-2019 13:10:00 5.8 C 80 % 2.62 C
736 16-01-2019 13:15:00 5.8 C 80 % 2.62 C
737 16-01-2019 13:20:00 5.8 C 80 % 2.62 C
738 16-01-2019 13:25:00 5.8 C 81 % 2.8 C
739 16-01-2019 13:30:00 5.9 C 81 % 2.9 C
740 16-01-2019 13:35:00 5.9 C 81 % 2.9 C
741 16-01-2019 13:40:00 6 C 80 % 2.82 C
742 16-01-2019 13:45:00 6.1 C 81 % 3.09 C
743 16-01-2019 13:50:00 6.1 C 80 % 2.92 C
744 16-01-2019 13:55:00 6.1 C 80 % 2.92 C
745 16-01-2019 14:00:00 6.1 C 80 % 2.92 C
746 16-01-2019 14:05:00 6.2 C 80 % 3.01 C
747 16-01-2019 14:10:00 6.2 C 80 % 3.01 C
748 16-01-2019 14:15:00 6.3 C 79 % 2.93 C
749 16-01-2019 14:20:00 6.3 C 80 % 3.11 C
750 16-01-2019 14:25:00 6.4 C 79 % 3.03 C
Sensor: Nr:Datum:Temp:Feuchte:Taupunkt:
Aussen-T/F 751 16-01-2019 14:30:00 6.4 C 79 % 3.03 C
752 16-01-2019 14:35:00 6.5 C 79 % 3.13 C
753 16-01-2019 14:40:00 6.5 C 79 % 3.13 C
754 16-01-2019 14:45:00 6.5 C 78 % 2.95 C
755 16-01-2019 14:50:00 6.5 C 78 % 2.95 C
756 16-01-2019 14:55:00 6.4 C 78 % 2.85 C
757 16-01-2019 15:00:00 6.4 C 78 % 2.85 C
758 16-01-2019 15:05:00 6.3 C 79 % 2.93 C
759 16-01-2019 15:10:00 6.3 C 79 % 2.93 C
760 16-01-2019 15:15:00 6.3 C 79 % 2.93 C
761 16-01-2019 15:20:00 6.3 C 79 % 2.93 C
762 16-01-2019 15:25:00 6.3 C 80 % 3.11 C
763 16-01-2019 15:30:00 6.2 C 80 % 3.01 C
764 16-01-2019 15:35:00 6.2 C 81 % 3.19 C
765 16-01-2019 15:40:00 6.1 C 81 % 3.09 C
766 16-01-2019 15:45:00 6 C 81 % 2.99 C
767 16-01-2019 15:50:00 5.9 C 81 % 2.9 C
768 16-01-2019 15:55:00 5.9 C 81 % 2.9 C
769 16-01-2019 16:00:00 5.8 C 82 % 2.97 C
770 16-01-2019 16:05:00 5.7 C 83 % 3.04 C
771 16-01-2019 16:10:00 5.5 C 84 % 3.02 C
772 16-01-2019 16:15:00 5.4 C 85 % 3.09 C
773 16-01-2019 16:20:00 5.2 C 85 % 2.89 C
774 16-01-2019 16:25:00 5.1 C 86 % 2.96 C
775 16-01-2019 16:30:00 4.9 C 86 % 2.76 C
Sensor: Nr:Datum:Temp:Feuchte:Taupunkt:
Aussen-T/F 776 16-01-2019 16:35:00 4.8 C 87 % 2.82 C
777 16-01-2019 16:40:00 4.6 C 87 % 2.63 C
778 16-01-2019 16:45:00 4.5 C 88 % 2.69 C
779 16-01-2019 16:50:00 4.3 C 88 % 2.49 C
780 16-01-2019 16:55:00 4.2 C 89 % 2.55 C
781 16-01-2019 17:00:00 4.1 C 89 % 2.45 C
782 16-01-2019 17:05:00 4 C 89 % 2.36 C
783 16-01-2019 17:10:00 3.9 C 90 % 2.41 C
784 16-01-2019 17:15:00 3.8 C 90 % 2.31 C
785 16-01-2019 17:20:00 3.8 C 90 % 2.31 C
786 16-01-2019 17:25:00 3.7 C 91 % 2.37 C
787 16-01-2019 17:30:00 3.7 C 91 % 2.37 C
788 16-01-2019 17:35:00 3.6 C 91 % 2.27 C
789 16-01-2019 17:40:00 3.6 C 91 % 2.27 C
790 16-01-2019 17:45:00 3.6 C 91 % 2.27 C
791 16-01-2019 17:50:00 3.6 C 91 % 2.27 C
792 16-01-2019 17:55:00 3.6 C 91 % 2.27 C
793 16-01-2019 18:00:00 3.5 C 91 % 2.17 C
794 16-01-2019 18:05:00 3.5 C 91 % 2.17 C
795 16-01-2019 18:10:00 3.5 C 91 % 2.17 C
796 16-01-2019 18:15:00 3.5 C 92 % 2.33 C
797 16-01-2019 18:20:00 3.4 C 91 % 2.07 C
798 16-01-2019 18:25:00 3.4 C 91 % 2.07 C
799 16-01-2019 18:30:00 3.4 C 91 % 2.07 C
800 16-01-2019 18:35:00 3.4 C 91 % 2.07 C
Sensor: Nr:Datum:Temp:Feuchte:Taupunkt:
Aussen-T/F 801 16-01-2019 18:40:00 3.4 C 91 % 2.07 C
802 16-01-2019 18:45:00 3.4 C 91 % 2.07 C
803 16-01-2019 18:50:00 3.6 C 91 % 2.27 C
804 16-01-2019 18:55:00 3.7 C 90 % 2.22 C
805 16-01-2019 19:00:00 3.8 C 90 % 2.31 C
806 16-01-2019 19:05:00 4 C 89 % 2.36 C
807 16-01-2019 19:10:00 4.1 C 88 % 2.3 C
808 16-01-2019 19:15:00 4.2 C 88 % 2.39 C
809 16-01-2019 19:20:00 4.3 C 87 % 2.33 C
810 16-01-2019 19:25:00 4.4 C 87 % 2.43 C
811 16-01-2019 19:30:00 4.5 C 86 % 2.37 C
812 16-01-2019 19:35:00 4.6 C 86 % 2.47 C
813 16-01-2019 19:40:00 4.5 C 86 % 2.37 C
814 16-01-2019 19:45:00 4.4 C 86 % 2.27 C
815 16-01-2019 19:50:00 4.4 C 86 % 2.27 C
816 16-01-2019 19:55:00 4.3 C 86 % 2.17 C
817 16-01-2019 20:00:00 4.3 C 86 % 2.17 C
818 16-01-2019 20:05:00 4.4 C 86 % 2.27 C
819 16-01-2019 20:10:00 4.6 C 85 % 2.3 C
820 16-01-2019 20:15:00 4.6 C 85 % 2.3 C
821 16-01-2019 20:20:00 4.7 C 85 % 2.4 C
822 16-01-2019 20:25:00 4.8 C 84 % 2.33 C
823 16-01-2019 20:30:00 4.9 C 84 % 2.43 C
824 16-01-2019 20:35:00 5 C 83 % 2.36 C
825 16-01-2019 20:40:00 5.2 C 83 % 2.56 C
Sensor: Nr:Datum:Temp:Feuchte:Taupunkt:
Aussen-T/F 826 16-01-2019 20:45:00 5.3 C 82 % 2.48 C
827 16-01-2019 20:50:00 5.4 C 82 % 2.58 C
828 16-01-2019 20:55:00 5.4 C 82 % 2.58 C
829 16-01-2019 21:00:00 5.5 C 81 % 2.51 C
830 16-01-2019 21:05:00 5.5 C 81 % 2.51 C
831 16-01-2019 21:10:00 5.6 C 81 % 2.6 C
832 16-01-2019 21:15:00 5.6 C 81 % 2.6 C
833 16-01-2019 21:20:00 5.6 C 81 % 2.6 C
834 16-01-2019 21:25:00 5.6 C 81 % 2.6 C
835 16-01-2019 21:30:00 5.6 C 81 % 2.6 C
836 16-01-2019 21:35:00 5.6 C 81 % 2.6 C
837 16-01-2019 21:40:00 5.6 C 81 % 2.6 C
838 16-01-2019 21:45:00 5.5 C 81 % 2.51 C
839 16-01-2019 21:50:00 5.5 C 82 % 2.68 C
840 16-01-2019 21:55:00 5.5 C 82 % 2.68 C
841 16-01-2019 22:00:00 5.6 C 81 % 2.6 C
842 16-01-2019 22:05:00 5.6 C 81 % 2.6 C
843 16-01-2019 22:10:00 5.6 C 81 % 2.6 C
844 16-01-2019 22:15:00 5.6 C 81 % 2.6 C
845 16-01-2019 22:20:00 5.6 C 81 % 2.6 C
846 16-01-2019 22:25:00 5.6 C 81 % 2.6 C
847 16-01-2019 22:30:00 5.6 C 81 % 2.6 C
848 16-01-2019 22:35:00 5.7 C 81 % 2.7 C
849 16-01-2019 22:40:00 5.7 C 80 % 2.53 C
850 16-01-2019 22:45:00 5.7 C 80 % 2.53 C
Sensor: Nr:Datum:Temp:Feuchte:Taupunkt:
Aussen-T/F 851 16-01-2019 22:50:00 5.7 C 80 % 2.53 C
852 16-01-2019 22:55:00 5.7 C 80 % 2.53 C
853 16-01-2019 23:00:00 5.7 C 80 % 2.53 C
854 16-01-2019 23:05:00 5.7 C 80 % 2.53 C
855 16-01-2019 23:10:00 5.7 C 80 % 2.53 C
856 16-01-2019 23:15:00 5.6 C 80 % 2.43 C
857 16-01-2019 23:20:00 5.6 C 80 % 2.43 C
858 16-01-2019 23:25:00 5.6 C 80 % 2.43 C
859 16-01-2019 23:30:00 5.6 C 80 % 2.43 C
860 16-01-2019 23:35:00 5.6 C 80 % 2.43 C
861 16-01-2019 23:40:00 5.6 C 80 % 2.43 C
862 16-01-2019 23:45:00 5.6 C 80 % 2.43 C
863 16-01-2019 23:50:00 5.6 C 81 % 2.6 C
864 16-01-2019 23:55:00 5.6 C 81 % 2.6 C
865 17-01-2019 00:00:00 5.6 C 82 % 2.78 C
866 17-01-2019 00:05:00 5.5 C 82 % 2.68 C
867 17-01-2019 00:10:00 5.4 C 82 % 2.58 C
868 17-01-2019 00:15:00 5.4 C 82 % 2.58 C
869 17-01-2019 00:20:00 5.4 C 82 % 2.58 C
870 17-01-2019 00:25:00 5.4 C 82 % 2.58 C
871 17-01-2019 00:30:00 5.5 C 82 % 2.68 C
872 17-01-2019 00:35:00 5.6 C 82 % 2.78 C
873 17-01-2019 00:40:00 5.6 C 82 % 2.78 C
874 17-01-2019 00:45:00 5.7 C 81 % 2.7 C
875 17-01-2019 00:50:00 5.7 C 81 % 2.7 C
Sensor: Nr:Datum:Temp:Feuchte:Taupunkt:
Aussen-T/F 876 17-01-2019 00:55:00 5.7 C 81 % 2.7 C
877 17-01-2019 01:00:00 5.8 C 81 % 2.8 C
878 17-01-2019 01:05:00 5.8 C 81 % 2.8 C
879 17-01-2019 01:10:00 5.8 C 81 % 2.8 C
880 17-01-2019 01:15:00 5.8 C 81 % 2.8 C
881 17-01-2019 01:20:00 5.8 C 81 % 2.8 C
882 17-01-2019 01:25:00 5.8 C 81 % 2.8 C
883 17-01-2019 01:30:00 5.8 C 81 % 2.8 C
884 17-01-2019 01:35:00 5.9 C 81 % 2.9 C
885 17-01-2019 01:40:00 5.9 C 81 % 2.9 C
886 17-01-2019 01:45:00 5.9 C 81 % 2.9 C
887 17-01-2019 01:50:00 5.9 C 81 % 2.9 C
888 17-01-2019 01:55:00 5.9 C 81 % 2.9 C
889 17-01-2019 02:00:00 6 C 82 % 3.17 C
890 17-01-2019 02:05:00 6 C 82 % 3.17 C
891 17-01-2019 02:10:00 6 C 82 % 3.17 C
892 17-01-2019 02:15:00 6 C 83 % 3.34 C
893 17-01-2019 02:20:00 6 C 83 % 3.34 C
894 17-01-2019 02:25:00 5.9 C 83 % 3.24 C
895 17-01-2019 02:30:00 5.9 C 84 % 3.41 C
896 17-01-2019 02:35:00 5.9 C 84 % 3.41 C
897 17-01-2019 02:40:00 5.9 C 84 % 3.41 C
898 17-01-2019 02:45:00 5.9 C 85 % 3.58 C
899 17-01-2019 02:50:00 5.9 C 85 % 3.58 C
900 17-01-2019 02:55:00 5.9 C 85 % 3.58 C
Sensor: Nr:Datum:Temp:Feuchte:Taupunkt:
Aussen-T/F 901 17-01-2019 03:00:00 5.9 C 86 % 3.74 C
902 17-01-2019 03:05:00 5.9 C 86 % 3.74 C
903 17-01-2019 03:10:00 5.9 C 86 % 3.74 C
904 17-01-2019 03:15:00 5.9 C 86 % 3.74 C
905 17-01-2019 03:20:00 5.9 C 86 % 3.74 C
906 17-01-2019 03:25:00 5.9 C 87 % 3.91 C
907 17-01-2019 03:30:00 5.9 C 87 % 3.91 C
908 17-01-2019 03:35:00 5.9 C 87 % 3.91 C
909 17-01-2019 03:40:00 5.9 C 87 % 3.91 C
910 17-01-2019 03:45:00 5.9 C 87 % 3.91 C
911 17-01-2019 03:50:00 6 C 87 % 4 C
912 17-01-2019 03:55:00 6 C 88 % 4.17 C
913 17-01-2019 04:00:00 6 C 87 % 4 C
914 17-01-2019 04:05:00 6.1 C 88 % 4.27 C
915 17-01-2019 04:10:00 6.1 C 88 % 4.27 C
916 17-01-2019 04:15:00 6.1 C 88 % 4.27 C
917 17-01-2019 04:20:00 6.1 C 88 % 4.27 C
918 17-01-2019 04:25:00 6.1 C 88 % 4.27 C
919 17-01-2019 04:30:00 6.1 C 89 % 4.43 C
920 17-01-2019 04:35:00 6.1 C 89 % 4.43 C
921 17-01-2019 04:40:00 6.1 C 89 % 4.43 C
922 17-01-2019 04:45:00 6.1 C 89 % 4.43 C
923 17-01-2019 04:50:00 6.1 C 90 % 4.59 C
924 17-01-2019 04:55:00 6.1 C 90 % 4.59 C
925 17-01-2019 05:00:00 6 C 90 % 4.49 C
Sensor: Nr:Datum:Temp:Feuchte:Taupunkt:
Aussen-T/F 926 17-01-2019 05:05:00 6 C 90 % 4.49 C
927 17-01-2019 05:10:00 6.1 C 90 % 4.59 C
928 17-01-2019 05:15:00 6.1 C 90 % 4.59 C
929 17-01-2019 05:20:00 6.1 C 90 % 4.59 C
930 17-01-2019 05:25:00 6.1 C 90 % 4.59 C
931 17-01-2019 05:30:00 6.1 C 90 % 4.59 C
932 17-01-2019 05:35:00 6.1 C 90 % 4.59 C
933 17-01-2019 05:40:00 6 C 91 % 4.65 C
934 17-01-2019 05:45:00 5.9 C 91 % 4.55 C
935 17-01-2019 05:50:00 5.9 C 91 % 4.55 C
936 17-01-2019 05:55:00 5.9 C 91 % 4.55 C
937 17-01-2019 06:00:00 5.9 C 91 % 4.55 C
938 17-01-2019 06:05:00 6 C 91 % 4.65 C
939 17-01-2019 06:10:00 5.9 C 91 % 4.55 C
940 17-01-2019 06:15:00 5.9 C 91 % 4.55 C
941 17-01-2019 06:20:00 5.9 C 92 % 4.7 C
942 17-01-2019 06:25:00 5.9 C 92 % 4.7 C
943 17-01-2019 06:30:00 5.8 C 92 % 4.6 C
944 17-01-2019 06:35:00 5.8 C 92 % 4.6 C
945 17-01-2019 06:40:00 5.8 C 92 % 4.6 C
946 17-01-2019 06:45:00 5.8 C 92 % 4.6 C
947 17-01-2019 06:50:00 5.8 C 92 % 4.6 C
948 17-01-2019 06:55:00 5.8 C 92 % 4.6 C
949 17-01-2019 07:00:00 5.7 C 92 % 4.5 C
950 17-01-2019 07:05:00 5.7 C 92 % 4.5 C
Sensor: Nr:Datum:Temp:Feuchte:Taupunkt:
Aussen-T/F 951 17-01-2019 07:10:00 5.7 C 92 % 4.5 C
952 17-01-2019 07:15:00 5.7 C 92 % 4.5 C
953 17-01-2019 07:20:00 5.7 C 92 % 4.5 C
954 17-01-2019 07:25:00 5.6 C 92 % 4.41 C
955 17-01-2019 07:30:00 5.7 C 92 % 4.5 C
956 17-01-2019 07:35:00 5.6 C 92 % 4.41 C
957 17-01-2019 07:40:00 5.7 C 92 % 4.5 C
958 17-01-2019 07:45:00 5.7 C 92 % 4.5 C
959 17-01-2019 07:50:00 5.7 C 92 % 4.5 C
960 17-01-2019 07:55:00 5.7 C 92 % 4.5 C
961 17-01-2019 08:00:00 5.6 C 92 % 4.41 C
962 17-01-2019 08:05:00 5.6 C 92 % 4.41 C
963 17-01-2019 08:10:00 5.6 C 92 % 4.41 C
964 17-01-2019 08:15:00 5.6 C 92 % 4.41 C
965 17-01-2019 08:20:00 5.7 C 92 % 4.5 C
966 17-01-2019 08:25:00 5.6 C 92 % 4.41 C
967 17-01-2019 08:30:00 5.6 C 92 % 4.41 C
968 17-01-2019 08:35:00 5.6 C 92 % 4.41 C
969 17-01-2019 08:40:00 5.6 C 92 % 4.41 C
970 17-01-2019 08:45:00 5.6 C 92 % 4.41 C
971 17-01-2019 08:50:00 5.6 C 92 % 4.41 C
972 17-01-2019 08:55:00 5.7 C 91 % 4.35 C
973 17-01-2019 09:00:00 5.7 C 91 % 4.35 C
974 17-01-2019 09:05:00 5.7 C 91 % 4.35 C
975 17-01-2019 09:10:00 5.7 C 91 % 4.35 C
Sensor: Nr:Datum:Temp:Feuchte:Taupunkt:
Aussen-T/F 976 17-01-2019 09:15:00 5.6 C 91 % 4.25 C
977 17-01-2019 09:20:00 5.5 C 91 % 4.15 C
978 17-01-2019 09:25:00 5.5 C 91 % 4.15 C
979 17-01-2019 09:30:00 5.6 C 91 % 4.25 C
980 17-01-2019 09:35:00 5.7 C 91 % 4.35 C
981 17-01-2019 09:40:00 5.8 C 91 % 4.45 C
982 17-01-2019 09:45:00 5.8 C 91 % 4.45 C
983 17-01-2019 09:50:00 5.9 C 91 % 4.55 C
984 17-01-2019 09:55:00 5.9 C 90 % 4.39 C
985 17-01-2019 10:00:00 6 C 90 % 4.49 C
986 17-01-2019 10:05:00 6.2 C 89 % 4.53 C
987 17-01-2019 10:10:00 6.2 C 88 % 4.36 C
988 17-01-2019 10:15:00 6.3 C 87 % 4.3 C
989 17-01-2019 10:20:00 6.3 C 87 % 4.3 C
990 17-01-2019 10:25:00 6.4 C 86 % 4.23 C
991 17-01-2019 10:30:00 6.4 C 86 % 4.23 C
992 17-01-2019 10:35:00 6.4 C 85 % 4.07 C
993 17-01-2019 10:40:00 6.4 C 86 % 4.23 C
994 17-01-2019 10:45:00 6.4 C 85 % 4.07 C
995 17-01-2019 10:50:00 6.3 C 85 % 3.97 C
996 17-01-2019 10:55:00 6.3 C 85 % 3.97 C
997 17-01-2019 11:00:00 6.2 C 85 % 3.87 C
998 17-01-2019 11:05:00 6.3 C 84 % 3.8 C
999 17-01-2019 11:10:00 6.4 C 84 % 3.9 C
1000 17-01-2019 11:15:00 6.5 C 84 % 4 C
Sensor: Nr:Datum:Temp:Feuchte:Taupunkt:
Aussen-T/F 1001 17-01-2019 11:20:00 6.6 C 84 % 4.1 C
1002 17-01-2019 11:25:00 6.6 C 84 % 4.1 C
1003 17-01-2019 11:30:00 6.7 C 84 % 4.19 C
1004 17-01-2019 11:35:00 6.8 C 83 % 4.12 C
1005 17-01-2019 11:40:00 6.9 C 83 % 4.22 C
1006 17-01-2019 11:45:00 7 C 83 % 4.32 C
1007 17-01-2019 11:50:00 7.1 C 83 % 4.41 C
1008 17-01-2019 11:55:00 7.1 C 83 % 4.41 C
1009 17-01-2019 12:00:00 7.1 C 83 % 4.41 C
1010 17-01-2019 12:05:00 7.1 C 83 % 4.41 C
1011 17-01-2019 12:10:00 7.1 C 83 % 4.41 C
1012 17-01-2019 12:15:00 7.1 C 83 % 4.41 C
1013 17-01-2019 12:20:00 7.1 C 83 % 4.41 C
1014 17-01-2019 12:25:00 7.1 C 82 % 4.24 C
1015 17-01-2019 12:30:00 7.1 C 82 % 4.24 C
1016 17-01-2019 12:35:00 7.1 C 83 % 4.41 C
1017 17-01-2019 12:40:00 7.2 C 83 % 4.51 C
1018 17-01-2019 12:45:00 7.2 C 82 % 4.34 C
1019 17-01-2019 12:50:00 7.2 C 82 % 4.34 C
1020 17-01-2019 12:55:00 7.2 C 83 % 4.51 C
1021 17-01-2019 13:00:00 7.2 C 82 % 4.34 C
1022 17-01-2019 13:05:00 7.2 C 82 % 4.34 C
1023 17-01-2019 13:10:00 7.1 C 82 % 4.24 C
1024 17-01-2019 13:15:00 6.9 C 82 % 4.05 C
1025 17-01-2019 13:20:00 7 C 83 % 4.32 C
Sensor: Nr:Datum:Temp:Feuchte:Taupunkt:
Aussen-T/F 1026 17-01-2019 13:25:00 7.1 C 82 % 4.24 C
1027 17-01-2019 13:30:00 7.2 C 82 % 4.34 C
1028 17-01-2019 13:35:00 7.3 C 82 % 4.44 C
1029 17-01-2019 13:40:00 7.3 C 81 % 4.26 C
1030 17-01-2019 13:45:00 7.4 C 81 % 4.36 C
1031 17-01-2019 13:50:00 7.5 C 81 % 4.46 C
1032 17-01-2019 13:55:00 7.5 C 80 % 4.28 C
1033 17-01-2019 14:00:00 7.4 C 81 % 4.36 C
1034 17-01-2019 14:05:00 7.3 C 81 % 4.26 C
1035 17-01-2019 14:10:00 7.3 C 81 % 4.26 C
1036 17-01-2019 14:15:00 7.3 C 81 % 4.26 C
1037 17-01-2019 14:20:00 7.3 C 81 % 4.26 C
1038 17-01-2019 14:25:00 7.1 C 82 % 4.24 C
1039 17-01-2019 14:30:00 6.1 C 85 % 3.77 C
1040 17-01-2019 14:35:00 5.4 C 87 % 3.41 C
1041 17-01-2019 14:40:00 5 C 89 % 3.34 C
1042 17-01-2019 14:45:00 4.9 C 91 % 3.56 C
1043 17-01-2019 14:50:00 4.9 C 91 % 3.56 C
1044 17-01-2019 14:55:00 4.9 C 92 % 3.71 C
1045 17-01-2019 15:00:00 4.9 C 92 % 3.71 C
1046 17-01-2019 15:05:00 4.9 C 91 % 3.56 C
1047 17-01-2019 15:10:00 5 C 91 % 3.66 C
1048 17-01-2019 15:15:00 4.9 C 90 % 3.4 C
1049 17-01-2019 15:20:00 4.9 C 90 % 3.4 C
1050 17-01-2019 15:25:00 4.9 C 90 % 3.4 C
Sensor: Nr:Datum:Temp:Feuchte:Taupunkt:
Aussen-T/F 1051 17-01-2019 15:30:00 4.9 C 90 % 3.4 C
1052 17-01-2019 15:35:00 4.9 C 91 % 3.56 C
1053 17-01-2019 15:40:00 4.9 C 90 % 3.4 C
1054 17-01-2019 15:45:00 4.8 C 89 % 3.14 C
1055 17-01-2019 15:50:00 4.8 C 88 % 2.99 C
1056 17-01-2019 15:55:00 4.8 C 89 % 3.14 C
1057 17-01-2019 16:00:00 4.9 C 88 % 3.08 C
1058 17-01-2019 16:05:00 4.9 C 88 % 3.08 C
1059 17-01-2019 16:10:00 5 C 87 % 3.02 C
1060 17-01-2019 16:15:00 5 C 87 % 3.02 C
1061 17-01-2019 16:20:00 5 C 87 % 3.02 C
1062 17-01-2019 16:25:00 5.1 C 87 % 3.12 C
1063 17-01-2019 16:30:00 5.1 C 87 % 3.12 C
1064 17-01-2019 16:35:00 5.1 C 87 % 3.12 C
1065 17-01-2019 16:40:00 5.1 C 87 % 3.12 C
1066 17-01-2019 16:45:00 5 C 86 % 2.86 C
1067 17-01-2019 16:50:00 4.1 C 85 % 1.81 C
1068 17-01-2019 16:55:00 3.4 C 88 % 1.61 C
1069 17-01-2019 17:00:00 3.2 C 90 % 1.72 C
1070 17-01-2019 17:05:00 3.1 C 91 % 1.78 C
1071 17-01-2019 17:10:00 2.9 C 91 % 1.58 C
1072 17-01-2019 17:15:00 2.9 C 92 % 1.73 C
1073 17-01-2019 17:20:00 2.9 C 92 % 1.73 C
1074 17-01-2019 17:25:00 2.9 C 92 % 1.73 C
1075 17-01-2019 17:30:00 2.9 C 92 % 1.73 C
Sensor: Nr:Datum:Temp:Feuchte:Taupunkt:
Aussen-T/F 1076 17-01-2019 17:35:00 2.8 C 93 % 1.78 C
1077 17-01-2019 17:40:00 2.8 C 93 % 1.78 C
1078 17-01-2019 17:45:00 2.8 C 93 % 1.78 C
1079 17-01-2019 17:50:00 2.8 C 93 % 1.78 C
1080 17-01-2019 17:55:00 2.8 C 93 % 1.78 C
1081 17-01-2019 18:00:00 2.8 C 93 % 1.78 C
1082 17-01-2019 18:05:00 2.8 C 93 % 1.78 C
1083 17-01-2019 18:10:00 2.8 C 93 % 1.78 C
1084 17-01-2019 18:15:00 2.8 C 93 % 1.78 C
1085 17-01-2019 18:20:00 2.8 C 93 % 1.78 C
1086 17-01-2019 18:25:00 2.8 C 93 % 1.78 C
1087 17-01-2019 18:30:00 2.7 C 93 % 1.68 C
1088 17-01-2019 18:35:00 2.7 C 93 % 1.68 C
1089 17-01-2019 18:40:00 2.7 C 92 % 1.53 C
1090 17-01-2019 18:45:00 2.7 C 92 % 1.53 C
1091 17-01-2019 18:50:00 2.6 C 91 % 1.28 C
1092 17-01-2019 18:55:00 2.4 C 91 % 1.08 C
1093 17-01-2019 19:00:00 2.4 C 91 % 1.08 C
1094 17-01-2019 19:05:00 2.4 C 91 % 1.08 C
1095 17-01-2019 19:10:00 2.3 C 91 % 0.99 C
1096 17-01-2019 19:15:00 2.3 C 91 % 0.99 C
1097 17-01-2019 19:20:00 2.3 C 91 % 0.99 C
1098 17-01-2019 19:25:00 2.3 C 91 % 0.99 C
1099 17-01-2019 19:30:00 2.4 C 90 % 0.93 C
1100 17-01-2019 19:35:00 2.4 C 89 % 0.78 C
Sensor: Nr:Datum:Temp:Feuchte:Taupunkt:
Aussen-T/F 1101 17-01-2019 19:40:00 2.4 C 89 % 0.78 C
1102 17-01-2019 19:45:00 2.4 C 89 % 0.78 C
1103 17-01-2019 19:50:00 2.4 C 89 % 0.78 C
1104 17-01-2019 19:55:00 2.4 C 89 % 0.78 C
1105 17-01-2019 20:00:00 2.4 C 89 % 0.78 C
1106 17-01-2019 20:05:00 2.5 C 89 % 0.88 C
1107 17-01-2019 20:10:00 2.5 C 89 % 0.88 C
1108 17-01-2019 20:15:00 2.4 C 89 % 0.78 C
1109 17-01-2019 20:20:00 2.3 C 88 % 0.52 C
1110 17-01-2019 20:25:00 2.3 C 88 % 0.52 C
1111 17-01-2019 20:30:00 2.3 C 88 % 0.52 C
1112 17-01-2019 20:35:00 2.3 C 88 % 0.52 C
1113 17-01-2019 20:40:00 2.3 C 88 % 0.52 C
1114 17-01-2019 20:45:00 2.4 C 88 % 0.62 C
1115 17-01-2019 20:50:00 2.4 C 88 % 0.62 C
1116 17-01-2019 20:55:00 2.4 C 88 % 0.62 C
1117 17-01-2019 21:00:00 2.5 C 87 % 0.56 C
1118 17-01-2019 21:05:00 2.5 C 87 % 0.56 C
1119 17-01-2019 21:10:00 2.5 C 86 % 0.4 C
1120 17-01-2019 21:15:00 2.6 C 86 % 0.5 C
1121 17-01-2019 21:20:00 2.7 C 86 % 0.6 C
1122 17-01-2019 21:25:00 2.7 C 86 % 0.6 C
1123 17-01-2019 21:30:00 2.8 C 86 % 0.7 C
1124 17-01-2019 21:35:00 2.8 C 86 % 0.7 C
1125 17-01-2019 21:40:00 2.8 C 86 % 0.7 C
Sensor: Nr:Datum:Temp:Feuchte:Taupunkt:
Aussen-T/F 1126 17-01-2019 21:45:00 2.8 C 86 % 0.7 C
1127 17-01-2019 21:50:00 2.8 C 86 % 0.7 C
1128 17-01-2019 21:55:00 2.8 C 87 % 0.86 C
1129 17-01-2019 22:00:00 2.8 C 87 % 0.86 C
1130 17-01-2019 22:05:00 2.8 C 87 % 0.86 C
1131 17-01-2019 22:10:00 2.7 C 88 % 0.92 C
1132 17-01-2019 22:15:00 2.6 C 89 % 0.97 C
1133 17-01-2019 22:20:00 2.6 C 89 % 0.97 C
1134 17-01-2019 22:25:00 2.5 C 89 % 0.88 C
1135 17-01-2019 22:30:00 2.5 C 89 % 0.88 C
1136 17-01-2019 22:35:00 2.6 C 89 % 0.97 C
1137 17-01-2019 22:40:00 2.7 C 88 % 0.92 C
1138 17-01-2019 22:45:00 2.8 C 87 % 0.86 C
1139 17-01-2019 22:50:00 2.9 C 86 % 0.8 C
1140 17-01-2019 22:55:00 2.9 C 85 % 0.63 C
1141 17-01-2019 23:00:00 3 C 85 % 0.73 C
1142 17-01-2019 23:05:00 3 C 85 % 0.73 C
1143 17-01-2019 23:10:00 3 C 85 % 0.73 C
1144 17-01-2019 23:15:00 2.9 C 85 % 0.63 C
1145 17-01-2019 23:20:00 2.9 C 85 % 0.63 C
1146 17-01-2019 23:25:00 2.9 C 85 % 0.63 C
1147 17-01-2019 23:30:00 2.9 C 85 % 0.63 C
1148 17-01-2019 23:35:00 2.9 C 85 % 0.63 C
1149 17-01-2019 23:40:00 2.9 C 85 % 0.63 C
1150 17-01-2019 23:45:00 2.9 C 86 % 0.8 C
Sensor: Nr:Datum:Temp:Feuchte:Taupunkt:
Aussen-T/F 1151 17-01-2019 23:50:00 2.9 C 86 % 0.8 C
1152 17-01-2019 23:55:00 2.8 C 86 % 0.7 C
1153 18-01-2019 00:00:00 2.8 C 87 % 0.86 C
1154 18-01-2019 00:05:00 2.8 C 87 % 0.86 C
1155 18-01-2019 00:10:00 2.7 C 88 % 0.92 C
1156 18-01-2019 00:15:00 2.7 C 88 % 0.92 C
1157 18-01-2019 00:20:00 2.6 C 88 % 0.82 C
1158 18-01-2019 00:25:00 2.6 C 87 % 0.66 C
1159 18-01-2019 00:30:00 2.5 C 87 % 0.56 C
1160 18-01-2019 00:35:00 2.4 C 87 % 0.46 C
1161 18-01-2019 00:40:00 2.3 C 88 % 0.52 C
1162 18-01-2019 00:45:00 2.2 C 88 % 0.42 C
1163 18-01-2019 00:50:00 2.2 C 89 % 0.58 C
1164 18-01-2019 00:55:00 2.1 C 89 % 0.48 C
1165 18-01-2019 01:00:00 2.1 C 89 % 0.48 C
1166 18-01-2019 01:05:00 2.1 C 88 % 0.33 C
1167 18-01-2019 01:10:00 2.1 C 89 % 0.48 C
1168 18-01-2019 01:15:00 2.1 C 88 % 0.33 C
1169 18-01-2019 01:20:00 2.1 C 88 % 0.33 C
1170 18-01-2019 01:25:00 2.1 C 89 % 0.48 C
1171 18-01-2019 01:30:00 2.1 C 89 % 0.48 C
1172 18-01-2019 01:35:00 2.1 C 88 % 0.33 C
1173 18-01-2019 01:40:00 2.1 C 89 % 0.48 C
1174 18-01-2019 01:45:00 2.2 C 88 % 0.42 C
1175 18-01-2019 01:50:00 2.2 C 88 % 0.42 C
Sensor: Nr:Datum:Temp:Feuchte:Taupunkt:
Aussen-T/F 1176 18-01-2019 01:55:00 2.2 C 88 % 0.42 C
1177 18-01-2019 02:00:00 2.2 C 88 % 0.42 C
1178 18-01-2019 02:05:00 2.2 C 88 % 0.42 C
1179 18-01-2019 02:10:00 2.2 C 87 % 0.27 C
1180 18-01-2019 02:15:00 2.2 C 87 % 0.27 C
1181 18-01-2019 02:20:00 2.2 C 87 % 0.27 C
1182 18-01-2019 02:25:00 2.2 C 88 % 0.42 C
1183 18-01-2019 02:30:00 2.2 C 88 % 0.42 C
1184 18-01-2019 02:35:00 2.2 C 88 % 0.42 C
1185 18-01-2019 02:40:00 2.2 C 88 % 0.42 C
1186 18-01-2019 02:45:00 2.2 C 88 % 0.42 C
1187 18-01-2019 02:50:00 2.3 C 88 % 0.52 C
1188 18-01-2019 02:55:00 2.3 C 88 % 0.52 C
1189 18-01-2019 03:00:00 2.3 C 88 % 0.52 C
1190 18-01-2019 03:05:00 2.3 C 88 % 0.52 C
1191 18-01-2019 03:10:00 2.2 C 89 % 0.58 C
1192 18-01-2019 03:15:00 2.1 C 90 % 0.64 C
1193 18-01-2019 03:20:00 1.9 C 90 % 0.44 C
1194 18-01-2019 03:25:00 1.9 C 91 % 0.59 C
1195 18-01-2019 03:30:00 1.9 C 91 % 0.59 C
1196 18-01-2019 03:35:00 1.8 C 91 % 0.49 C
1197 18-01-2019 03:40:00 1.8 C 92 % 0.64 C
1198 18-01-2019 03:45:00 1.8 C 92 % 0.64 C
1199 18-01-2019 03:50:00 1.8 C 92 % 0.64 C
1200 18-01-2019 03:55:00 1.7 C 92 % 0.54 C
Sensor: Nr:Datum:Temp:Feuchte:Taupunkt:
Aussen-T/F 1201 18-01-2019 04:00:00 1.7 C 93 % 0.69 C
1202 18-01-2019 04:05:00 1.7 C 93 % 0.69 C
1203 18-01-2019 04:10:00 1.7 C 93 % 0.69 C
1204 18-01-2019 04:15:00 1.7 C 93 % 0.69 C
1205 18-01-2019 04:20:00 1.7 C 93 % 0.69 C
1206 18-01-2019 04:25:00 1.7 C 93 % 0.69 C
1207 18-01-2019 04:30:00 1.7 C 93 % 0.69 C
1208 18-01-2019 04:35:00 1.7 C 93 % 0.69 C
1209 18-01-2019 04:40:00 1.7 C 93 % 0.69 C
1210 18-01-2019 04:45:00 1.8 C 93 % 0.79 C
1211 18-01-2019 04:50:00 1.8 C 93 % 0.79 C
1212 18-01-2019 04:55:00 1.8 C 92 % 0.64 C
1213 18-01-2019 05:00:00 1.9 C 92 % 0.74 C
1214 18-01-2019 05:05:00 1.9 C 92 % 0.74 C
1215 18-01-2019 05:10:00 2 C 92 % 0.84 C
1216 18-01-2019 05:15:00 2 C 92 % 0.84 C
1217 18-01-2019 05:20:00 2.1 C 91 % 0.79 C
1218 18-01-2019 05:25:00 2.1 C 91 % 0.79 C
1219 18-01-2019 05:30:00 2 C 91 % 0.69 C
1220 18-01-2019 05:35:00 1.9 C 91 % 0.59 C
1221 18-01-2019 05:40:00 1.9 C 92 % 0.74 C
1222 18-01-2019 05:45:00 1.9 C 92 % 0.74 C
1223 18-01-2019 05:50:00 1.9 C 92 % 0.74 C
1224 18-01-2019 05:55:00 1.9 C 92 % 0.74 C
1225 18-01-2019 06:00:00 1.8 C 92 % 0.64 C
Sensor: Nr:Datum:Temp:Feuchte:Taupunkt:
Aussen-T/F 1226 18-01-2019 06:05:00 1.7 C 92 % 0.54 C
1227 18-01-2019 06:10:00 1.7 C 93 % 0.69 C
1228 18-01-2019 06:15:00 1.6 C 93 % 0.59 C
1229 18-01-2019 06:20:00 1.6 C 93 % 0.59 C
1230 18-01-2019 06:25:00 1.6 C 93 % 0.59 C
1231 18-01-2019 06:30:00 1.5 C 93 % 0.49 C
1232 18-01-2019 06:35:00 1.5 C 93 % 0.49 C
1233 18-01-2019 06:40:00 1.5 C 94 % 0.64 C
1234 18-01-2019 06:45:00 1.5 C 93 % 0.49 C
1235 18-01-2019 06:50:00 1.4 C 94 % 0.54 C
1236 18-01-2019 06:55:00 1.4 C 94 % 0.54 C
1237 18-01-2019 07:00:00 1.3 C 94 % 0.44 C
1238 18-01-2019 07:05:00 1.2 C 93 % 0.2 C
1239 18-01-2019 07:10:00 1.1 C 93 % 0.1 C
1240 18-01-2019 07:15:00 1.1 C 93 % 0.1 C
1241 18-01-2019 07:20:00 1 C 94 % 0.15 C
1242 18-01-2019 07:25:00 0.9 C 94 % 0.05 C
1243 18-01-2019 07:30:00 0.8 C 94 % -0.05 C
1244 18-01-2019 07:35:00 0.8 C 94 % -0.05 C
1245 18-01-2019 07:40:00 0.8 C 94 % -0.05 C
1246 18-01-2019 07:45:00 0.8 C 94 % -0.05 C
1247 18-01-2019 07:50:00 0.8 C 94 % -0.05 C
1248 18-01-2019 07:55:00 0.7 C 94 % -0.15 C
1249 18-01-2019 08:00:00 0.6 C 94 % -0.25 C
1250 18-01-2019 08:05:00 0.5 C 94 % -0.35 C
Sensor: Nr:Datum:Temp:Feuchte:Taupunkt:
Aussen-T/F 1251 18-01-2019 08:10:00 0.4 C 94 % -0.45 C
1252 18-01-2019 08:15:00 0.4 C 94 % -0.45 C
1253 18-01-2019 08:20:00 0.3 C 94 % -0.55 C
1254 18-01-2019 08:25:00 0.3 C 94 % -0.55 C
1255 18-01-2019 08:30:00 0.2 C 94 % -0.65 C
1256 18-01-2019 08:35:00 0.2 C 94 % -0.65 C
1257 18-01-2019 08:40:00 0.2 C 94 % -0.65 C
1258 18-01-2019 08:45:00 0.1 C 94 % -0.75 C
1259 18-01-2019 08:50:00 0.1 C 94 % -0.75 C
1260 18-01-2019 08:55:00 0 C 94 % -0.85 C
1261 18-01-2019 09:00:00 0 C 94 % -0.85 C
1262 18-01-2019 09:05:00 0 C 95 % -0.7 C
1263 18-01-2019 09:10:00 0.1 C 95 % -0.6 C
1264 18-01-2019 09:15:00 0.1 C 95 % -0.6 C
1265 18-01-2019 09:20:00 0.1 C 95 % -0.6 C
1266 18-01-2019 09:25:00 0.1 C 95 % -0.6 C
1267 18-01-2019 09:30:00 0.1 C 95 % -0.6 C
1268 18-01-2019 09:35:00 0 C 95 % -0.7 C
1269 18-01-2019 09:40:00 -0.1 C 95 % -0.8 C
1270 18-01-2019 09:45:00 -0.1 C 95 % -0.8 C
1271 18-01-2019 09:50:00 -0.1 C 95 % -0.8 C
1272 18-01-2019 09:55:00 -0.1 C 95 % -0.8 C
1273 18-01-2019 10:00:00 -0.1 C 95 % -0.8 C
1274 18-01-2019 10:05:00 -0.1 C 95 % -0.8 C
1275 18-01-2019 10:10:00 -0.1 C 95 % -0.8 C
Sensor: Nr:Datum:Temp:Feuchte:Taupunkt:
Aussen-T/F 1276 18-01-2019 10:15:00 -0.2 C 95 % -0.9 C
1277 18-01-2019 10:20:00 -0.1 C 95 % -0.8 C
1278 18-01-2019 10:25:00 0 C 95 % -0.7 C
1279 18-01-2019 10:30:00 0.1 C 95 % -0.6 C
1280 18-01-2019 10:35:00 0.1 C 95 % -0.6 C
1281 18-01-2019 10:40:00 0.2 C 95 % -0.5 C
1282 18-01-2019 10:45:00 0.3 C 96 % -0.26 C
1283 18-01-2019 10:50:00 0.4 C 95 % -0.31 C
1284 18-01-2019 10:55:00 0.5 C 96 % -0.06 C
1285 18-01-2019 11:00:00 0.6 C 96 % 0.04 C
1286 18-01-2019 11:05:00 0.6 C 96 % 0.04 C
1287 18-01-2019 11:10:00 0.7 C 96 % 0.14 C
1288 18-01-2019 11:15:00 0.7 C 96 % 0.14 C
1289 18-01-2019 11:20:00 0.7 C 96 % 0.14 C
1290 18-01-2019 11:25:00 0.8 C 95 % 0.09 C
1291 18-01-2019 11:30:00 0.9 C 96 % 0.34 C
1292 18-01-2019 11:35:00 1 C 96 % 0.44 C
1293 18-01-2019 11:40:00 1.1 C 96 % 0.54 C
1294 18-01-2019 11:45:00 1.2 C 96 % 0.63 C
1295 18-01-2019 11:50:00 1.3 C 96 % 0.73 C
1296 18-01-2019 11:55:00 1.4 C 96 % 0.83 C
1297 18-01-2019 12:00:00 1.4 C 95 % 0.69 C
1298 18-01-2019 12:05:00 1.5 C 95 % 0.79 C
1299 18-01-2019 12:10:00 1.5 C 95 % 0.79 C
1300 18-01-2019 12:15:00 1.6 C 95 % 0.89 C
Sensor: Nr:Datum:Temp:Feuchte:Taupunkt:
Aussen-T/F 1301 18-01-2019 12:20:00 1.6 C 95 % 0.89 C
1302 18-01-2019 12:25:00 1.6 C 95 % 0.89 C
1303 18-01-2019 12:30:00 1.7 C 95 % 0.99 C
1304 18-01-2019 12:35:00 1.7 C 95 % 0.99 C
1305 18-01-2019 12:40:00 1.6 C 94 % 0.74 C
1306 18-01-2019 12:45:00 1.6 C 94 % 0.74 C
1307 18-01-2019 12:50:00 1.6 C 94 % 0.74 C
1308 18-01-2019 12:55:00 1.6 C 94 % 0.74 C
1309 18-01-2019 13:00:00 1.6 C 94 % 0.74 C
1310 18-01-2019 13:05:00 1.6 C 93 % 0.59 C
1311 18-01-2019 13:10:00 1.6 C 93 % 0.59 C
1312 18-01-2019 13:15:00 1.6 C 93 % 0.59 C
1313 18-01-2019 13:20:00 1.7 C 92 % 0.54 C
1314 18-01-2019 13:25:00 1.8 C 90 % 0.34 C
1315 18-01-2019 13:30:00 1.9 C 90 % 0.44 C
1316 18-01-2019 13:35:00 1.9 C 89 % 0.28 C
1317 18-01-2019 13:40:00 2 C 89 % 0.38 C
1318 18-01-2019 13:45:00 2.1 C 89 % 0.48 C
1319 18-01-2019 13:50:00 2.2 C 87 % 0.27 C
1320 18-01-2019 13:55:00 2.2 C 87 % 0.27 C
1321 18-01-2019 14:00:00 2.3 C 87 % 0.36 C
1322 18-01-2019 14:05:00 2.3 C 87 % 0.36 C
1323 18-01-2019 14:10:00 2.2 C 88 % 0.42 C
1324 18-01-2019 14:15:00 2.2 C 88 % 0.42 C
1325 18-01-2019 14:20:00 2.1 C 88 % 0.33 C
Sensor: Nr:Datum:Temp:Feuchte:Taupunkt:
Aussen-T/F 1326 18-01-2019 14:25:00 2.1 C 88 % 0.33 C
1327 18-01-2019 14:30:00 1.9 C 89 % 0.28 C
1328 18-01-2019 14:35:00 1.8 C 89 % 0.19 C
1329 18-01-2019 14:40:00 1.7 C 89 % 0.09 C
1330 18-01-2019 14:45:00 1.7 C 89 % 0.09 C
1331 18-01-2019 14:50:00 1.6 C 89 % -0.01 C
1332 18-01-2019 14:55:00 1.4 C 90 % -0.06 C
1333 18-01-2019 15:00:00 1.3 C 90 % -0.15 C
1334 18-01-2019 15:05:00 1.3 C 90 % -0.15 C
1335 18-01-2019 15:10:00 1.2 C 90 % -0.25 C
1336 18-01-2019 15:15:00 1.2 C 90 % -0.25 C
1337 18-01-2019 15:20:00 1.2 C 90 % -0.25 C
1338 18-01-2019 15:25:00 1.1 C 90 % -0.35 C
1339 18-01-2019 15:30:00 1.1 C 90 % -0.35 C
1340 18-01-2019 15:35:00 1.1 C 90 % -0.35 C
1341 18-01-2019 15:40:00 1.1 C 90 % -0.35 C
1342 18-01-2019 15:45:00 1 C 91 % -0.3 C
1343 18-01-2019 15:50:00 1 C 91 % -0.3 C
1344 18-01-2019 15:55:00 1 C 91 % -0.3 C
1345 18-01-2019 16:00:00 1 C 91 % -0.3 C
1346 18-01-2019 16:05:00 1 C 91 % -0.3 C
1347 18-01-2019 16:10:00 0.9 C 91 % -0.4 C
1348 18-01-2019 16:15:00 0.9 C 90 % -0.55 C
1349 18-01-2019 16:20:00 0.9 C 90 % -0.55 C
1350 18-01-2019 16:25:00 0.9 C 90 % -0.55 C
Sensor: Nr:Datum:Temp:Feuchte:Taupunkt:
Aussen-T/F 1351 18-01-2019 16:30:00 0.8 C 90 % -0.65 C
1352 18-01-2019 16:35:00 0.8 C 90 % -0.65 C
1353 18-01-2019 16:40:00 0.8 C 90 % -0.65 C
1354 18-01-2019 16:45:00 0.7 C 90 % -0.75 C
1355 18-01-2019 16:50:00 0.7 C 90 % -0.75 C
1356 18-01-2019 16:55:00 0.6 C 90 % -0.85 C
1357 18-01-2019 17:00:00 0.5 C 90 % -0.95 C
1358 18-01-2019 17:05:00 0.4 C 90 % -1.04 C
1359 18-01-2019 17:10:00 0.3 C 90 % -1.14 C
1360 18-01-2019 17:15:00 0.3 C 90 % -1.14 C
1361 18-01-2019 17:20:00 0.3 C 90 % -1.14 C
1362 18-01-2019 17:25:00 0.2 C 90 % -1.24 C
1363 18-01-2019 17:30:00 0.2 C 90 % -1.24 C
1364 18-01-2019 17:35:00 0.2 C 90 % -1.24 C
1365 18-01-2019 17:40:00 0.1 C 90 % -1.34 C
1366 18-01-2019 17:45:00 0.1 C 90 % -1.34 C
1367 18-01-2019 17:50:00 0.1 C 90 % -1.34 C
1368 18-01-2019 17:55:00 0 C 91 % -1.29 C
1369 18-01-2019 18:00:00 -0.1 C 90 % -1.54 C
1370 18-01-2019 18:05:00 -0.1 C 91 % -1.39 C
1371 18-01-2019 18:10:00 -0.1 C 90 % -1.54 C
1372 18-01-2019 18:15:00 -0.2 C 90 % -1.64 C
1373 18-01-2019 18:20:00 -0.2 C 91 % -1.49 C
1374 18-01-2019 18:25:00 -0.2 C 91 % -1.49 C
1375 18-01-2019 18:30:00 -0.3 C 91 % -1.59 C
Sensor: Nr:Datum:Temp:Feuchte:Taupunkt:
Aussen-T/F 1376 18-01-2019 18:35:00 -0.3 C 91 % -1.59 C
1377 18-01-2019 18:40:00 -0.3 C 91 % -1.59 C
1378 18-01-2019 18:45:00 -0.4 C 91 % -1.69 C
1379 18-01-2019 18:50:00 -0.4 C 91 % -1.69 C
1380 18-01-2019 18:55:00 -0.4 C 91 % -1.69 C
1381 18-01-2019 19:00:00 -0.5 C 92 % -1.64 C
1382 18-01-2019 19:05:00 -0.6 C 92 % -1.74 C
1383 18-01-2019 19:10:00 -0.6 C 92 % -1.74 C
1384 18-01-2019 19:15:00 -0.6 C 92 % -1.74 C
1385 18-01-2019 19:20:00 -0.7 C 92 % -1.83 C
1386 18-01-2019 19:25:00 -0.7 C 92 % -1.83 C
1387 18-01-2019 19:30:00 -0.7 C 92 % -1.83 C
1388 18-01-2019 19:35:00 -0.7 C 92 % -1.83 C
1389 18-01-2019 19:40:00 -0.7 C 92 % -1.83 C
1390 18-01-2019 19:45:00 -0.7 C 92 % -1.83 C
1391 18-01-2019 19:50:00 -0.7 C 92 % -1.83 C
1392 18-01-2019 19:55:00 -0.7 C 92 % -1.83 C
1393 18-01-2019 20:00:00 -0.8 C 93 % -1.79 C
1394 18-01-2019 20:05:00 -0.8 C 93 % -1.79 C
1395 18-01-2019 20:10:00 -0.8 C 93 % -1.79 C
1396 18-01-2019 20:15:00 -0.8 C 93 % -1.79 C
1397 18-01-2019 20:20:00 -0.8 C 92 % -1.93 C
1398 18-01-2019 20:25:00 -0.8 C 93 % -1.79 C
1399 18-01-2019 20:30:00 -0.8 C 93 % -1.79 C
1400 18-01-2019 20:35:00 -0.8 C 93 % -1.79 C
Sensor: Nr:Datum:Temp:Feuchte:Taupunkt:
Aussen-T/F 1401 18-01-2019 20:40:00 -0.9 C 93 % -1.89 C
1402 18-01-2019 20:45:00 -0.9 C 93 % -1.89 C
1403 18-01-2019 20:50:00 -1 C 93 % -1.99 C
1404 18-01-2019 20:55:00 -1 C 93 % -1.99 C
1405 18-01-2019 21:00:00 -1 C 93 % -1.99 C
1406 18-01-2019 21:05:00 -1 C 93 % -1.99 C
1407 18-01-2019 21:10:00 -1 C 93 % -1.99 C
1408 18-01-2019 21:15:00 -1.1 C 93 % -2.09 C
1409 18-01-2019 21:20:00 -1.1 C 93 % -2.09 C
1410 18-01-2019 21:25:00 -1.1 C 93 % -2.09 C
1411 18-01-2019 21:30:00 -1.1 C 93 % -2.09 C
1412 18-01-2019 21:35:00 -1 C 93 % -1.99 C
1413 18-01-2019 21:40:00 -0.9 C 93 % -1.89 C
1414 18-01-2019 21:45:00 -0.9 C 93 % -1.89 C
1415 18-01-2019 21:50:00 -0.9 C 93 % -1.89 C
1416 18-01-2019 21:55:00 -0.9 C 93 % -1.89 C
1417 18-01-2019 22:00:00 -0.9 C 93 % -1.89 C
1418 18-01-2019 22:05:00 -0.9 C 93 % -1.89 C
1419 18-01-2019 22:10:00 -1 C 93 % -1.99 C
1420 18-01-2019 22:15:00 -1 C 93 % -1.99 C
1421 18-01-2019 22:20:00 -1.1 C 93 % -2.09 C
1422 18-01-2019 22:25:00 -1.1 C 93 % -2.09 C
1423 18-01-2019 22:30:00 -1.1 C 93 % -2.09 C
1424 18-01-2019 22:35:00 -1.1 C 93 % -2.09 C
1425 18-01-2019 22:40:00 -1.1 C 93 % -2.09 C
Sensor: Nr:Datum:Temp:Feuchte:Taupunkt:
Aussen-T/F 1426 18-01-2019 22:45:00 -1.1 C 93 % -2.09 C
1427 18-01-2019 22:50:00 -1.1 C 93 % -2.09 C
1428 18-01-2019 22:55:00 -1.1 C 93 % -2.09 C
1429 18-01-2019 23:00:00 -1.2 C 93 % -2.18 C
1430 18-01-2019 23:05:00 -1.2 C 93 % -2.18 C
1431 18-01-2019 23:10:00 -1.2 C 93 % -2.18 C
1432 18-01-2019 23:15:00 -1.3 C 93 % -2.28 C
1433 18-01-2019 23:20:00 -1.3 C 93 % -2.28 C
1434 18-01-2019 23:25:00 -1.4 C 93 % -2.38 C
1435 18-01-2019 23:30:00 -1.4 C 93 % -2.38 C
1436 18-01-2019 23:35:00 -1.5 C 93 % -2.48 C
1437 18-01-2019 23:40:00 -1.5 C 93 % -2.48 C
1438 18-01-2019 23:45:00 -1.6 C 93 % -2.58 C
1439 18-01-2019 23:50:00 -1.6 C 93 % -2.58 C
1440 18-01-2019 23:55:00 -1.7 C 93 % -2.68 C
1441 19-01-2019 00:00:00 -1.7 C 93 % -2.68 C
1442 19-01-2019 00:05:00 -1.8 C 93 % -2.78 C
1443 19-01-2019 00:10:00 -1.8 C 93 % -2.78 C
1444 19-01-2019 00:15:00 -1.8 C 93 % -2.78 C
1445 19-01-2019 00:20:00 -1.9 C 93 % -2.88 C
1446 19-01-2019 00:25:00 -2 C 93 % -2.98 C
1447 19-01-2019 00:30:00 -2.1 C 93 % -3.08 C
1448 19-01-2019 00:35:00 -2.1 C 93 % -3.08 C
1449 19-01-2019 00:40:00 -2.2 C 93 % -3.18 C
1450 19-01-2019 00:45:00 -2.2 C 93 % -3.18 C
Sensor: Nr:Datum:Temp:Feuchte:Taupunkt:
Aussen-T/F 1451 19-01-2019 00:50:00 -2.2 C 93 % -3.18 C
1452 19-01-2019 00:55:00 -2.3 C 94 % -3.13 C
1453 19-01-2019 01:00:00 -2.3 C 94 % -3.13 C
1454 19-01-2019 01:05:00 -2.4 C 93 % -3.37 C
1455 19-01-2019 01:10:00 -2.4 C 93 % -3.37 C
1456 19-01-2019 01:15:00 -2.5 C 94 % -3.33 C
1457 19-01-2019 01:20:00 -2.6 C 94 % -3.43 C
1458 19-01-2019 01:25:00 -2.6 C 94 % -3.43 C
1459 19-01-2019 01:30:00 -2.6 C 94 % -3.43 C
1460 19-01-2019 01:35:00 -2.7 C 94 % -3.53 C
1461 19-01-2019 01:40:00 -2.7 C 94 % -3.53 C
1462 19-01-2019 01:45:00 -2.7 C 94 % -3.53 C
1463 19-01-2019 01:50:00 -2.7 C 94 % -3.53 C
1464 19-01-2019 01:55:00 -2.8 C 94 % -3.63 C
1465 19-01-2019 02:00:00 -2.8 C 94 % -3.63 C
1466 19-01-2019 02:05:00 -2.8 C 94 % -3.63 C
1467 19-01-2019 02:10:00 -2.8 C 94 % -3.63 C
1468 19-01-2019 02:15:00 -2.8 C 94 % -3.63 C
1469 19-01-2019 02:20:00 -2.9 C 94 % -3.73 C
1470 19-01-2019 02:25:00 -2.9 C 94 % -3.73 C
1471 19-01-2019 02:30:00 -2.9 C 94 % -3.73 C
1472 19-01-2019 02:35:00 -3 C 94 % -3.83 C
1473 19-01-2019 02:40:00 -3 C 94 % -3.83 C
1474 19-01-2019 02:45:00 -3 C 94 % -3.83 C
1475 19-01-2019 02:50:00 -2.9 C 94 % -3.73 C
Sensor: Nr:Datum:Temp:Feuchte:Taupunkt:
Aussen-T/F 1476 19-01-2019 02:55:00 -3 C 94 % -3.83 C
1477 19-01-2019 03:00:00 -3.1 C 94 % -3.93 C
1478 19-01-2019 03:05:00 -3.2 C 94 % -4.03 C
1479 19-01-2019 03:10:00 -3.2 C 94 % -4.03 C
1480 19-01-2019 03:15:00 -3.2 C 95 % -3.88 C
1481 19-01-2019 03:20:00 -3.2 C 95 % -3.88 C
1482 19-01-2019 03:25:00 -3.2 C 95 % -3.88 C
1483 19-01-2019 03:30:00 -3.2 C 95 % -3.88 C
1484 19-01-2019 03:35:00 -3.2 C 95 % -3.88 C
1485 19-01-2019 03:40:00 -3.2 C 95 % -3.88 C
1486 19-01-2019 03:45:00 -3.3 C 94 % -4.13 C
1487 19-01-2019 03:50:00 -3.4 C 95 % -4.08 C
1488 19-01-2019 03:55:00 -3.4 C 95 % -4.08 C
1489 19-01-2019 04:00:00 -3.4 C 95 % -4.08 C
1490 19-01-2019 04:05:00 -3.5 C 95 % -4.18 C
1491 19-01-2019 04:10:00 -3.6 C 95 % -4.28 C
1492 19-01-2019 04:15:00 -3.6 C 94 % -4.42 C
1493 19-01-2019 04:20:00 -3.6 C 95 % -4.28 C
1494 19-01-2019 04:25:00 -3.6 C 95 % -4.28 C
1495 19-01-2019 04:30:00 -3.6 C 95 % -4.28 C
1496 19-01-2019 04:35:00 -3.6 C 95 % -4.28 C
1497 19-01-2019 04:40:00 -3.6 C 95 % -4.28 C
1498 19-01-2019 04:45:00 -3.6 C 95 % -4.28 C
1499 19-01-2019 04:50:00 -3.6 C 95 % -4.28 C
1500 19-01-2019 04:55:00 -3.6 C 95 % -4.28 C
Sensor: Nr:Datum:Temp:Feuchte:Taupunkt:
Aussen-T/F 1501 19-01-2019 05:00:00 -3.6 C 95 % -4.28 C
1502 19-01-2019 05:05:00 -3.7 C 95 % -4.38 C
1503 19-01-2019 05:10:00 -3.7 C 95 % -4.38 C
1504 19-01-2019 05:15:00 -3.8 C 95 % -4.48 C
1505 19-01-2019 05:20:00 -3.8 C 95 % -4.48 C
1506 19-01-2019 05:25:00 -3.9 C 95 % -4.58 C
1507 19-01-2019 05:30:00 -3.9 C 95 % -4.58 C
1508 19-01-2019 05:35:00 -4 C 95 % -4.68 C
1509 19-01-2019 05:40:00 -4.1 C 95 % -4.78 C
1510 19-01-2019 05:45:00 -4 C 95 % -4.68 C
1511 19-01-2019 05:50:00 -3.9 C 95 % -4.58 C
1512 19-01-2019 05:55:00 -3.8 C 95 % -4.48 C
1513 19-01-2019 06:00:00 -3.7 C 95 % -4.38 C
1514 19-01-2019 06:05:00 -3.7 C 95 % -4.38 C
1515 19-01-2019 06:10:00 -3.7 C 95 % -4.38 C
1516 19-01-2019 06:15:00 -3.8 C 95 % -4.48 C
1517 19-01-2019 06:20:00 -3.9 C 95 % -4.58 C
1518 19-01-2019 06:25:00 -4.1 C 95 % -4.78 C
1519 19-01-2019 06:30:00 -4.2 C 95 % -4.88 C
1520 19-01-2019 06:35:00 -4.3 C 95 % -4.98 C
1521 19-01-2019 06:40:00 -4.3 C 95 % -4.98 C
1522 19-01-2019 06:45:00 -4.4 C 95 % -5.08 C
1523 19-01-2019 06:50:00 -4.3 C 95 % -4.98 C
1524 19-01-2019 06:55:00 -4.3 C 95 % -4.98 C
1525 19-01-2019 07:00:00 -4.3 C 95 % -4.98 C
Sensor: Nr:Datum:Temp:Feuchte:Taupunkt:
Aussen-T/F 1526 19-01-2019 07:05:00 -4.4 C 95 % -5.08 C
1527 19-01-2019 07:10:00 -4.4 C 95 % -5.08 C
1528 19-01-2019 07:15:00 -4.4 C 95 % -5.08 C
1529 19-01-2019 07:20:00 -4.4 C 95 % -5.08 C
1530 19-01-2019 07:25:00 -4.4 C 95 % -5.08 C
1531 19-01-2019 07:30:00 -4.6 C 95 % -5.28 C
1532 19-01-2019 07:35:00 -4.6 C 95 % -5.28 C
1533 19-01-2019 07:40:00 -4.6 C 95 % -5.28 C
1534 19-01-2019 07:45:00 -4.6 C 95 % -5.28 C
1535 19-01-2019 07:50:00 -4.7 C 95 % -5.38 C
1536 19-01-2019 07:55:00 -4.7 C 95 % -5.38 C
1537 19-01-2019 08:00:00 -4.7 C 95 % -5.38 C
1538 19-01-2019 08:05:00 -4.7 C 95 % -5.38 C
1539 19-01-2019 08:10:00 -4.8 C 95 % -5.48 C
1540 19-01-2019 08:15:00 -4.8 C 95 % -5.48 C
1541 19-01-2019 08:20:00 -4.8 C 95 % -5.48 C
1542 19-01-2019 08:25:00 -4.8 C 95 % -5.48 C
1543 19-01-2019 08:30:00 -4.8 C 95 % -5.48 C
1544 19-01-2019 08:35:00 -4.8 C 95 % -5.48 C
1545 19-01-2019 08:40:00 -4.8 C 95 % -5.48 C
1546 19-01-2019 08:45:00 -4.8 C 95 % -5.48 C
1547 19-01-2019 08:50:00 -4.8 C 95 % -5.48 C
1548 19-01-2019 08:55:00 -4.8 C 95 % -5.48 C
1549 19-01-2019 09:00:00 -4.7 C 95 % -5.38 C
1550 19-01-2019 09:05:00 -4.7 C 95 % -5.38 C
Sensor: Nr:Datum:Temp:Feuchte:Taupunkt:
Aussen-T/F 1551 19-01-2019 09:10:00 -4.7 C 95 % -5.38 C
1552 19-01-2019 09:15:00 -4.7 C 95 % -5.38 C
1553 19-01-2019 09:20:00 -4.6 C 95 % -5.28 C
1554 19-01-2019 09:25:00 -4.6 C 95 % -5.28 C
1555 19-01-2019 09:30:00 -4.6 C 95 % -5.28 C
1556 19-01-2019 09:35:00 -4.5 C 95 % -5.18 C
1557 19-01-2019 09:40:00 -4.5 C 95 % -5.18 C
1558 19-01-2019 09:45:00 -4.5 C 95 % -5.18 C
1559 19-01-2019 09:50:00 -4.5 C 95 % -5.18 C
1560 19-01-2019 09:55:00 -4.4 C 95 % -5.08 C
1561 19-01-2019 10:00:00 -4.4 C 95 % -5.08 C
1562 19-01-2019 10:05:00 -4.3 C 95 % -4.98 C
1563 19-01-2019 10:10:00 -4.3 C 95 % -4.98 C
1564 19-01-2019 10:15:00 -4.2 C 95 % -4.88 C
1565 19-01-2019 10:20:00 -4.1 C 96 % -4.64 C
1566 19-01-2019 10:25:00 -4 C 95 % -4.68 C
1567 19-01-2019 10:30:00 -3.9 C 96 % -4.44 C
1568 19-01-2019 10:35:00 -3.7 C 96 % -4.24 C
1569 19-01-2019 10:40:00 -3.6 C 96 % -4.14 C
1570 19-01-2019 10:45:00 -3.4 C 96 % -3.94 C
1571 19-01-2019 10:50:00 -3.3 C 96 % -3.84 C
1572 19-01-2019 10:55:00 -3.2 C 96 % -3.75 C
1573 19-01-2019 11:00:00 -3.1 C 96 % -3.65 C
1574 19-01-2019 11:05:00 -2.9 C 96 % -3.45 C
1575 19-01-2019 11:10:00 -2.9 C 96 % -3.45 C
Sensor: Nr:Datum:Temp:Feuchte:Taupunkt:
Aussen-T/F 1576 19-01-2019 11:15:00 -2.8 C 96 % -3.35 C
1577 19-01-2019 11:20:00 -2.8 C 96 % -3.35 C
1578 19-01-2019 11:25:00 -2.8 C 96 % -3.35 C
1579 19-01-2019 11:30:00 -2.7 C 96 % -3.25 C
1580 19-01-2019 11:35:00 -2.7 C 96 % -3.25 C
1581 19-01-2019 11:40:00 -2.7 C 96 % -3.25 C
1582 19-01-2019 11:45:00 -2.6 C 96 % -3.15 C
1583 19-01-2019 11:50:00 -2.6 C 96 % -3.15 C
1584 19-01-2019 11:55:00 -2.6 C 96 % -3.15 C
1585 19-01-2019 12:00:00 -2.5 C 96 % -3.05 C
1586 19-01-2019 12:05:00 -2.4 C 96 % -2.95 C
1587 19-01-2019 12:10:00 -2.4 C 96 % -2.95 C
1588 19-01-2019 12:15:00 -2.4 C 96 % -2.95 C
1589 19-01-2019 12:20:00 -2.3 C 96 % -2.85 C
1590 19-01-2019 12:25:00 -2.3 C 96 % -2.85 C
1591 19-01-2019 12:30:00 -2.2 C 96 % -2.75 C
1592 19-01-2019 12:35:00 -2.2 C 96 % -2.75 C
1593 19-01-2019 12:40:00 -2.2 C 96 % -2.75 C
1594 19-01-2019 12:45:00 -2.1 C 96 % -2.65 C
1595 19-01-2019 12:50:00 -1.9 C 96 % -2.45 C
1596 19-01-2019 12:55:00 -1.9 C 96 % -2.45 C
1597 19-01-2019 13:00:00 -1.8 C 96 % -2.35 C
1598 19-01-2019 13:05:00 -1.7 C 96 % -2.25 C
1599 19-01-2019 13:10:00 -1.7 C 96 % -2.25 C
1600 19-01-2019 13:15:00 -1.6 C 96 % -2.15 C
Sensor: Nr:Datum:Temp:Feuchte:Taupunkt:
Aussen-T/F 1601 19-01-2019 13:20:00 -1.5 C 96 % -2.05 C
1602 19-01-2019 13:25:00 -1.4 C 96 % -1.95 C
1603 19-01-2019 13:30:00 -1.3 C 96 % -1.85 C
1604 19-01-2019 13:35:00 -1.3 C 96 % -1.85 C
1605 19-01-2019 13:40:00 -1.2 C 96 % -1.75 C
1606 19-01-2019 13:45:00 -1.1 C 96 % -1.66 C
1607 19-01-2019 13:50:00 -0.9 C 96 % -1.46 C
1608 19-01-2019 13:55:00 -0.8 C 96 % -1.36 C
1609 19-01-2019 14:00:00 -0.7 C 96 % -1.26 C
1610 19-01-2019 14:05:00 -0.6 C 96 % -1.16 C
1611 19-01-2019 14:10:00 -0.6 C 96 % -1.16 C
1612 19-01-2019 14:15:00 -0.4 C 95 % -1.1 C
1613 19-01-2019 14:20:00 -0.3 C 96 % -0.86 C
1614 19-01-2019 14:25:00 -0.2 C 96 % -0.76 C
1615 19-01-2019 14:30:00 -0.2 C 95 % -0.9 C
1616 19-01-2019 14:35:00 -0.1 C 95 % -0.8 C
1617 19-01-2019 14:40:00 0.1 C 95 % -0.6 C
1618 19-01-2019 14:45:00 0.1 C 95 % -0.6 C
1619 19-01-2019 14:50:00 0.2 C 95 % -0.5 C
1620 19-01-2019 14:55:00 0.2 C 95 % -0.5 C
1621 19-01-2019 15:00:00 0.2 C 95 % -0.5 C
1622 19-01-2019 15:05:00 0.1 C 95 % -0.6 C
1623 19-01-2019 15:10:00 0.1 C 94 % -0.75 C
1624 19-01-2019 15:15:00 0.1 C 94 % -0.75 C
1625 19-01-2019 15:20:00 0.1 C 94 % -0.75 C
Sensor: Nr:Datum:Temp:Feuchte:Taupunkt:
Aussen-T/F 1626 19-01-2019 15:25:00 0.1 C 94 % -0.75 C
1627 19-01-2019 15:30:00 0.1 C 94 % -0.75 C
1628 19-01-2019 15:35:00 0.1 C 94 % -0.75 C
1629 19-01-2019 15:40:00 0 C 94 % -0.85 C
1630 19-01-2019 15:45:00 0 C 94 % -0.85 C
1631 19-01-2019 15:50:00 0 C 94 % -0.85 C
1632 19-01-2019 15:55:00 0.1 C 93 % -0.89 C
1633 19-01-2019 16:00:00 0.1 C 93 % -0.89 C
1634 19-01-2019 16:05:00 0.1 C 93 % -0.89 C
1635 19-01-2019 16:10:00 0.1 C 93 % -0.89 C
1636 19-01-2019 16:15:00 0.1 C 93 % -0.89 C
1637 19-01-2019 16:20:00 0.1 C 93 % -0.89 C
1638 19-01-2019 16:25:00 0.1 C 93 % -0.89 C
1639 19-01-2019 16:30:00 -0.1 C 92 % -1.24 C
1640 19-01-2019 16:35:00 -0.1 C 92 % -1.24 C
1641 19-01-2019 16:40:00 -0.2 C 92 % -1.34 C
1642 19-01-2019 16:45:00 -0.3 C 91 % -1.59 C
1643 19-01-2019 16:50:00 -0.4 C 91 % -1.69 C
1644 19-01-2019 16:55:00 -0.5 C 90 % -1.93 C
1645 19-01-2019 17:00:00 -0.6 C 90 % -2.03 C
1646 19-01-2019 17:05:00 -0.7 C 90 % -2.13 C
1647 19-01-2019 17:10:00 -0.8 C 90 % -2.23 C
1648 19-01-2019 17:15:00 -0.9 C 90 % -2.33 C
1649 19-01-2019 17:20:00 -1 C 89 % -2.58 C
1650 19-01-2019 17:25:00 -1.1 C 89 % -2.68 C
Sensor: Nr:Datum:Temp:Feuchte:Taupunkt:
Aussen-T/F 1651 19-01-2019 17:30:00 -1.2 C 89 % -2.78 C
1652 19-01-2019 17:35:00 -1.2 C 89 % -2.78 C
1653 19-01-2019 17:40:00 -1.3 C 89 % -2.88 C
1654 19-01-2019 17:45:00 -1.3 C 89 % -2.88 C
1655 19-01-2019 17:50:00 -1.3 C 89 % -2.88 C
1656 19-01-2019 17:55:00 -1.4 C 89 % -2.97 C
1657 19-01-2019 18:00:00 -1.4 C 89 % -2.97 C
1658 19-01-2019 18:05:00 -1.5 C 89 % -3.07 C
1659 19-01-2019 18:10:00 -1.6 C 89 % -3.17 C
1660 19-01-2019 18:15:00 -1.6 C 89 % -3.17 C
1661 19-01-2019 18:20:00 -1.6 C 89 % -3.17 C
1662 19-01-2019 18:25:00 -1.7 C 89 % -3.27 C
1663 19-01-2019 18:30:00 -1.7 C 89 % -3.27 C
1664 19-01-2019 18:35:00 -1.8 C 89 % -3.37 C
1665 19-01-2019 18:40:00 -1.9 C 89 % -3.47 C
1666 19-01-2019 18:45:00 -2 C 89 % -3.57 C
1667 19-01-2019 18:50:00 -2.1 C 89 % -3.66 C
1668 19-01-2019 18:55:00 -2.1 C 90 % -3.52 C
1669 19-01-2019 19:00:00 -2.2 C 90 % -3.61 C
1670 19-01-2019 19:05:00 -2.2 C 89 % -3.76 C
1671 19-01-2019 19:10:00 -2.3 C 89 % -3.86 C
1672 19-01-2019 19:15:00 -2.3 C 89 % -3.86 C
1673 19-01-2019 19:20:00 -2.4 C 89 % -3.96 C
1674 19-01-2019 19:25:00 -2.4 C 89 % -3.96 C
1675 19-01-2019 19:30:00 -2.5 C 89 % -4.06 C
Sensor: Nr:Datum:Temp:Feuchte:Taupunkt:
Aussen-T/F 1676 19-01-2019 19:35:00 -2.6 C 89 % -4.16 C
1677 19-01-2019 19:40:00 -2.6 C 89 % -4.16 C
1678 19-01-2019 19:45:00 -2.6 C 89 % -4.16 C
1679 19-01-2019 19:50:00 -2.6 C 89 % -4.16 C
1680 19-01-2019 19:55:00 -2.6 C 89 % -4.16 C
1681 19-01-2019 20:00:00 -2.6 C 89 % -4.16 C
1682 19-01-2019 20:05:00 -2.6 C 90 % -4.01 C
1683 19-01-2019 20:10:00 -2.6 C 90 % -4.01 C
1684 19-01-2019 20:15:00 -2.7 C 90 % -4.11 C
1685 19-01-2019 20:20:00 -2.7 C 90 % -4.11 C
1686 19-01-2019 20:25:00 -2.7 C 90 % -4.11 C
1687 19-01-2019 20:30:00 -2.7 C 90 % -4.11 C
1688 19-01-2019 20:35:00 -2.7 C 90 % -4.11 C
1689 19-01-2019 20:40:00 -2.7 C 90 % -4.11 C
1690 19-01-2019 20:45:00 -2.7 C 90 % -4.11 C
1691 19-01-2019 20:50:00 -2.8 C 90 % -4.21 C
1692 19-01-2019 20:55:00 -2.8 C 90 % -4.21 C
1693 19-01-2019 21:00:00 -2.8 C 90 % -4.21 C
1694 19-01-2019 21:05:00 -2.8 C 90 % -4.21 C
1695 19-01-2019 21:10:00 -2.8 C 90 % -4.21 C
1696 19-01-2019 21:15:00 -2.7 C 90 % -4.11 C
1697 19-01-2019 21:20:00 -2.7 C 90 % -4.11 C
1698 19-01-2019 21:25:00 -2.7 C 90 % -4.11 C
1699 19-01-2019 21:30:00 -2.8 C 89 % -4.36 C
1700 19-01-2019 21:35:00 -2.8 C 89 % -4.36 C
Sensor: Nr:Datum:Temp:Feuchte:Taupunkt:
Aussen-T/F 1701 19-01-2019 21:40:00 -2.9 C 90 % -4.31 C
1702 19-01-2019 21:45:00 -3 C 90 % -4.4 C
1703 19-01-2019 21:50:00 -3.1 C 90 % -4.5 C
1704 19-01-2019 21:55:00 -3.2 C 90 % -4.6 C
1705 19-01-2019 22:00:00 -3.3 C 90 % -4.7 C
1706 19-01-2019 22:05:00 -3.3 C 90 % -4.7 C
1707 19-01-2019 22:10:00 -3.4 C 90 % -4.8 C
1708 19-01-2019 22:15:00 -3.6 C 90 % -5 C
1709 19-01-2019 22:20:00 -3.7 C 90 % -5.1 C
1710 19-01-2019 22:25:00 -3.8 C 90 % -5.2 C
1711 19-01-2019 22:30:00 -3.8 C 90 % -5.2 C
1712 19-01-2019 22:35:00 -3.9 C 90 % -5.29 C
1713 19-01-2019 22:40:00 -4 C 91 % -5.25 C
1714 19-01-2019 22:45:00 -4 C 91 % -5.25 C
1715 19-01-2019 22:50:00 -4.1 C 91 % -5.35 C
1716 19-01-2019 22:55:00 -4.1 C 91 % -5.35 C
1717 19-01-2019 23:00:00 -4.1 C 91 % -5.35 C
1718 19-01-2019 23:05:00 -4.2 C 91 % -5.45 C
1719 19-01-2019 23:10:00 -4.2 C 91 % -5.45 C
1720 19-01-2019 23:15:00 -4.3 C 91 % -5.54 C
1721 19-01-2019 23:20:00 -4.3 C 92 % -5.4 C
1722 19-01-2019 23:25:00 -4.3 C 92 % -5.4 C
1723 19-01-2019 23:30:00 -4.3 C 92 % -5.4 C
1724 19-01-2019 23:35:00 -4.3 C 92 % -5.4 C
1725 19-01-2019 23:40:00 -4.3 C 92 % -5.4 C
Sensor: Nr:Datum:Temp:Feuchte:Taupunkt:
Aussen-T/F 1726 19-01-2019 23:45:00 -4.3 C 92 % -5.4 C
1727 19-01-2019 23:50:00 -4.5 C 91 % -5.74 C
1728 19-01-2019 23:55:00 -4.5 C 92 % -5.6 C
1729 20-01-2019 00:00:00 -4.6 C 92 % -5.7 C
1730 20-01-2019 00:05:00 -4.6 C 92 % -5.7 C
1731 20-01-2019 00:10:00 -4.7 C 92 % -5.8 C
1732 20-01-2019 00:15:00 -4.7 C 92 % -5.8 C
1733 20-01-2019 00:20:00 -4.7 C 92 % -5.8 C
1734 20-01-2019 00:25:00 -4.8 C 92 % -5.9 C
1735 20-01-2019 00:30:00 -4.8 C 92 % -5.9 C
1736 20-01-2019 00:35:00 -4.7 C 93 % -5.66 C
1737 20-01-2019 00:40:00 -4.7 C 93 % -5.66 C
1738 20-01-2019 00:45:00 -4.8 C 93 % -5.75 C
1739 20-01-2019 00:50:00 -4.8 C 93 % -5.75 C
1740 20-01-2019 00:55:00 -4.9 C 92 % -6 C
1741 20-01-2019 01:00:00 -5.1 C 92 % -6.19 C
1742 20-01-2019 01:05:00 -5.1 C 92 % -6.19 C
1743 20-01-2019 01:10:00 -5.2 C 93 % -6.15 C
1744 20-01-2019 01:15:00 -5.2 C 93 % -6.15 C
1745 20-01-2019 01:20:00 -5.3 C 93 % -6.25 C
1746 20-01-2019 01:25:00 -5.3 C 93 % -6.25 C
1747 20-01-2019 01:30:00 -5.4 C 93 % -6.35 C
1748 20-01-2019 01:35:00 -5.4 C 93 % -6.35 C
1749 20-01-2019 01:40:00 -5.4 C 93 % -6.35 C
1750 20-01-2019 01:45:00 -5.3 C 93 % -6.25 C
Sensor: Nr:Datum:Temp:Feuchte:Taupunkt:
Aussen-T/F 1751 20-01-2019 01:50:00 -5.4 C 93 % -6.35 C
1752 20-01-2019 01:55:00 -5.4 C 93 % -6.35 C
1753 20-01-2019 02:00:00 -5.4 C 93 % -6.35 C
1754 20-01-2019 02:05:00 -5.5 C 93 % -6.45 C
1755 20-01-2019 02:10:00 -5.6 C 93 % -6.55 C
1756 20-01-2019 02:15:00 -5.7 C 93 % -6.65 C
1757 20-01-2019 02:20:00 -5.7 C 93 % -6.65 C
1758 20-01-2019 02:25:00 -5.7 C 93 % -6.65 C
1759 20-01-2019 02:30:00 -5.7 C 93 % -6.65 C
1760 20-01-2019 02:35:00 -5.6 C 93 % -6.55 C
1761 20-01-2019 02:40:00 -5.6 C 93 % -6.55 C
1762 20-01-2019 02:45:00 -5.7 C 93 % -6.65 C
1763 20-01-2019 02:50:00 -5.7 C 93 % -6.65 C
1764 20-01-2019 02:55:00 -5.7 C 93 % -6.65 C
1765 20-01-2019 03:00:00 -5.7 C 93 % -6.65 C
1766 20-01-2019 03:05:00 -5.7 C 93 % -6.65 C
1767 20-01-2019 03:10:00 -5.7 C 93 % -6.65 C
1768 20-01-2019 03:15:00 -5.7 C 93 % -6.65 C
1769 20-01-2019 03:20:00 -5.8 C 93 % -6.75 C
1770 20-01-2019 03:25:00 -5.8 C 93 % -6.75 C
1771 20-01-2019 03:30:00 -5.8 C 94 % -6.61 C
1772 20-01-2019 03:35:00 -5.8 C 94 % -6.61 C
1773 20-01-2019 03:40:00 -5.9 C 94 % -6.71 C
1774 20-01-2019 03:45:00 -5.9 C 93 % -6.85 C
1775 20-01-2019 03:50:00 -6 C 93 % -6.95 C
Sensor: Nr:Datum:Temp:Feuchte:Taupunkt:
Aussen-T/F 1776 20-01-2019 03:55:00 -6.1 C 93 % -7.04 C
1777 20-01-2019 04:00:00 -6.2 C 93 % -7.14 C
1778 20-01-2019 04:05:00 -6.2 C 93 % -7.14 C
1779 20-01-2019 04:10:00 -6.2 C 93 % -7.14 C
1780 20-01-2019 04:15:00 -6.2 C 93 % -7.14 C
1781 20-01-2019 04:20:00 -6.2 C 93 % -7.14 C
1782 20-01-2019 04:25:00 -6.2 C 93 % -7.14 C
1783 20-01-2019 04:30:00 -6.2 C 93 % -7.14 C
1784 20-01-2019 04:35:00 -6.2 C 93 % -7.14 C
1785 20-01-2019 04:40:00 -6.3 C 93 % -7.24 C
1786 20-01-2019 04:45:00 -6.3 C 93 % -7.24 C
1787 20-01-2019 04:50:00 -6.3 C 93 % -7.24 C
1788 20-01-2019 04:55:00 -6.4 C 93 % -7.34 C
1789 20-01-2019 05:00:00 -6.4 C 93 % -7.34 C
1790 20-01-2019 05:05:00 -6.6 C 93 % -7.54 C
1791 20-01-2019 05:10:00 -6.6 C 93 % -7.54 C
1792 20-01-2019 05:15:00 -6.6 C 93 % -7.54 C
1793 20-01-2019 05:20:00 -6.6 C 93 % -7.54 C
1794 20-01-2019 05:25:00 -6.6 C 93 % -7.54 C
1795 20-01-2019 05:30:00 -6.6 C 93 % -7.54 C
1796 20-01-2019 05:35:00 -6.7 C 93 % -7.64 C
1797 20-01-2019 05:40:00 -6.7 C 93 % -7.64 C
1798 20-01-2019 05:45:00 -6.7 C 94 % -7.5 C
1799 20-01-2019 05:50:00 -6.7 C 94 % -7.5 C
1800 20-01-2019 05:55:00 -6.7 C 94 % -7.5 C
Sensor: Nr:Datum:Temp:Feuchte:Taupunkt:
Aussen-T/F 1801 20-01-2019 06:00:00 -6.7 C 94 % -7.5 C
1802 20-01-2019 06:05:00 -6.7 C 93 % -7.64 C
1803 20-01-2019 06:10:00 -6.7 C 93 % -7.64 C
1804 20-01-2019 06:15:00 -6.7 C 93 % -7.64 C
1805 20-01-2019 06:20:00 -6.8 C 94 % -7.6 C
1806 20-01-2019 06:25:00 -6.8 C 93 % -7.74 C
1807 20-01-2019 06:30:00 -6.9 C 93 % -7.84 C
1808 20-01-2019 06:35:00 -6.9 C 93 % -7.84 C
1809 20-01-2019 06:40:00 -6.9 C 93 % -7.84 C
1810 20-01-2019 06:45:00 -6.9 C 94 % -7.7 C
1811 20-01-2019 06:50:00 -6.8 C 94 % -7.6 C
1812 20-01-2019 06:55:00 -6.8 C 94 % -7.6 C
1813 20-01-2019 07:00:00 -6.8 C 94 % -7.6 C
1814 20-01-2019 07:05:00 -6.9 C 93 % -7.84 C
1815 20-01-2019 07:10:00 -7 C 93 % -7.94 C
1816 20-01-2019 07:15:00 -7.1 C 93 % -8.04 C
1817 20-01-2019 07:20:00 -7.1 C 93 % -8.04 C
1818 20-01-2019 07:25:00 -7.1 C 93 % -8.04 C
1819 20-01-2019 07:30:00 -7.2 C 93 % -8.14 C
1820 20-01-2019 07:35:00 -7.2 C 93 % -8.14 C
1821 20-01-2019 07:40:00 -7.2 C 93 % -8.14 C
1822 20-01-2019 07:45:00 -7 C 94 % -7.8 C
1823 20-01-2019 07:50:00 -6.9 C 94 % -7.7 C
1824 20-01-2019 07:55:00 -7.1 C 93 % -8.04 C
1825 20-01-2019 08:00:00 -7.2 C 93 % -8.14 C
Sensor: Nr:Datum:Temp:Feuchte:Taupunkt:
Aussen-T/F 1826 20-01-2019 08:05:00 -7.2 C 93 % -8.14 C
1827 20-01-2019 08:10:00 -7.2 C 93 % -8.14 C
1828 20-01-2019 08:15:00 -7.3 C 93 % -8.23 C
1829 20-01-2019 08:20:00 -7.3 C 93 % -8.23 C
1830 20-01-2019 08:25:00 -7.4 C 93 % -8.33 C
1831 20-01-2019 08:30:00 -7.4 C 93 % -8.33 C
1832 20-01-2019 08:35:00 -7.4 C 93 % -8.33 C
1833 20-01-2019 08:40:00 -7.4 C 93 % -8.33 C
1834 20-01-2019 08:45:00 -7.4 C 93 % -8.33 C
1835 20-01-2019 08:50:00 -7.4 C 93 % -8.33 C
1836 20-01-2019 08:55:00 -7.4 C 93 % -8.33 C
1837 20-01-2019 09:00:00 -7.3 C 93 % -8.23 C
1838 20-01-2019 09:05:00 -7.3 C 94 % -8.1 C
1839 20-01-2019 09:10:00 -7.3 C 94 % -8.1 C
1840 20-01-2019 09:15:00 -7.2 C 94 % -8 C
1841 20-01-2019 09:20:00 -7.2 C 94 % -8 C
1842 20-01-2019 09:25:00 -7.2 C 94 % -8 C
1843 20-01-2019 09:30:00 -7.1 C 94 % -7.9 C
1844 20-01-2019 09:35:00 -6.9 C 94 % -7.7 C
1845 20-01-2019 09:40:00 -6.9 C 94 % -7.7 C
1846 20-01-2019 09:45:00 -6.8 C 94 % -7.6 C
1847 20-01-2019 09:50:00 -6.7 C 94 % -7.5 C
1848 20-01-2019 09:55:00 -6.6 C 94 % -7.4 C
1849 20-01-2019 10:00:00 -6.6 C 94 % -7.4 C
1850 20-01-2019 10:05:00 -6.5 C 94 % -7.3 C
Sensor: Nr:Datum:Temp:Feuchte:Taupunkt:
Aussen-T/F 1851 20-01-2019 10:10:00 -6.4 C 94 % -7.2 C
1852 20-01-2019 10:15:00 -6.4 C 94 % -7.2 C
1853 20-01-2019 10:20:00 -6.4 C 94 % -7.2 C
1854 20-01-2019 10:25:00 -6.3 C 94 % -7.1 C
1855 20-01-2019 10:30:00 -6.3 C 94 % -7.1 C
1856 20-01-2019 10:35:00 -6.3 C 94 % -7.1 C
1857 20-01-2019 10:40:00 -6.2 C 94 % -7.01 C
1858 20-01-2019 10:45:00 -6.2 C 94 % -7.01 C
1859 20-01-2019 10:50:00 -6 C 94 % -6.81 C
1860 20-01-2019 10:55:00 -5.9 C 94 % -6.71 C
1861 20-01-2019 11:00:00 -5.8 C 94 % -6.61 C
1862 20-01-2019 11:05:00 -5.8 C 94 % -6.61 C
1863 20-01-2019 11:10:00 -5.7 C 95 % -6.37 C
1864 20-01-2019 11:15:00 -5.6 C 95 % -6.27 C
1865 20-01-2019 11:20:00 -5.5 C 94 % -6.31 C
1866 20-01-2019 11:25:00 -5.4 C 95 % -6.07 C
1867 20-01-2019 11:30:00 -5.3 C 95 % -5.97 C
1868 20-01-2019 11:35:00 -5.3 C 94 % -6.11 C
1869 20-01-2019 11:40:00 -5.2 C 95 % -5.87 C
1870 20-01-2019 11:45:00 -5.1 C 95 % -5.77 C
1871 20-01-2019 11:50:00 -4.9 C 95 % -5.58 C
1872 20-01-2019 11:55:00 -4.8 C 95 % -5.48 C
1873 20-01-2019 12:00:00 -4.7 C 95 % -5.38 C
1874 20-01-2019 12:05:00 -4.6 C 95 % -5.28 C
1875 20-01-2019 12:10:00 -4.5 C 94 % -5.32 C
Sensor: Nr:Datum:Temp:Feuchte:Taupunkt:
Aussen-T/F 1876 20-01-2019 12:15:00 -4.4 C 94 % -5.22 C
1877 20-01-2019 12:20:00 -4.3 C 95 % -4.98 C
1878 20-01-2019 12:25:00 -4.3 C 94 % -5.12 C
1879 20-01-2019 12:30:00 -4.2 C 95 % -4.88 C
1880 20-01-2019 12:35:00 -4.1 C 95 % -4.78 C
1881 20-01-2019 12:40:00 -4 C 94 % -4.82 C
1882 20-01-2019 12:45:00 -3.9 C 94 % -4.72 C
1883 20-01-2019 12:50:00 -3.8 C 94 % -4.62 C
1884 20-01-2019 12:55:00 -3.8 C 94 % -4.62 C
1885 20-01-2019 13:00:00 -3.7 C 94 % -4.52 C
1886 20-01-2019 13:05:00 -3.6 C 94 % -4.42 C
1887 20-01-2019 13:10:00 -3.5 C 94 % -4.32 C
1888 20-01-2019 13:15:00 -3.4 C 94 % -4.22 C
1889 20-01-2019 13:20:00 -3.4 C 94 % -4.22 C
1890 20-01-2019 13:25:00 -3.3 C 94 % -4.13 C
1891 20-01-2019 13:30:00 -3.2 C 94 % -4.03 C
1892 20-01-2019 13:35:00 -3.1 C 94 % -3.93 C
1893 20-01-2019 13:40:00 -3.1 C 94 % -3.93 C
1894 20-01-2019 13:45:00 -3 C 94 % -3.83 C
1895 20-01-2019 13:50:00 -2.9 C 94 % -3.73 C
1896 20-01-2019 13:55:00 -2.9 C 94 % -3.73 C
1897 20-01-2019 14:00:00 -2.8 C 94 % -3.63 C
1898 20-01-2019 14:05:00 -2.8 C 94 % -3.63 C
1899 20-01-2019 14:10:00 -2.7 C 93 % -3.67 C
1900 20-01-2019 14:15:00 -2.7 C 94 % -3.53 C
Sensor: Nr:Datum:Temp:Feuchte:Taupunkt:
Aussen-T/F 1901 20-01-2019 14:20:00 -2.6 C 93 % -3.57 C
1902 20-01-2019 14:25:00 -2.6 C 93 % -3.57 C
1903 20-01-2019 14:30:00 -2.6 C 93 % -3.57 C
1904 20-01-2019 14:35:00 -2.5 C 93 % -3.47 C
1905 20-01-2019 14:40:00 -2.4 C 93 % -3.37 C
1906 20-01-2019 14:45:00 -2.4 C 93 % -3.37 C
1907 20-01-2019 14:50:00 -2.3 C 93 % -3.28 C
1908 20-01-2019 14:55:00 -2.3 C 93 % -3.28 C
1909 20-01-2019 15:00:00 -2.3 C 93 % -3.28 C
1910 20-01-2019 15:05:00 -2.2 C 93 % -3.18 C
1911 20-01-2019 15:10:00 -2.2 C 93 % -3.18 C
1912 20-01-2019 15:15:00 -2.2 C 93 % -3.18 C
1913 20-01-2019 15:20:00 -2.1 C 93 % -3.08 C
1914 20-01-2019 15:25:00 -2.1 C 93 % -3.08 C
1915 20-01-2019 15:30:00 -2 C 93 % -2.98 C
1916 20-01-2019 15:35:00 -1.9 C 93 % -2.88 C
1917 20-01-2019 15:40:00 -1.9 C 93 % -2.88 C
1918 20-01-2019 15:45:00 -1.9 C 92 % -3.02 C
1919 20-01-2019 15:50:00 -1.9 C 92 % -3.02 C
1920 20-01-2019 15:55:00 -1.8 C 92 % -2.92 C
1921 20-01-2019 16:00:00 -1.8 C 92 % -2.92 C
1922 20-01-2019 16:05:00 -1.8 C 92 % -2.92 C
1923 20-01-2019 16:10:00 -1.9 C 92 % -3.02 C
1924 20-01-2019 16:15:00 -1.9 C 92 % -3.02 C
1925 20-01-2019 16:20:00 -1.9 C 92 % -3.02 C
Sensor: Nr:Datum:Temp:Feuchte:Taupunkt:
Aussen-T/F 1926 20-01-2019 16:25:00 -1.9 C 92 % -3.02 C
1927 20-01-2019 16:30:00 -1.9 C 92 % -3.02 C
1928 20-01-2019 16:35:00 -2 C 92 % -3.12 C
1929 20-01-2019 16:40:00 -2.1 C 92 % -3.22 C
1930 20-01-2019 16:45:00 -2.1 C 92 % -3.22 C
1931 20-01-2019 16:50:00 -2.2 C 91 % -3.47 C
1932 20-01-2019 16:55:00 -2.2 C 91 % -3.47 C
1933 20-01-2019 17:00:00 -2.3 C 91 % -3.57 C
1934 20-01-2019 17:05:00 -2.3 C 91 % -3.57 C
1935 20-01-2019 17:10:00 -2.3 C 91 % -3.57 C
1936 20-01-2019 17:15:00 -2.3 C 91 % -3.57 C
1937 20-01-2019 17:20:00 -2.4 C 91 % -3.66 C
1938 20-01-2019 17:25:00 -2.4 C 90 % -3.81 C
1939 20-01-2019 17:30:00 -2.6 C 91 % -3.86 C
1940 20-01-2019 17:35:00 -2.6 C 91 % -3.86 C
1941 20-01-2019 17:40:00 -2.6 C 91 % -3.86 C
1942 20-01-2019 17:45:00 -2.6 C 91 % -3.86 C
1943 20-01-2019 17:50:00 -2.7 C 91 % -3.96 C
1944 20-01-2019 17:55:00 -2.8 C 90 % -4.21 C
1945 20-01-2019 18:00:00 -2.9 C 90 % -4.31 C
1946 20-01-2019 18:05:00 -3.1 C 90 % -4.5 C
1947 20-01-2019 18:10:00 -3.2 C 90 % -4.6 C
1948 20-01-2019 18:15:00 -3.3 C 90 % -4.7 C
1949 20-01-2019 18:20:00 -3.2 C 91 % -4.46 C
1950 20-01-2019 18:25:00 -3.3 C 91 % -4.56 C
Sensor: Nr:Datum:Temp:Feuchte:Taupunkt:
Aussen-T/F 1951 20-01-2019 18:30:00 -3.3 C 91 % -4.56 C
1952 20-01-2019 18:35:00 -3.4 C 91 % -4.65 C
1953 20-01-2019 18:40:00 -3.4 C 91 % -4.65 C
1954 20-01-2019 18:45:00 -3.5 C 91 % -4.75 C
1955 20-01-2019 18:50:00 -3.6 C 91 % -4.85 C
1956 20-01-2019 18:55:00 -3.6 C 91 % -4.85 C
1957 20-01-2019 19:00:00 -3.6 C 92 % -4.71 C
1958 20-01-2019 19:05:00 -3.6 C 91 % -4.85 C
1959 20-01-2019 19:10:00 -3.7 C 92 % -4.81 C
1960 20-01-2019 19:15:00 -3.7 C 92 % -4.81 C
1961 20-01-2019 19:20:00 -3.7 C 92 % -4.81 C
1962 20-01-2019 19:25:00 -3.7 C 92 % -4.81 C
1963 20-01-2019 19:30:00 -3.7 C 92 % -4.81 C
1964 20-01-2019 19:35:00 -3.8 C 91 % -5.05 C
1965 20-01-2019 19:40:00 -3.9 C 91 % -5.15 C
1966 20-01-2019 19:45:00 -3.9 C 92 % -5 C
1967 20-01-2019 19:50:00 -4 C 92 % -5.1 C
1968 20-01-2019 19:55:00 -4 C 92 % -5.1 C
1969 20-01-2019 20:00:00 -4 C 92 % -5.1 C
1970 20-01-2019 20:05:00 -4.1 C 92 % -5.2 C
1971 20-01-2019 20:10:00 -4.2 C 91 % -5.45 C
1972 20-01-2019 20:15:00 -4.2 C 92 % -5.3 C
1973 20-01-2019 20:20:00 -4.2 C 92 % -5.3 C
1974 20-01-2019 20:25:00 -4.3 C 92 % -5.4 C
1975 20-01-2019 20:30:00 -4.4 C 92 % -5.5 C
Sensor: Nr:Datum:Temp:Feuchte:Taupunkt:
Aussen-T/F 1976 20-01-2019 20:35:00 -4.6 C 91 % -5.84 C
1977 20-01-2019 20:40:00 -4.7 C 92 % -5.8 C
1978 20-01-2019 20:45:00 -4.8 C 91 % -6.04 C
1979 20-01-2019 20:50:00 -4.9 C 92 % -6 C
1980 20-01-2019 20:55:00 -4.9 C 92 % -6 C
1981 20-01-2019 21:00:00 -4.9 C 92 % -6 C
1982 20-01-2019 21:05:00 -4.9 C 92 % -6 C
1983 20-01-2019 21:10:00 -4.9 C 93 % -5.85 C
1984 20-01-2019 21:15:00 -4.9 C 92 % -6 C
1985 20-01-2019 21:20:00 -5.2 C 92 % -6.29 C
1986 20-01-2019 21:25:00 -5.3 C 92 % -6.39 C
1987 20-01-2019 21:30:00 -5.3 C 92 % -6.39 C
1988 20-01-2019 21:35:00 -5.3 C 92 % -6.39 C
1989 20-01-2019 21:40:00 -5.3 C 92 % -6.39 C
1990 20-01-2019 21:45:00 -5.3 C 92 % -6.39 C
1991 20-01-2019 21:50:00 -5.4 C 93 % -6.35 C
1992 20-01-2019 21:55:00 -5.4 C 93 % -6.35 C
1993 20-01-2019 22:00:00 -5.3 C 93 % -6.25 C
1994 20-01-2019 22:05:00 -5.4 C 93 % -6.35 C
1995 20-01-2019 22:10:00 -5.5 C 93 % -6.45 C
1996 20-01-2019 22:15:00 -5.7 C 92 % -6.79 C
1997 20-01-2019 22:20:00 -5.7 C 92 % -6.79 C
1998 20-01-2019 22:25:00 -5.7 C 93 % -6.65 C
1999 20-01-2019 22:30:00 -5.7 C 93 % -6.65 C
2000 20-01-2019 22:35:00 -5.7 C 93 % -6.65 C
Sensor: Nr:Datum:Temp:Feuchte:Taupunkt:
Aussen-T/F 2001 20-01-2019 22:40:00 -5.8 C 93 % -6.75 C
2002 20-01-2019 22:45:00 -5.8 C 93 % -6.75 C
2003 20-01-2019 22:50:00 -5.9 C 93 % -6.85 C
2004 20-01-2019 22:55:00 -5.9 C 93 % -6.85 C
2005 20-01-2019 23:00:00 -6 C 93 % -6.95 C
2006 20-01-2019 23:05:00 -6.1 C 93 % -7.04 C
2007 20-01-2019 23:10:00 -6.1 C 93 % -7.04 C
2008 20-01-2019 23:15:00 -6 C 93 % -6.95 C
2009 20-01-2019 23:20:00 -6.1 C 93 % -7.04 C
2010 20-01-2019 23:25:00 -6.1 C 93 % -7.04 C
2011 20-01-2019 23:30:00 -6.2 C 93 % -7.14 C
2012 20-01-2019 23:35:00 -6.2 C 93 % -7.14 C
2013 20-01-2019 23:40:00 -6.3 C 93 % -7.24 C
2014 20-01-2019 23:45:00 -6.3 C 93 % -7.24 C
2015 20-01-2019 23:50:00 -6.3 C 93 % -7.24 C
2016 20-01-2019 23:55:00 -6.3 C 93 % -7.24 C
2017 21-01-2019 00:00:00 -6.4 C 93 % -7.34 C
2018 21-01-2019 00:05:00 -6.5 C 93 % -7.44 C
2019 21-01-2019 00:10:00 -6.5 C 93 % -7.44 C
2020 21-01-2019 00:15:00 -6.4 C 93 % -7.34 C
2021 21-01-2019 00:20:00 -6.4 C 94 % -7.2 C
2022 21-01-2019 00:25:00 -6.5 C 93 % -7.44 C
2023 21-01-2019 00:30:00 -6.6 C 93 % -7.54 C
2024 21-01-2019 00:35:00 -6.6 C 93 % -7.54 C
2025 21-01-2019 00:40:00 -6.4 C 94 % -7.2 C
Sensor: Nr:Datum:Temp:Feuchte:Taupunkt:
Aussen-T/F 2026 21-01-2019 00:45:00 -6.3 C 94 % -7.1 C
2027 21-01-2019 00:50:00 -6.4 C 94 % -7.2 C
2028 21-01-2019 00:55:00 -6.5 C 93 % -7.44 C
2029 21-01-2019 01:00:00 -6.5 C 93 % -7.44 C
2030 21-01-2019 01:05:00 -6.6 C 93 % -7.54 C
2031 21-01-2019 01:10:00 -6.6 C 93 % -7.54 C
2032 21-01-2019 01:15:00 -6.6 C 94 % -7.4 C
2033 21-01-2019 01:20:00 -6.6 C 94 % -7.4 C
2034 21-01-2019 01:25:00 -6.6 C 94 % -7.4 C
2035 21-01-2019 01:30:00 -6.4 C 94 % -7.2 C
2036 21-01-2019 01:35:00 -6.5 C 94 % -7.3 C
2037 21-01-2019 01:40:00 -6.6 C 94 % -7.4 C
2038 21-01-2019 01:45:00 -6.6 C 94 % -7.4 C
2039 21-01-2019 01:50:00 -6.6 C 94 % -7.4 C
2040 21-01-2019 01:55:00 -6.6 C 94 % -7.4 C
2041 21-01-2019 02:00:00 -6.7 C 93 % -7.64 C
2042 21-01-2019 02:05:00 -6.7 C 93 % -7.64 C
2043 21-01-2019 02:10:00 -6.7 C 94 % -7.5 C
2044 21-01-2019 02:15:00 -6.8 C 94 % -7.6 C
2045 21-01-2019 02:20:00 -6.8 C 94 % -7.6 C
2046 21-01-2019 02:25:00 -6.8 C 94 % -7.6 C
2047 21-01-2019 02:30:00 -6.9 C 93 % -7.84 C
2048 21-01-2019 02:35:00 -7 C 94 % -7.8 C
2049 21-01-2019 02:40:00 -7 C 93 % -7.94 C
2050 21-01-2019 02:45:00 -7.1 C 93 % -8.04 C
Sensor: Nr:Datum:Temp:Feuchte:Taupunkt:
Aussen-T/F 2051 21-01-2019 02:50:00 -7.2 C 93 % -8.14 C
2052 21-01-2019 02:55:00 -7.2 C 93 % -8.14 C
2053 21-01-2019 03:00:00 -7.2 C 94 % -8 C
2054 21-01-2019 03:05:00 -7.2 C 94 % -8 C
2055 21-01-2019 03:10:00 -7.3 C 93 % -8.23 C
2056 21-01-2019 03:15:00 -7.3 C 93 % -8.23 C
2057 21-01-2019 03:20:00 -7.4 C 93 % -8.33 C
2058 21-01-2019 03:25:00 -7.5 C 93 % -8.43 C
2059 21-01-2019 03:30:00 -7.4 C 93 % -8.33 C
2060 21-01-2019 03:35:00 -7.4 C 94 % -8.2 C
2061 21-01-2019 03:40:00 -7.3 C 94 % -8.1 C
2062 21-01-2019 03:45:00 -7.4 C 94 % -8.2 C
2063 21-01-2019 03:50:00 -7.4 C 94 % -8.2 C
2064 21-01-2019 03:55:00 -7.4 C 94 % -8.2 C
2065 21-01-2019 04:00:00 -7.4 C 94 % -8.2 C
2066 21-01-2019 04:05:00 -7.6 C 94 % -8.4 C
2067 21-01-2019 04:10:00 -7.6 C 94 % -8.4 C
2068 21-01-2019 04:15:00 -7.6 C 94 % -8.4 C
2069 21-01-2019 04:20:00 -7.6 C 94 % -8.4 C
2070 21-01-2019 04:25:00 -7.6 C 94 % -8.4 C
2071 21-01-2019 04:30:00 -7.6 C 94 % -8.4 C
2072 21-01-2019 04:35:00 -7.6 C 94 % -8.4 C
2073 21-01-2019 04:40:00 -7.7 C 93 % -8.63 C
2074 21-01-2019 04:45:00 -7.8 C 93 % -8.73 C
2075 21-01-2019 04:50:00 -7.8 C 93 % -8.73 C
Sensor: Nr:Datum:Temp:Feuchte:Taupunkt:
Aussen-T/F 2076 21-01-2019 04:55:00 -7.8 C 93 % -8.73 C
2077 21-01-2019 05:00:00 -7.8 C 94 % -8.59 C
2078 21-01-2019 05:05:00 -7.7 C 94 % -8.49 C
2079 21-01-2019 05:10:00 -7.7 C 94 % -8.49 C
2080 21-01-2019 05:15:00 -7.8 C 93 % -8.73 C
2081 21-01-2019 05:20:00 -7.8 C 93 % -8.73 C
2082 21-01-2019 05:25:00 -7.8 C 93 % -8.73 C
2083 21-01-2019 05:30:00 -7.9 C 93 % -8.83 C
2084 21-01-2019 05:35:00 -8 C 93 % -8.93 C
2085 21-01-2019 05:40:00 -8 C 93 % -8.93 C
2086 21-01-2019 05:45:00 -8.1 C 93 % -9.03 C
2087 21-01-2019 05:50:00 -8 C 93 % -8.93 C
2088 21-01-2019 05:55:00 -8.1 C 93 % -9.03 C
2089 21-01-2019 06:00:00 -8.1 C 93 % -9.03 C
2090 21-01-2019 06:05:00 -8.1 C 93 % -9.03 C
2091 21-01-2019 06:10:00 -8.1 C 93 % -9.03 C
2092 21-01-2019 06:15:00 -8.1 C 93 % -9.03 C
2093 21-01-2019 06:20:00 -8.1 C 94 % -8.89 C
2094 21-01-2019 06:25:00 -8.1 C 93 % -9.03 C
2095 21-01-2019 06:30:00 -8 C 93 % -8.93 C
2096 21-01-2019 06:35:00 -8 C 93 % -8.93 C
2097 21-01-2019 06:40:00 -8.1 C 93 % -9.03 C
2098 21-01-2019 06:45:00 -8.1 C 93 % -9.03 C
2099 21-01-2019 06:50:00 -8.1 C 93 % -9.03 C
2100 21-01-2019 06:55:00 -8.2 C 93 % -9.13 C
Sensor: Nr:Datum:Temp:Feuchte:Taupunkt:
Aussen-T/F 2101 21-01-2019 07:00:00 -8.2 C 93 % -9.13 C
2102 21-01-2019 07:05:00 -8.3 C 93 % -9.23 C
2103 21-01-2019 07:10:00 -8.3 C 93 % -9.23 C
2104 21-01-2019 07:15:00 -8.3 C 93 % -9.23 C
2105 21-01-2019 07:20:00 -8.3 C 93 % -9.23 C
2106 21-01-2019 07:25:00 -8.3 C 93 % -9.23 C
2107 21-01-2019 07:30:00 -8.3 C 93 % -9.23 C
2108 21-01-2019 07:35:00 -8.4 C 93 % -9.33 C
2109 21-01-2019 07:40:00 -8.4 C 93 % -9.33 C
2110 21-01-2019 07:45:00 -8.5 C 93 % -9.43 C
2111 21-01-2019 07:50:00 -8.5 C 93 % -9.43 C
2112 21-01-2019 07:55:00 -8.5 C 93 % -9.43 C
2113 21-01-2019 08:00:00 -8.6 C 93 % -9.52 C
2114 21-01-2019 08:05:00 -8.5 C 93 % -9.43 C
2115 21-01-2019 08:10:00 -8.5 C 93 % -9.43 C
2116 21-01-2019 08:15:00 -8.4 C 93 % -9.33 C
2117 21-01-2019 08:20:00 -8.4 C 93 % -9.33 C
2118 21-01-2019 08:25:00 -8.5 C 93 % -9.43 C
2119 21-01-2019 08:30:00 -8.6 C 93 % -9.52 C
2120 21-01-2019 08:35:00 -8.6 C 93 % -9.52 C
2121 21-01-2019 08:40:00 -8.6 C 93 % -9.52 C
2122 21-01-2019 08:45:00 -8.7 C 93 % -9.62 C
2123 21-01-2019 08:50:00 -8.6 C 93 % -9.52 C
2124 21-01-2019 08:55:00 -8.6 C 93 % -9.52 C
2125 21-01-2019 09:00:00 -8.6 C 93 % -9.52 C
Sensor: Nr:Datum:Temp:Feuchte:Taupunkt:
Aussen-T/F 2126 21-01-2019 09:05:00 -8.5 C 93 % -9.43 C
2127 21-01-2019 09:10:00 -8.4 C 93 % -9.33 C
2128 21-01-2019 09:15:00 -8.4 C 93 % -9.33 C
2129 21-01-2019 09:20:00 -8.3 C 93 % -9.23 C
2130 21-01-2019 09:25:00 -8.3 C 93 % -9.23 C
2131 21-01-2019 09:30:00 -8.2 C 93 % -9.13 C
2132 21-01-2019 09:35:00 -8.2 C 93 % -9.13 C
2133 21-01-2019 09:40:00 -8.1 C 94 % -8.89 C
2134 21-01-2019 09:45:00 -8 C 94 % -8.79 C
2135 21-01-2019 09:50:00 -7.9 C 94 % -8.69 C
2136 21-01-2019 09:55:00 -7.8 C 94 % -8.59 C
2137 21-01-2019 10:00:00 -7.8 C 94 % -8.59 C
2138 21-01-2019 10:05:00 -7.8 C 94 % -8.59 C
2139 21-01-2019 10:10:00 -7.7 C 94 % -8.49 C
2140 21-01-2019 10:15:00 -7.7 C 94 % -8.49 C
2141 21-01-2019 10:20:00 -7.7 C 94 % -8.49 C
2142 21-01-2019 10:25:00 -7.6 C 94 % -8.4 C
2143 21-01-2019 10:30:00 -7.6 C 94 % -8.4 C
2144 21-01-2019 10:35:00 -7.6 C 94 % -8.4 C
2145 21-01-2019 10:40:00 -7.4 C 94 % -8.2 C
2146 21-01-2019 10:45:00 -7.3 C 94 % -8.1 C
2147 21-01-2019 10:50:00 -7.2 C 94 % -8 C
2148 21-01-2019 10:55:00 -7 C 94 % -7.8 C
2149 21-01-2019 11:00:00 -6.7 C 95 % -7.36 C
2150 21-01-2019 11:05:00 -6.5 C 95 % -7.17 C
Sensor: Nr:Datum:Temp:Feuchte:Taupunkt:
Aussen-T/F 2151 21-01-2019 11:10:00 -6.2 C 95 % -6.87 C
2152 21-01-2019 11:15:00 -6 C 95 % -6.67 C
2153 21-01-2019 11:20:00 -5.8 C 95 % -6.47 C
2154 21-01-2019 11:25:00 -5.7 C 95 % -6.37 C
2155 21-01-2019 11:30:00 -5.5 C 95 % -6.17 C
2156 21-01-2019 11:35:00 -5.3 C 95 % -5.97 C
2157 21-01-2019 11:40:00 -5.3 C 95 % -5.97 C
2158 21-01-2019 11:45:00 -5.2 C 95 % -5.87 C
2159 21-01-2019 11:50:00 -5.2 C 95 % -5.87 C
2160 21-01-2019 11:55:00 -5.1 C 95 % -5.77 C
2161 21-01-2019 12:00:00 -5 C 95 % -5.67 C
2162 21-01-2019 12:05:00 -5 C 95 % -5.67 C
2163 21-01-2019 12:10:00 -4.9 C 95 % -5.58 C
2164 21-01-2019 12:15:00 -4.9 C 95 % -5.58 C
2165 21-01-2019 12:20:00 -4.9 C 95 % -5.58 C
2166 21-01-2019 12:25:00 -4.9 C 95 % -5.58 C
2167 21-01-2019 12:30:00 -4.8 C 95 % -5.48 C
2168 21-01-2019 12:35:00 -4.8 C 95 % -5.48 C
2169 21-01-2019 12:40:00 -4.8 C 95 % -5.48 C
2170 21-01-2019 12:45:00 -4.8 C 95 % -5.48 C
2171 21-01-2019 12:50:00 -4.8 C 94 % -5.61 C
2172 21-01-2019 12:55:00 -4.8 C 94 % -5.61 C
2173 21-01-2019 13:00:00 -4.8 C 94 % -5.61 C
2174 21-01-2019 13:05:00 -4.8 C 94 % -5.61 C
2175 21-01-2019 13:10:00 -4.7 C 95 % -5.38 C
Sensor: Nr:Datum:Temp:Feuchte:Taupunkt:
Aussen-T/F 2176 21-01-2019 13:15:00 -4.7 C 95 % -5.38 C
2177 21-01-2019 13:20:00 -4.6 C 95 % -5.28 C
2178 21-01-2019 13:25:00 -4.5 C 95 % -5.18 C
2179 21-01-2019 13:30:00 -4.4 C 95 % -5.08 C
2180 21-01-2019 13:35:00 -4.4 C 95 % -5.08 C
2181 21-01-2019 13:40:00 -4.3 C 95 % -4.98 C
2182 21-01-2019 13:45:00 -4.3 C 95 % -4.98 C
2183 21-01-2019 13:50:00 -4.2 C 95 % -4.88 C
2184 21-01-2019 13:55:00 -4.2 C 95 % -4.88 C
2185 21-01-2019 14:00:00 -4.2 C 95 % -4.88 C
2186 21-01-2019 14:05:00 -4.1 C 95 % -4.78 C
2187 21-01-2019 14:10:00 -4 C 95 % -4.68 C
2188 21-01-2019 14:15:00 -3.9 C 95 % -4.58 C
2189 21-01-2019 14:20:00 -3.8 C 95 % -4.48 C
2190 21-01-2019 14:25:00 -3.8 C 95 % -4.48 C
2191 21-01-2019 14:30:00 -3.7 C 95 % -4.38 C
2192 21-01-2019 14:35:00 -3.7 C 95 % -4.38 C
2193 21-01-2019 14:40:00 -3.6 C 95 % -4.28 C
2194 21-01-2019 14:45:00 -3.6 C 95 % -4.28 C
2195 21-01-2019 14:50:00 -3.5 C 95 % -4.18 C
2196 21-01-2019 14:55:00 -3.4 C 95 % -4.08 C
2197 21-01-2019 15:00:00 -3.4 C 95 % -4.08 C
2198 21-01-2019 15:05:00 -3.4 C 95 % -4.08 C
2199 21-01-2019 15:10:00 -3.4 C 95 % -4.08 C
2200 21-01-2019 15:15:00 -3.3 C 95 % -3.98 C
Sensor: Nr:Datum:Temp:Feuchte:Taupunkt:
Aussen-T/F 2201 21-01-2019 15:20:00 -3.3 C 95 % -3.98 C
2202 21-01-2019 15:25:00 -3.3 C 95 % -3.98 C
2203 21-01-2019 15:30:00 -3.2 C 95 % -3.88 C
2204 21-01-2019 15:35:00 -3.2 C 95 % -3.88 C
2205 21-01-2019 15:40:00 -3.2 C 95 % -3.88 C
2206 21-01-2019 15:45:00 -3.2 C 95 % -3.88 C
2207 21-01-2019 15:50:00 -3.2 C 95 % -3.88 C
2208 21-01-2019 15:55:00 -3.2 C 95 % -3.88 C
2209 21-01-2019 16:00:00 -3.2 C 95 % -3.88 C
2210 21-01-2019 16:05:00 -3.2 C 95 % -3.88 C
2211 21-01-2019 16:10:00 -3.2 C 95 % -3.88 C
2212 21-01-2019 16:15:00 -3.2 C 94 % -4.03 C
2213 21-01-2019 16:20:00 -3.2 C 94 % -4.03 C
2214 21-01-2019 16:25:00 -3.2 C 94 % -4.03 C
2215 21-01-2019 16:30:00 -3.2 C 95 % -3.88 C
2216 21-01-2019 16:35:00 -3.3 C 95 % -3.98 C
2217 21-01-2019 16:40:00 -3.3 C 94 % -4.13 C
2218 21-01-2019 16:45:00 -3.4 C 94 % -4.22 C
2219 21-01-2019 16:50:00 -3.4 C 94 % -4.22 C
2220 21-01-2019 16:55:00 -3.4 C 94 % -4.22 C
2221 21-01-2019 17:00:00 -3.5 C 94 % -4.32 C
2222 21-01-2019 17:05:00 -3.6 C 94 % -4.42 C
2223 21-01-2019 17:10:00 -3.7 C 94 % -4.52 C
2224 21-01-2019 17:15:00 -3.7 C 94 % -4.52 C
2225 21-01-2019 17:20:00 -3.8 C 94 % -4.62 C
Sensor: Nr:Datum:Temp:Feuchte:Taupunkt:
Aussen-T/F 2226 21-01-2019 17:25:00 -3.8 C 94 % -4.62 C
2227 21-01-2019 17:30:00 -3.9 C 94 % -4.72 C
2228 21-01-2019 17:35:00 -3.9 C 94 % -4.72 C
2229 21-01-2019 17:40:00 -3.9 C 94 % -4.72 C
2230 21-01-2019 17:45:00 -4 C 94 % -4.82 C
2231 21-01-2019 17:50:00 -4.1 C 94 % -4.92 C
2232 21-01-2019 17:55:00 -4.1 C 94 % -4.92 C
2233 21-01-2019 18:00:00 -4.2 C 94 % -5.02 C
2234 21-01-2019 18:05:00 -4.2 C 94 % -5.02 C
2235 21-01-2019 18:10:00 -4.3 C 94 % -5.12 C
2236 21-01-2019 18:15:00 -4.3 C 94 % -5.12 C
2237 21-01-2019 18:20:00 -4.4 C 94 % -5.22 C
2238 21-01-2019 18:25:00 -4.4 C 94 % -5.22 C
2239 21-01-2019 18:30:00 -4.5 C 94 % -5.32 C
2240 21-01-2019 18:35:00 -4.6 C 94 % -5.42 C
2241 21-01-2019 18:40:00 -4.6 C 94 % -5.42 C
2242 21-01-2019 18:45:00 -4.7 C 94 % -5.52 C
2243 21-01-2019 18:50:00 -4.8 C 93 % -5.75 C
2244 21-01-2019 18:55:00 -5 C 93 % -5.95 C
2245 21-01-2019 19:00:00 -5.2 C 93 % -6.15 C
2246 21-01-2019 19:05:00 -5.3 C 93 % -6.25 C
2247 21-01-2019 19:10:00 -5.4 C 93 % -6.35 C
2248 21-01-2019 19:15:00 -5.5 C 93 % -6.45 C
2249 21-01-2019 19:20:00 -5.4 C 94 % -6.21 C
2250 21-01-2019 19:25:00 -5.4 C 94 % -6.21 C
Sensor: Nr:Datum:Temp:Feuchte:Taupunkt:
Aussen-T/F 2251 21-01-2019 19:30:00 -5.3 C 94 % -6.11 C
2252 21-01-2019 19:35:00 -5.3 C 94 % -6.11 C
2253 21-01-2019 19:40:00 -5.4 C 94 % -6.21 C
2254 21-01-2019 19:45:00 -5.5 C 94 % -6.31 C
2255 21-01-2019 19:50:00 -5.6 C 93 % -6.55 C
2256 21-01-2019 19:55:00 -5.7 C 93 % -6.65 C
2257 21-01-2019 20:00:00 -5.7 C 94 % -6.51 C
2258 21-01-2019 20:05:00 -5.7 C 94 % -6.51 C
2259 21-01-2019 20:10:00 -5.8 C 93 % -6.75 C
2260 21-01-2019 20:15:00 -6 C 93 % -6.95 C
2261 21-01-2019 20:20:00 -6.1 C 93 % -7.04 C
2262 21-01-2019 20:25:00 -6.1 C 93 % -7.04 C
2263 21-01-2019 20:30:00 -6.2 C 93 % -7.14 C
2264 21-01-2019 20:35:00 -6.2 C 93 % -7.14 C
2265 21-01-2019 20:40:00 -6.2 C 93 % -7.14 C
2266 21-01-2019 20:45:00 -6.2 C 93 % -7.14 C
2267 21-01-2019 20:50:00 -6.2 C 93 % -7.14 C
2268 21-01-2019 20:55:00 -6.2 C 94 % -7.01 C
2269 21-01-2019 21:00:00 -6.2 C 94 % -7.01 C
2270 21-01-2019 21:05:00 -6.2 C 94 % -7.01 C
2271 21-01-2019 21:10:00 -6.3 C 94 % -7.1 C
2272 21-01-2019 21:15:00 -6.3 C 94 % -7.1 C
2273 21-01-2019 21:20:00 -6.3 C 94 % -7.1 C
2274 21-01-2019 21:25:00 -6.3 C 94 % -7.1 C
2275 21-01-2019 21:30:00 -6.4 C 94 % -7.2 C
Sensor: Nr:Datum:Temp:Feuchte:Taupunkt:
Aussen-T/F 2276 21-01-2019 21:35:00 -6.5 C 93 % -7.44 C
2277 21-01-2019 21:40:00 -6.6 C 93 % -7.54 C
2278 21-01-2019 21:45:00 -6.6 C 93 % -7.54 C
2279 21-01-2019 21:50:00 -6.6 C 94 % -7.4 C
2280 21-01-2019 21:55:00 -6.6 C 94 % -7.4 C
2281 21-01-2019 22:00:00 -6.6 C 94 % -7.4 C
2282 21-01-2019 22:05:00 -6.7 C 94 % -7.5 C
2283 21-01-2019 22:10:00 -6.7 C 94 % -7.5 C
2284 21-01-2019 22:15:00 -6.6 C 94 % -7.4 C
2285 21-01-2019 22:20:00 -6.6 C 94 % -7.4 C
2286 21-01-2019 22:25:00 -6.7 C 93 % -7.64 C
2287 21-01-2019 22:30:00 -6.8 C 94 % -7.6 C
2288 21-01-2019 22:35:00 -6.8 C 93 % -7.74 C
2289 21-01-2019 22:40:00 -6.9 C 93 % -7.84 C
2290 21-01-2019 22:45:00 -6.9 C 94 % -7.7 C
2291 21-01-2019 22:50:00 -6.9 C 94 % -7.7 C
2292 21-01-2019 22:55:00 -6.9 C 94 % -7.7 C
2293 21-01-2019 23:00:00 -6.9 C 94 % -7.7 C
2294 21-01-2019 23:05:00 -6.9 C 94 % -7.7 C
2295 21-01-2019 23:10:00 -7.1 C 94 % -7.9 C
2296 21-01-2019 23:15:00 -7.1 C 94 % -7.9 C
2297 21-01-2019 23:20:00 -7.1 C 93 % -8.04 C
2298 21-01-2019 23:25:00 -7.2 C 93 % -8.14 C
2299 21-01-2019 23:30:00 -7.2 C 94 % -8 C
2300 21-01-2019 23:35:00 -7.1 C 94 % -7.9 C
Sensor: Nr:Datum:Temp:Feuchte:Taupunkt:
Aussen-T/F 2301 21-01-2019 23:40:00 -7.1 C 94 % -7.9 C
2302 21-01-2019 23:45:00 -7.2 C 93 % -8.14 C
2303 21-01-2019 23:50:00 -7.2 C 94 % -8 C
2304 21-01-2019 23:55:00 -7.2 C 94 % -8 C
2305 22-01-2019 00:00:00 -7.3 C 93 % -8.23 C
2306 22-01-2019 00:05:00 -7.3 C 94 % -8.1 C
2307 22-01-2019 00:10:00 -7.3 C 94 % -8.1 C
2308 22-01-2019 00:15:00 -7.3 C 94 % -8.1 C
2309 22-01-2019 00:20:00 -7.4 C 93 % -8.33 C
2310 22-01-2019 00:25:00 -7.5 C 93 % -8.43 C
2311 22-01-2019 00:30:00 -7.6 C 93 % -8.53 C
2312 22-01-2019 00:35:00 -7.6 C 93 % -8.53 C
2313 22-01-2019 00:40:00 -7.7 C 93 % -8.63 C
2314 22-01-2019 00:45:00 -7.7 C 93 % -8.63 C
2315 22-01-2019 00:50:00 -7.7 C 93 % -8.63 C
2316 22-01-2019 00:55:00 -7.7 C 93 % -8.63 C
2317 22-01-2019 01:00:00 -7.8 C 93 % -8.73 C
2318 22-01-2019 01:05:00 -7.8 C 93 % -8.73 C
2319 22-01-2019 01:10:00 -7.8 C 93 % -8.73 C
2320 22-01-2019 01:15:00 -7.8 C 93 % -8.73 C
2321 22-01-2019 01:20:00 -7.8 C 93 % -8.73 C
2322 22-01-2019 01:25:00 -7.8 C 93 % -8.73 C
2323 22-01-2019 01:30:00 -7.7 C 94 % -8.49 C
2324 22-01-2019 01:35:00 -7.7 C 94 % -8.49 C
2325 22-01-2019 01:40:00 -7.8 C 93 % -8.73 C
Sensor: Nr:Datum:Temp:Feuchte:Taupunkt:
Aussen-T/F 2326 22-01-2019 01:45:00 -7.9 C 93 % -8.83 C
2327 22-01-2019 01:50:00 -7.9 C 93 % -8.83 C
2328 22-01-2019 01:55:00 -7.9 C 93 % -8.83 C
2329 22-01-2019 02:00:00 -8 C 93 % -8.93 C
2330 22-01-2019 02:05:00 -8.1 C 93 % -9.03 C
2331 22-01-2019 02:10:00 -8.1 C 93 % -9.03 C
2332 22-01-2019 02:15:00 -8.1 C 93 % -9.03 C
2333 22-01-2019 02:20:00 -8.2 C 93 % -9.13 C
2334 22-01-2019 02:25:00 -8 C 93 % -8.93 C
2335 22-01-2019 02:30:00 -7.9 C 93 % -8.83 C
2336 22-01-2019 02:35:00 -8 C 93 % -8.93 C
2337 22-01-2019 02:40:00 -8.1 C 93 % -9.03 C
2338 22-01-2019 02:45:00 -8.1 C 93 % -9.03 C
2339 22-01-2019 02:50:00 -8.1 C 93 % -9.03 C
2340 22-01-2019 02:55:00 -8.2 C 93 % -9.13 C
2341 22-01-2019 03:00:00 -8.2 C 93 % -9.13 C
2342 22-01-2019 03:05:00 -8.2 C 93 % -9.13 C
2343 22-01-2019 03:10:00 -8.2 C 93 % -9.13 C
2344 22-01-2019 03:15:00 -8.2 C 93 % -9.13 C
2345 22-01-2019 03:20:00 -8.2 C 93 % -9.13 C
2346 22-01-2019 03:25:00 -8.2 C 93 % -9.13 C
2347 22-01-2019 03:30:00 -8.2 C 93 % -9.13 C
2348 22-01-2019 03:35:00 -8.3 C 93 % -9.23 C
2349 22-01-2019 03:40:00 -8.3 C 93 % -9.23 C
2350 22-01-2019 03:45:00 -8.4 C 93 % -9.33 C
Sensor: Nr:Datum:Temp:Feuchte:Taupunkt:
Aussen-T/F 2351 22-01-2019 03:50:00 -8.4 C 93 % -9.33 C
2352 22-01-2019 03:55:00 -8.5 C 93 % -9.43 C
2353 22-01-2019 04:00:00 -8.5 C 93 % -9.43 C
2354 22-01-2019 04:05:00 -8.4 C 93 % -9.33 C
2355 22-01-2019 04:10:00 -8.4 C 93 % -9.33 C
2356 22-01-2019 04:15:00 -8.4 C 93 % -9.33 C
2357 22-01-2019 04:20:00 -8.5 C 93 % -9.43 C
2358 22-01-2019 04:25:00 -8.6 C 93 % -9.52 C
2359 22-01-2019 04:30:00 -8.6 C 93 % -9.52 C
2360 22-01-2019 04:35:00 -8.7 C 93 % -9.62 C
2361 22-01-2019 04:40:00 -8.7 C 93 % -9.62 C
2362 22-01-2019 04:45:00 -8.7 C 93 % -9.62 C
2363 22-01-2019 04:50:00 -8.7 C 93 % -9.62 C
2364 22-01-2019 04:55:00 -8.7 C 93 % -9.62 C
2365 22-01-2019 05:00:00 -8.6 C 93 % -9.52 C
2366 22-01-2019 05:05:00 -8.6 C 93 % -9.52 C
2367 22-01-2019 05:10:00 -8.5 C 93 % -9.43 C
2368 22-01-2019 05:15:00 -8.4 C 94 % -9.19 C
2369 22-01-2019 05:20:00 -8.3 C 93 % -9.23 C
2370 22-01-2019 05:25:00 -8.3 C 93 % -9.23 C
2371 22-01-2019 05:30:00 -8.4 C 93 % -9.33 C
2372 22-01-2019 05:35:00 -8.4 C 93 % -9.33 C
2373 22-01-2019 05:40:00 -8.6 C 93 % -9.52 C
2374 22-01-2019 05:45:00 -8.7 C 93 % -9.62 C
2375 22-01-2019 05:50:00 -8.7 C 93 % -9.62 C
Sensor: Nr:Datum:Temp:Feuchte:Taupunkt:
Aussen-T/F 2376 22-01-2019 05:55:00 -8.7 C 93 % -9.62 C
2377 22-01-2019 06:00:00 -8.7 C 93 % -9.62 C
2378 22-01-2019 06:05:00 -8.7 C 93 % -9.62 C
2379 22-01-2019 06:10:00 -8.7 C 93 % -9.62 C
2380 22-01-2019 06:15:00 -8.7 C 93 % -9.62 C
2381 22-01-2019 06:20:00 -8.7 C 93 % -9.62 C
2382 22-01-2019 06:25:00 -8.7 C 93 % -9.62 C
2383 22-01-2019 06:30:00 -8.7 C 93 % -9.62 C
2384 22-01-2019 06:35:00 -8.8 C 93 % -9.72 C
2385 22-01-2019 06:40:00 -8.8 C 93 % -9.72 C
2386 22-01-2019 06:45:00 -8.8 C 93 % -9.72 C
2387 22-01-2019 06:50:00 -8.8 C 93 % -9.72 C
2388 22-01-2019 06:55:00 -8.8 C 93 % -9.72 C
2389 22-01-2019 07:00:00 -8.7 C 93 % -9.62 C
2390 22-01-2019 07:05:00 -8.7 C 93 % -9.62 C
2391 22-01-2019 07:10:00 -8.6 C 93 % -9.52 C
2392 22-01-2019 07:15:00 -8.7 C 93 % -9.62 C
2393 22-01-2019 07:20:00 -8.7 C 93 % -9.62 C
2394 22-01-2019 07:25:00 -8.7 C 93 % -9.62 C
2395 22-01-2019 07:30:00 -8.7 C 93 % -9.62 C
2396 22-01-2019 07:35:00 -8.7 C 93 % -9.62 C
2397 22-01-2019 07:40:00 -8.7 C 93 % -9.62 C
2398 22-01-2019 07:45:00 -8.6 C 93 % -9.52 C
2399 22-01-2019 07:50:00 -8.5 C 93 % -9.43 C
2400 22-01-2019 07:55:00 -8.5 C 93 % -9.43 C
Sensor: Nr:Datum:Temp:Feuchte:Taupunkt:
Aussen-T/F 2401 22-01-2019 08:00:00 -8.6 C 93 % -9.52 C
2402 22-01-2019 08:05:00 -8.6 C 93 % -9.52 C
2403 22-01-2019 08:10:00 -8.6 C 93 % -9.52 C
2404 22-01-2019 08:15:00 -8.6 C 93 % -9.52 C
2405 22-01-2019 08:20:00 -8.3 C 94 % -9.09 C
2406 22-01-2019 08:25:00 -8.1 C 94 % -8.89 C
2407 22-01-2019 08:30:00 -8.1 C 94 % -8.89 C
2408 22-01-2019 08:35:00 -8 C 94 % -8.79 C
2409 22-01-2019 08:40:00 -7.9 C 94 % -8.69 C
2410 22-01-2019 08:45:00 -7.9 C 93 % -8.83 C
2411 22-01-2019 08:50:00 -7.9 C 93 % -8.83 C
2412 22-01-2019 08:55:00 -7.8 C 94 % -8.59 C
2413 22-01-2019 09:00:00 -7.8 C 94 % -8.59 C
2414 22-01-2019 09:05:00 -7.7 C 94 % -8.49 C
2415 22-01-2019 09:10:00 -7.6 C 94 % -8.4 C
2416 22-01-2019 09:15:00 -7.5 C 94 % -8.3 C
2417 22-01-2019 09:20:00 -7.4 C 94 % -8.2 C
2418 22-01-2019 09:25:00 -7.3 C 94 % -8.1 C
2419 22-01-2019 09:30:00 -7.3 C 94 % -8.1 C
2420 22-01-2019 09:35:00 -7.2 C 94 % -8 C
2421 22-01-2019 09:40:00 -7.2 C 94 % -8 C
2422 22-01-2019 09:45:00 -7.1 C 94 % -7.9 C
2423 22-01-2019 09:50:00 -7 C 94 % -7.8 C
2424 22-01-2019 09:55:00 -6.9 C 94 % -7.7 C
2425 22-01-2019 10:00:00 -6.8 C 94 % -7.6 C
Sensor: Nr:Datum:Temp:Feuchte:Taupunkt:
Aussen-T/F 2426 22-01-2019 10:05:00 -6.8 C 94 % -7.6 C
2427 22-01-2019 10:10:00 -6.7 C 94 % -7.5 C
2428 22-01-2019 10:15:00 -6.6 C 94 % -7.4 C
2429 22-01-2019 10:20:00 -6.5 C 94 % -7.3 C
2430 22-01-2019 10:25:00 -6.4 C 94 % -7.2 C
2431 22-01-2019 10:30:00 -6.3 C 94 % -7.1 C
2432 22-01-2019 10:35:00 -6.2 C 94 % -7.01 C
2433 22-01-2019 10:40:00 -6.1 C 94 % -6.91 C
2434 22-01-2019 10:45:00 -5.9 C 95 % -6.57 C
2435 22-01-2019 10:50:00 -5.8 C 95 % -6.47 C
2436 22-01-2019 10:55:00 -5.7 C 95 % -6.37 C
2437 22-01-2019 11:00:00 -5.6 C 95 % -6.27 C
2438 22-01-2019 11:05:00 -5.5 C 95 % -6.17 C
2439 22-01-2019 11:10:00 -5.4 C 95 % -6.07 C
2440 22-01-2019 11:15:00 -5.3 C 95 % -5.97 C
2441 22-01-2019 11:20:00 -5.2 C 95 % -5.87 C
2442 22-01-2019 11:25:00 -5.1 C 95 % -5.77 C
2443 22-01-2019 11:30:00 -4.9 C 95 % -5.58 C
2444 22-01-2019 11:35:00 -4.8 C 95 % -5.48 C
2445 22-01-2019 11:40:00 -4.7 C 95 % -5.38 C
2446 22-01-2019 11:45:00 -4.6 C 95 % -5.28 C
2447 22-01-2019 11:50:00 -4.5 C 95 % -5.18 C
2448 22-01-2019 11:55:00 -4.3 C 95 % -4.98 C
2449 22-01-2019 12:00:00 -4.2 C 95 % -4.88 C
2450 22-01-2019 12:05:00 -4.1 C 95 % -4.78 C
Sensor: Nr:Datum:Temp:Feuchte:Taupunkt:
Aussen-T/F 2451 22-01-2019 12:10:00 -3.8 C 95 % -4.48 C
2452 22-01-2019 12:15:00 -3.6 C 95 % -4.28 C
2453 22-01-2019 12:20:00 -3.4 C 95 % -4.08 C
2454 22-01-2019 12:25:00 -3.3 C 95 % -3.98 C
2455 22-01-2019 12:30:00 -3.1 C 95 % -3.79 C
2456 22-01-2019 12:35:00 -2.9 C 95 % -3.59 C
2457 22-01-2019 12:40:00 -2.7 C 95 % -3.39 C
2458 22-01-2019 12:45:00 -2.5 C 95 % -3.19 C
2459 22-01-2019 12:50:00 -2.3 C 95 % -2.99 C
2460 22-01-2019 12:55:00 -2.2 C 95 % -2.89 C
2461 22-01-2019 13:00:00 -2 C 94 % -2.83 C
2462 22-01-2019 13:05:00 -1.8 C 94 % -2.64 C
2463 22-01-2019 13:10:00 -1.7 C 93 % -2.68 C
2464 22-01-2019 13:15:00 -1.7 C 93 % -2.68 C
2465 22-01-2019 13:20:00 -1.6 C 92 % -2.73 C
2466 22-01-2019 13:25:00 -1.4 C 92 % -2.53 C
2467 22-01-2019 13:30:00 -1.3 C 91 % -2.58 C
2468 22-01-2019 13:35:00 -1.3 C 92 % -2.43 C
2469 22-01-2019 13:40:00 -1.2 C 91 % -2.48 C
2470 22-01-2019 13:45:00 -1.2 C 91 % -2.48 C
2471 22-01-2019 13:50:00 -1.2 C 90 % -2.63 C
2472 22-01-2019 13:55:00 -1.1 C 90 % -2.53 C
2473 22-01-2019 14:00:00 -1.1 C 89 % -2.68 C
2474 22-01-2019 14:05:00 -1.1 C 89 % -2.68 C
2475 22-01-2019 14:10:00 -0.9 C 89 % -2.48 C
Sensor: Nr:Datum:Temp:Feuchte:Taupunkt:
Aussen-T/F 2476 22-01-2019 14:15:00 -0.9 C 89 % -2.48 C
2477 22-01-2019 14:20:00 -0.9 C 89 % -2.48 C
2478 22-01-2019 14:25:00 -0.9 C 89 % -2.48 C
2479 22-01-2019 14:30:00 -0.9 C 88 % -2.63 C
2480 22-01-2019 14:35:00 -0.8 C 89 % -2.38 C
2481 22-01-2019 14:40:00 -0.8 C 88 % -2.53 C
2482 22-01-2019 14:45:00 -0.8 C 88 % -2.53 C
2483 22-01-2019 14:50:00 -0.8 C 88 % -2.53 C
2484 22-01-2019 14:55:00 -0.8 C 87 % -2.69 C
2485 22-01-2019 15:00:00 -0.8 C 88 % -2.53 C
2486 22-01-2019 15:05:00 -0.9 C 87 % -2.79 C
2487 22-01-2019 15:10:00 -0.9 C 87 % -2.79 C
2488 22-01-2019 15:15:00 -1 C 87 % -2.88 C
2489 22-01-2019 15:20:00 -0.9 C 88 % -2.63 C
2490 22-01-2019 15:25:00 -1 C 88 % -2.73 C
2491 22-01-2019 15:30:00 -1 C 88 % -2.73 C
2492 22-01-2019 15:35:00 -1 C 88 % -2.73 C
2493 22-01-2019 15:40:00 -1.1 C 87 % -2.98 C
2494 22-01-2019 15:45:00 -1.1 C 87 % -2.98 C
2495 22-01-2019 15:50:00 -1.1 C 88 % -2.83 C
2496 22-01-2019 15:55:00 -1.1 C 88 % -2.83 C
2497 22-01-2019 16:00:00 -1.1 C 87 % -2.98 C
2498 22-01-2019 16:05:00 -1.1 C 88 % -2.83 C
2499 22-01-2019 16:10:00 -1.1 C 87 % -2.98 C
2500 22-01-2019 16:15:00 -1.2 C 87 % -3.08 C
Sensor: Nr:Datum:Temp:Feuchte:Taupunkt:
Aussen-T/F 2501 22-01-2019 16:20:00 -1.2 C 87 % -3.08 C
2502 22-01-2019 16:25:00 -1.2 C 87 % -3.08 C
2503 22-01-2019 16:30:00 -1.2 C 87 % -3.08 C
2504 22-01-2019 16:35:00 -1.3 C 87 % -3.18 C
2505 22-01-2019 16:40:00 -1.3 C 87 % -3.18 C
2506 22-01-2019 16:45:00 -1.3 C 87 % -3.18 C
2507 22-01-2019 16:50:00 -1.3 C 87 % -3.18 C
2508 22-01-2019 16:55:00 -1.4 C 87 % -3.28 C
2509 22-01-2019 17:00:00 -1.5 C 88 % -3.22 C
2510 22-01-2019 17:05:00 -1.6 C 87 % -3.48 C
2511 22-01-2019 17:10:00 -1.8 C 87 % -3.67 C
2512 22-01-2019 17:15:00 -1.9 C 87 % -3.77 C
2513 22-01-2019 17:20:00 -2.1 C 88 % -3.82 C
2514 22-01-2019 17:25:00 -2.2 C 88 % -3.91 C
2515 22-01-2019 17:30:00 -2.3 C 88 % -4.01 C
2516 22-01-2019 17:35:00 -2.4 C 89 % -3.96 C
2517 22-01-2019 17:40:00 -2.6 C 89 % -4.16 C
2518 22-01-2019 17:45:00 -2.7 C 89 % -4.26 C
2519 22-01-2019 17:50:00 -2.8 C 89 % -4.36 C
2520 22-01-2019 17:55:00 -2.8 C 89 % -4.36 C
2521 22-01-2019 18:00:00 -2.9 C 90 % -4.31 C
2522 22-01-2019 18:05:00 -2.9 C 90 % -4.31 C
2523 22-01-2019 18:10:00 -2.9 C 90 % -4.31 C
2524 22-01-2019 18:15:00 -2.9 C 90 % -4.31 C
2525 22-01-2019 18:20:00 -2.9 C 91 % -4.16 C
Sensor: Nr:Datum:Temp:Feuchte:Taupunkt:
Aussen-T/F 2526 22-01-2019 18:25:00 -2.9 C 91 % -4.16 C
2527 22-01-2019 18:30:00 -2.9 C 91 % -4.16 C
2528 22-01-2019 18:35:00 -2.9 C 91 % -4.16 C
2529 22-01-2019 18:40:00 -2.8 C 91 % -4.06 C
2530 22-01-2019 18:45:00 -2.8 C 91 % -4.06 C
2531 22-01-2019 18:50:00 -2.8 C 91 % -4.06 C
2532 22-01-2019 18:55:00 -2.8 C 91 % -4.06 C
2533 22-01-2019 19:00:00 -2.8 C 91 % -4.06 C
2534 22-01-2019 19:05:00 -2.9 C 91 % -4.16 C
2535 22-01-2019 19:10:00 -2.9 C 91 % -4.16 C
2536 22-01-2019 19:15:00 -3 C 91 % -4.26 C
2537 22-01-2019 19:20:00 -3.1 C 91 % -4.36 C
2538 22-01-2019 19:25:00 -3.1 C 91 % -4.36 C
2539 22-01-2019 19:30:00 -3.2 C 91 % -4.46 C
2540 22-01-2019 19:35:00 -3.2 C 91 % -4.46 C
2541 22-01-2019 19:40:00 -3.2 C 91 % -4.46 C
2542 22-01-2019 19:45:00 -3.3 C 91 % -4.56 C
2543 22-01-2019 19:50:00 -3.3 C 91 % -4.56 C
2544 22-01-2019 19:55:00 -3.3 C 91 % -4.56 C
2545 22-01-2019 20:00:00 -3.3 C 92 % -4.41 C
2546 22-01-2019 20:05:00 -3.2 C 92 % -4.31 C
2547 22-01-2019 20:10:00 -3.2 C 92 % -4.31 C
2548 22-01-2019 20:15:00 -3.2 C 92 % -4.31 C
2549 22-01-2019 20:20:00 -3.2 C 92 % -4.31 C
2550 22-01-2019 20:25:00 -3.1 C 92 % -4.21 C
Sensor: Nr:Datum:Temp:Feuchte:Taupunkt:
Aussen-T/F 2551 22-01-2019 20:30:00 -3.1 C 92 % -4.21 C
2552 22-01-2019 20:35:00 -3.1 C 92 % -4.21 C
2553 22-01-2019 20:40:00 -3.1 C 92 % -4.21 C
2554 22-01-2019 20:45:00 -3.1 C 92 % -4.21 C
2555 22-01-2019 20:50:00 -3 C 93 % -3.97 C
2556 22-01-2019 20:55:00 -2.9 C 93 % -3.87 C
2557 22-01-2019 21:00:00 -2.9 C 92 % -4.01 C
2558 22-01-2019 21:05:00 -2.8 C 92 % -3.92 C
2559 22-01-2019 21:10:00 -2.8 C 92 % -3.92 C
2560 22-01-2019 21:15:00 -2.8 C 92 % -3.92 C
2561 22-01-2019 21:20:00 -2.7 C 92 % -3.82 C
2562 22-01-2019 21:25:00 -2.7 C 93 % -3.67 C
2563 22-01-2019 21:30:00 -2.7 C 93 % -3.67 C
2564 22-01-2019 21:35:00 -2.7 C 93 % -3.67 C
2565 22-01-2019 21:40:00 -2.6 C 93 % -3.57 C
2566 22-01-2019 21:45:00 -2.6 C 93 % -3.57 C
2567 22-01-2019 21:50:00 -2.5 C 93 % -3.47 C
2568 22-01-2019 21:55:00 -2.5 C 93 % -3.47 C
2569 22-01-2019 22:00:00 -2.4 C 93 % -3.37 C
2570 22-01-2019 22:05:00 -2.4 C 93 % -3.37 C
2571 22-01-2019 22:10:00 -2.4 C 93 % -3.37 C
2572 22-01-2019 22:15:00 -2.4 C 93 % -3.37 C
2573 22-01-2019 22:20:00 -2.4 C 93 % -3.37 C
2574 22-01-2019 22:25:00 -2.4 C 92 % -3.52 C
2575 22-01-2019 22:30:00 -2.4 C 92 % -3.52 C
Sensor: Nr:Datum:Temp:Feuchte:Taupunkt:
Aussen-T/F 2576 22-01-2019 22:35:00 -2.4 C 92 % -3.52 C
2577 22-01-2019 22:40:00 -2.4 C 92 % -3.52 C
2578 22-01-2019 22:45:00 -2.3 C 93 % -3.28 C
2579 22-01-2019 22:50:00 -2.3 C 92 % -3.42 C
2580 22-01-2019 22:55:00 -2.3 C 92 % -3.42 C
2581 22-01-2019 23:00:00 -2.2 C 92 % -3.32 C
2582 22-01-2019 23:05:00 -2.2 C 92 % -3.32 C
2583 22-01-2019 23:10:00 -2.2 C 92 % -3.32 C
2584 22-01-2019 23:15:00 -2.2 C 92 % -3.32 C
2585 22-01-2019 23:20:00 -2.2 C 92 % -3.32 C
2586 22-01-2019 23:25:00 -2.1 C 92 % -3.22 C
2587 22-01-2019 23:30:00 -2.1 C 92 % -3.22 C
2588 22-01-2019 23:35:00 -2.1 C 92 % -3.22 C
2589 22-01-2019 23:40:00 -2 C 92 % -3.12 C
2590 22-01-2019 23:45:00 -1.9 C 92 % -3.02 C
2591 22-01-2019 23:50:00 -1.9 C 91 % -3.17 C
2592 22-01-2019 23:55:00 -1.8 C 91 % -3.07 C
2593 23-01-2019 00:00:00 -1.8 C 91 % -3.07 C
2594 23-01-2019 00:05:00 -1.8 C 90 % -3.22 C
2595 23-01-2019 00:10:00 -1.7 C 90 % -3.12 C
2596 23-01-2019 00:15:00 -1.7 C 89 % -3.27 C
2597 23-01-2019 00:20:00 -1.7 C 89 % -3.27 C
2598 23-01-2019 00:25:00 -1.6 C 88 % -3.32 C
2599 23-01-2019 00:30:00 -1.6 C 88 % -3.32 C
2600 23-01-2019 00:35:00 -1.6 C 88 % -3.32 C
Sensor: Nr:Datum:Temp:Feuchte:Taupunkt:
Aussen-T/F 2601 23-01-2019 00:40:00 -1.6 C 88 % -3.32 C
2602 23-01-2019 00:45:00 -1.6 C 88 % -3.32 C
2603 23-01-2019 00:50:00 -1.6 C 89 % -3.17 C
2604 23-01-2019 00:55:00 -1.6 C 89 % -3.17 C
2605 23-01-2019 01:00:00 -1.6 C 89 % -3.17 C
2606 23-01-2019 01:05:00 -1.6 C 89 % -3.17 C
2607 23-01-2019 01:10:00 -1.6 C 89 % -3.17 C
2608 23-01-2019 01:15:00 -1.6 C 89 % -3.17 C
2609 23-01-2019 01:20:00 -1.6 C 89 % -3.17 C
2610 23-01-2019 01:25:00 -1.6 C 90 % -3.02 C
2611 23-01-2019 01:30:00 -1.6 C 90 % -3.02 C
2612 23-01-2019 01:35:00 -1.6 C 90 % -3.02 C
2613 23-01-2019 01:40:00 -1.7 C 90 % -3.12 C
2614 23-01-2019 01:45:00 -1.7 C 90 % -3.12 C
2615 23-01-2019 01:50:00 -1.7 C 90 % -3.12 C
2616 23-01-2019 01:55:00 -1.7 C 91 % -2.97 C
2617 23-01-2019 02:00:00 -1.7 C 91 % -2.97 C
2618 23-01-2019 02:05:00 -1.7 C 91 % -2.97 C
2619 23-01-2019 02:10:00 -1.7 C 91 % -2.97 C
2620 23-01-2019 02:15:00 -1.7 C 91 % -2.97 C
2621 23-01-2019 02:20:00 -1.7 C 91 % -2.97 C
2622 23-01-2019 02:25:00 -1.7 C 91 % -2.97 C
2623 23-01-2019 02:30:00 -1.7 C 91 % -2.97 C
2624 23-01-2019 02:35:00 -1.7 C 91 % -2.97 C
2625 23-01-2019 02:40:00 -1.7 C 91 % -2.97 C
Sensor: Nr:Datum:Temp:Feuchte:Taupunkt:
Aussen-T/F 2626 23-01-2019 02:45:00 -1.7 C 91 % -2.97 C
2627 23-01-2019 02:50:00 -1.7 C 91 % -2.97 C
2628 23-01-2019 02:55:00 -1.7 C 92 % -2.83 C
2629 23-01-2019 03:00:00 -1.7 C 92 % -2.83 C
2630 23-01-2019 03:05:00 -1.7 C 92 % -2.83 C
2631 23-01-2019 03:10:00 -1.7 C 92 % -2.83 C
2632 23-01-2019 03:15:00 -1.8 C 92 % -2.92 C
2633 23-01-2019 03:20:00 -1.8 C 92 % -2.92 C
2634 23-01-2019 03:25:00 -1.8 C 92 % -2.92 C
2635 23-01-2019 03:30:00 -1.8 C 92 % -2.92 C
2636 23-01-2019 03:35:00 -1.8 C 92 % -2.92 C
2637 23-01-2019 03:40:00 -1.8 C 92 % -2.92 C
2638 23-01-2019 03:45:00 -1.8 C 93 % -2.78 C
2639 23-01-2019 03:50:00 -1.8 C 93 % -2.78 C
2640 23-01-2019 03:55:00 -1.8 C 92 % -2.92 C
2641 23-01-2019 04:00:00 -1.8 C 93 % -2.78 C
2642 23-01-2019 04:05:00 -1.8 C 93 % -2.78 C
2643 23-01-2019 04:10:00 -1.8 C 93 % -2.78 C
2644 23-01-2019 04:15:00 -1.8 C 93 % -2.78 C
2645 23-01-2019 04:20:00 -1.8 C 93 % -2.78 C
2646 23-01-2019 04:25:00 -1.8 C 93 % -2.78 C
2647 23-01-2019 04:30:00 -1.8 C 93 % -2.78 C
2648 23-01-2019 04:35:00 -1.8 C 93 % -2.78 C
2649 23-01-2019 04:40:00 -1.8 C 93 % -2.78 C
2650 23-01-2019 04:45:00 -1.8 C 93 % -2.78 C
Sensor: Nr:Datum:Temp:Feuchte:Taupunkt:
Aussen-T/F 2651 23-01-2019 04:50:00 -1.9 C 93 % -2.88 C
2652 23-01-2019 04:55:00 -1.9 C 93 % -2.88 C
2653 23-01-2019 05:00:00 -1.9 C 93 % -2.88 C
2654 23-01-2019 05:05:00 -1.9 C 93 % -2.88 C
2655 23-01-2019 05:10:00 -1.9 C 93 % -2.88 C
2656 23-01-2019 05:15:00 -2 C 93 % -2.98 C
2657 23-01-2019 05:20:00 -2 C 93 % -2.98 C
2658 23-01-2019 05:25:00 -2 C 93 % -2.98 C
2659 23-01-2019 05:30:00 -2.1 C 94 % -2.93 C
2660 23-01-2019 05:35:00 -2.1 C 93 % -3.08 C
2661 23-01-2019 05:40:00 -2.1 C 93 % -3.08 C
2662 23-01-2019 05:45:00 -2.1 C 93 % -3.08 C
2663 23-01-2019 05:50:00 -2.1 C 94 % -2.93 C
2664 23-01-2019 05:55:00 -2.1 C 94 % -2.93 C
2665 23-01-2019 06:00:00 -2.1 C 94 % -2.93 C
2666 23-01-2019 06:05:00 -2.1 C 94 % -2.93 C
2667 23-01-2019 06:10:00 -2.2 C 94 % -3.03 C
2668 23-01-2019 06:15:00 -2.2 C 94 % -3.03 C
2669 23-01-2019 06:20:00 -2.2 C 94 % -3.03 C
2670 23-01-2019 06:25:00 -2.2 C 94 % -3.03 C
2671 23-01-2019 06:30:00 -2.2 C 94 % -3.03 C
2672 23-01-2019 06:35:00 -2.2 C 94 % -3.03 C
2673 23-01-2019 06:40:00 -2.2 C 94 % -3.03 C
2674 23-01-2019 06:45:00 -2.2 C 94 % -3.03 C
2675 23-01-2019 06:50:00 -2.2 C 94 % -3.03 C
Sensor: Nr:Datum:Temp:Feuchte:Taupunkt:
Aussen-T/F 2676 23-01-2019 06:55:00 -2.2 C 94 % -3.03 C
2677 23-01-2019 07:00:00 -2.2 C 94 % -3.03 C
2678 23-01-2019 07:05:00 -2.2 C 94 % -3.03 C
2679 23-01-2019 07:10:00 -2.2 C 94 % -3.03 C
2680 23-01-2019 07:15:00 -2.3 C 94 % -3.13 C
2681 23-01-2019 07:20:00 -2.3 C 94 % -3.13 C
2682 23-01-2019 07:25:00 -2.3 C 94 % -3.13 C
2683 23-01-2019 07:30:00 -2.3 C 94 % -3.13 C
2684 23-01-2019 07:35:00 -2.3 C 94 % -3.13 C
2685 23-01-2019 07:40:00 -2.3 C 94 % -3.13 C
2686 23-01-2019 07:45:00 -2.4 C 94 % -3.23 C
2687 23-01-2019 07:50:00 -2.4 C 94 % -3.23 C
2688 23-01-2019 07:55:00 -2.4 C 94 % -3.23 C
2689 23-01-2019 08:00:00 -2.4 C 94 % -3.23 C
2690 23-01-2019 08:05:00 -2.4 C 94 % -3.23 C
2691 23-01-2019 08:10:00 -2.4 C 94 % -3.23 C
2692 23-01-2019 08:15:00 -2.4 C 94 % -3.23 C
2693 23-01-2019 08:20:00 -2.4 C 94 % -3.23 C
2694 23-01-2019 08:25:00 -2.4 C 94 % -3.23 C
2695 23-01-2019 08:30:00 -2.4 C 94 % -3.23 C
2696 23-01-2019 08:35:00 -2.4 C 94 % -3.23 C
2697 23-01-2019 08:40:00 -2.4 C 94 % -3.23 C
2698 23-01-2019 08:45:00 -2.4 C 94 % -3.23 C
2699 23-01-2019 08:50:00 -2.4 C 94 % -3.23 C
2700 23-01-2019 08:55:00 -2.4 C 94 % -3.23 C
Sensor: Nr:Datum:Temp:Feuchte:Taupunkt:
Aussen-T/F 2701 23-01-2019 09:00:00 -2.4 C 94 % -3.23 C
2702 23-01-2019 09:05:00 -2.4 C 94 % -3.23 C
2703 23-01-2019 09:10:00 -2.4 C 94 % -3.23 C
2704 23-01-2019 09:15:00 -2.3 C 94 % -3.13 C
2705 23-01-2019 09:20:00 -2.3 C 94 % -3.13 C
2706 23-01-2019 09:25:00 -2.3 C 95 % -2.99 C
2707 23-01-2019 09:30:00 -2.3 C 95 % -2.99 C
2708 23-01-2019 09:35:00 -2.3 C 95 % -2.99 C
2709 23-01-2019 09:40:00 -2.2 C 95 % -2.89 C
2710 23-01-2019 09:45:00 -2.2 C 95 % -2.89 C
2711 23-01-2019 09:50:00 -2.1 C 95 % -2.79 C
2712 23-01-2019 09:55:00 -2.1 C 95 % -2.79 C
2713 23-01-2019 10:00:00 -2 C 95 % -2.69 C
2714 23-01-2019 10:05:00 -1.9 C 94 % -2.73 C
2715 23-01-2019 10:10:00 -1.9 C 94 % -2.73 C
2716 23-01-2019 10:15:00 -1.8 C 94 % -2.64 C
2717 23-01-2019 10:20:00 -1.8 C 94 % -2.64 C
2718 23-01-2019 10:25:00 -1.8 C 94 % -2.64 C
2719 23-01-2019 10:30:00 -1.7 C 94 % -2.54 C
2720 23-01-2019 10:35:00 -1.7 C 94 % -2.54 C
2721 23-01-2019 10:40:00 -1.7 C 94 % -2.54 C
2722 23-01-2019 10:45:00 -1.7 C 94 % -2.54 C
2723 23-01-2019 10:50:00 -1.6 C 94 % -2.44 C
2724 23-01-2019 10:55:00 -1.5 C 94 % -2.34 C
2725 23-01-2019 11:00:00 -1.4 C 94 % -2.24 C
Sensor: Nr:Datum:Temp:Feuchte:Taupunkt:
Aussen-T/F 2726 23-01-2019 11:05:00 -1.4 C 93 % -2.38 C
2727 23-01-2019 11:10:00 -1.4 C 93 % -2.38 C
2728 23-01-2019 11:15:00 -1.3 C 93 % -2.28 C
2729 23-01-2019 11:20:00 -1.3 C 92 % -2.43 C
2730 23-01-2019 11:25:00 -1.3 C 92 % -2.43 C
2731 23-01-2019 11:30:00 -1.3 C 92 % -2.43 C
2732 23-01-2019 11:35:00 -1.2 C 92 % -2.33 C
2733 23-01-2019 11:40:00 -1.2 C 92 % -2.33 C
2734 23-01-2019 11:45:00 -1.1 C 91 % -2.38 C
2735 23-01-2019 11:50:00 -1.1 C 91 % -2.38 C
2736 23-01-2019 11:55:00 -1 C 90 % -2.43 C
2737 23-01-2019 12:00:00 -0.9 C 90 % -2.33 C
2738 23-01-2019 12:05:00 -0.8 C 90 % -2.23 C
2739 23-01-2019 12:10:00 -0.8 C 89 % -2.38 C
2740 23-01-2019 12:15:00 -0.8 C 88 % -2.53 C
2741 23-01-2019 12:20:00 -0.8 C 88 % -2.53 C
2742 23-01-2019 12:25:00 -0.8 C 87 % -2.69 C
2743 23-01-2019 12:30:00 -0.7 C 87 % -2.59 C
2744 23-01-2019 12:35:00 -0.7 C 87 % -2.59 C
2745 23-01-2019 12:40:00 -0.7 C 87 % -2.59 C
2746 23-01-2019 12:45:00 -0.7 C 85 % -2.9 C
2747 23-01-2019 12:50:00 -0.7 C 85 % -2.9 C
2748 23-01-2019 12:55:00 -0.7 C 86 % -2.74 C
2749 23-01-2019 13:00:00 -0.7 C 86 % -2.74 C
2750 23-01-2019 13:05:00 -0.7 C 86 % -2.74 C
Sensor: Nr:Datum:Temp:Feuchte:Taupunkt:
Aussen-T/F 2751 23-01-2019 13:10:00 -0.7 C 86 % -2.74 C
2752 23-01-2019 13:15:00 -0.7 C 86 % -2.74 C
2753 23-01-2019 13:20:00 -0.7 C 85 % -2.9 C
2754 23-01-2019 13:25:00 -0.7 C 85 % -2.9 C
2755 23-01-2019 13:30:00 -0.7 C 84 % -3.06 C
2756 23-01-2019 13:35:00 -0.7 C 85 % -2.9 C
2757 23-01-2019 13:40:00 -0.7 C 84 % -3.06 C
2758 23-01-2019 13:45:00 -0.7 C 84 % -3.06 C
2759 23-01-2019 13:50:00 -0.7 C 85 % -2.9 C
2760 23-01-2019 13:55:00 -0.7 C 84 % -3.06 C
2761 23-01-2019 14:00:00 -0.7 C 84 % -3.06 C
2762 23-01-2019 14:05:00 -0.6 C 84 % -2.96 C
2763 23-01-2019 14:10:00 -0.7 C 84 % -3.06 C
2764 23-01-2019 14:15:00 -0.7 C 83 % -3.22 C
2765 23-01-2019 14:20:00 -0.7 C 84 % -3.06 C
2766 23-01-2019 14:25:00 -0.7 C 84 % -3.06 C
2767 23-01-2019 14:30:00 -0.7 C 84 % -3.06 C
2768 23-01-2019 14:35:00 -0.7 C 83 % -3.22 C
2769 23-01-2019 14:40:00 -0.7 C 83 % -3.22 C
2770 23-01-2019 14:45:00 -0.8 C 83 % -3.32 C
2771 23-01-2019 14:50:00 -0.8 C 83 % -3.32 C
2772 23-01-2019 14:55:00 -0.8 C 84 % -3.16 C
2773 23-01-2019 15:00:00 -0.8 C 83 % -3.32 C
2774 23-01-2019 15:05:00 -0.8 C 84 % -3.16 C
2775 23-01-2019 15:10:00 -0.8 C 83 % -3.32 C
Sensor: Nr:Datum:Temp:Feuchte:Taupunkt:
Aussen-T/F 2776 23-01-2019 15:15:00 -0.8 C 84 % -3.16 C
2777 23-01-2019 15:20:00 -0.8 C 83 % -3.32 C
2778 23-01-2019 15:25:00 -0.8 C 82 % -3.48 C
2779 23-01-2019 15:30:00 -0.8 C 83 % -3.32 C
2780 23-01-2019 15:35:00 -0.8 C 83 % -3.32 C
2781 23-01-2019 15:40:00 -0.8 C 83 % -3.32 C
2782 23-01-2019 15:45:00 -0.8 C 83 % -3.32 C
2783 23-01-2019 15:50:00 -0.8 C 82 % -3.48 C
2784 23-01-2019 15:55:00 -0.8 C 83 % -3.32 C
2785 23-01-2019 16:00:00 -0.8 C 83 % -3.32 C
2786 23-01-2019 16:05:00 -0.8 C 83 % -3.32 C
2787 23-01-2019 16:10:00 -0.8 C 83 % -3.32 C
2788 23-01-2019 16:15:00 -0.8 C 84 % -3.16 C
2789 23-01-2019 16:20:00 -0.8 C 84 % -3.16 C
2790 23-01-2019 16:25:00 -0.8 C 84 % -3.16 C
2791 23-01-2019 16:30:00 -0.8 C 84 % -3.16 C
2792 23-01-2019 16:35:00 -0.8 C 84 % -3.16 C
2793 23-01-2019 16:40:00 -0.9 C 84 % -3.26 C
2794 23-01-2019 16:45:00 -0.9 C 83 % -3.42 C
2795 23-01-2019 16:50:00 -0.9 C 84 % -3.26 C
2796 23-01-2019 16:55:00 -0.9 C 84 % -3.26 C
2797 23-01-2019 17:00:00 -0.9 C 85 % -3.1 C
2798 23-01-2019 17:05:00 -1 C 85 % -3.2 C
2799 23-01-2019 17:10:00 -1.1 C 85 % -3.29 C
2800 23-01-2019 17:15:00 -1.1 C 85 % -3.29 C
Sensor: Nr:Datum:Temp:Feuchte:Taupunkt:
Aussen-T/F 2801 23-01-2019 17:20:00 -1.1 C 86 % -3.14 C
2802 23-01-2019 17:25:00 -1.1 C 86 % -3.14 C
2803 23-01-2019 17:30:00 -1.2 C 85 % -3.39 C
2804 23-01-2019 17:35:00 -1.2 C 85 % -3.39 C
2805 23-01-2019 17:40:00 -1.2 C 85 % -3.39 C
2806 23-01-2019 17:45:00 -1.2 C 85 % -3.39 C
2807 23-01-2019 17:50:00 -1.2 C 86 % -3.24 C
2808 23-01-2019 17:55:00 -1.3 C 86 % -3.33 C
2809 23-01-2019 18:00:00 -1.3 C 87 % -3.18 C
2810 23-01-2019 18:05:00 -1.3 C 87 % -3.18 C
2811 23-01-2019 18:10:00 -1.3 C 87 % -3.18 C
2812 23-01-2019 18:15:00 -1.3 C 87 % -3.18 C
2813 23-01-2019 18:20:00 -1.3 C 87 % -3.18 C
2814 23-01-2019 18:25:00 -1.4 C 86 % -3.43 C
2815 23-01-2019 18:30:00 -1.4 C 87 % -3.28 C
2816 23-01-2019 18:35:00 -1.4 C 87 % -3.28 C
2817 23-01-2019 18:40:00 -1.4 C 87 % -3.28 C
2818 23-01-2019 18:45:00 -1.4 C 87 % -3.28 C
2819 23-01-2019 18:50:00 -1.5 C 87 % -3.38 C
2820 23-01-2019 18:55:00 -1.5 C 87 % -3.38 C
2821 23-01-2019 19:00:00 -1.5 C 87 % -3.38 C
2822 23-01-2019 19:05:00 -1.5 C 87 % -3.38 C
2823 23-01-2019 19:10:00 -1.6 C 87 % -3.48 C
2824 23-01-2019 19:15:00 -1.6 C 86 % -3.63 C
2825 23-01-2019 19:20:00 -1.5 C 85 % -3.69 C
Sensor: Nr:Datum:Temp:Feuchte:Taupunkt:
Aussen-T/F 2826 23-01-2019 19:25:00 -1.4 C 85 % -3.59 C
2827 23-01-2019 19:30:00 -1.4 C 86 % -3.43 C
2828 23-01-2019 19:35:00 -1.4 C 86 % -3.43 C
2829 23-01-2019 19:40:00 -1.4 C 86 % -3.43 C
2830 23-01-2019 19:45:00 -1.5 C 86 % -3.53 C
2831 23-01-2019 19:50:00 -1.5 C 87 % -3.38 C
2832 23-01-2019 19:55:00 -1.6 C 87 % -3.48 C
2833 23-01-2019 20:00:00 -1.6 C 87 % -3.48 C
2834 23-01-2019 20:05:00 -1.6 C 87 % -3.48 C
2835 23-01-2019 20:10:00 -1.6 C 87 % -3.48 C
2836 23-01-2019 20:15:00 -1.6 C 88 % -3.32 C
2837 23-01-2019 20:20:00 -1.7 C 88 % -3.42 C
2838 23-01-2019 20:25:00 -1.7 C 88 % -3.42 C
2839 23-01-2019 20:30:00 -1.7 C 88 % -3.42 C
2840 23-01-2019 20:35:00 -1.7 C 88 % -3.42 C
2841 23-01-2019 20:40:00 -1.8 C 88 % -3.52 C
2842 23-01-2019 20:45:00 -1.8 C 88 % -3.52 C
2843 23-01-2019 20:50:00 -1.8 C 89 % -3.37 C
2844 23-01-2019 20:55:00 -1.8 C 88 % -3.52 C
2845 23-01-2019 21:00:00 -1.8 C 88 % -3.52 C
2846 23-01-2019 21:05:00 -1.8 C 88 % -3.52 C
2847 23-01-2019 21:10:00 -1.8 C 88 % -3.52 C
2848 23-01-2019 21:15:00 -1.8 C 88 % -3.52 C
2849 23-01-2019 21:20:00 -1.8 C 88 % -3.52 C
2850 23-01-2019 21:25:00 -1.8 C 88 % -3.52 C
Sensor: Nr:Datum:Temp:Feuchte:Taupunkt:
Aussen-T/F 2851 23-01-2019 21:30:00 -1.8 C 88 % -3.52 C
2852 23-01-2019 21:35:00 -1.8 C 88 % -3.52 C
2853 23-01-2019 21:40:00 -1.8 C 89 % -3.37 C
2854 23-01-2019 21:45:00 -1.8 C 89 % -3.37 C
2855 23-01-2019 21:50:00 -1.9 C 89 % -3.47 C
2856 23-01-2019 21:55:00 -1.9 C 89 % -3.47 C
2857 23-01-2019 22:00:00 -1.9 C 88 % -3.62 C
2858 23-01-2019 22:05:00 -1.9 C 88 % -3.62 C
2859 23-01-2019 22:10:00 -1.9 C 88 % -3.62 C
2860 23-01-2019 22:15:00 -1.9 C 88 % -3.62 C
2861 23-01-2019 22:20:00 -1.9 C 88 % -3.62 C
2862 23-01-2019 22:25:00 -1.8 C 89 % -3.37 C
2863 23-01-2019 22:30:00 -1.8 C 88 % -3.52 C
2864 23-01-2019 22:35:00 -1.8 C 89 % -3.37 C
2865 23-01-2019 22:40:00 -1.9 C 89 % -3.47 C
2866 23-01-2019 22:45:00 -1.9 C 89 % -3.47 C
2867 23-01-2019 22:50:00 -1.9 C 89 % -3.47 C
2868 23-01-2019 22:55:00 -1.9 C 89 % -3.47 C
2869 23-01-2019 23:00:00 -1.9 C 89 % -3.47 C
2870 23-01-2019 23:05:00 -1.9 C 89 % -3.47 C
2871 23-01-2019 23:10:00 -1.8 C 89 % -3.37 C
2872 23-01-2019 23:15:00 -1.9 C 89 % -3.47 C
2873 23-01-2019 23:20:00 -1.9 C 89 % -3.47 C
2874 23-01-2019 23:25:00 -1.9 C 89 % -3.47 C
2875 23-01-2019 23:30:00 -1.9 C 89 % -3.47 C
Sensor: Nr:Datum:Temp:Feuchte:Taupunkt:
Aussen-T/F 2876 23-01-2019 23:35:00 -1.8 C 89 % -3.37 C
2877 23-01-2019 23:40:00 -1.9 C 89 % -3.47 C
2878 23-01-2019 23:45:00 -1.9 C 89 % -3.47 C
2879 23-01-2019 23:50:00 -1.9 C 89 % -3.47 C
2880 23-01-2019 23:55:00 -1.9 C 89 % -3.47 C
2881 24-01-2019 00:00:00 -1.9 C 89 % -3.47 C
2882 24-01-2019 00:05:00 -1.9 C 89 % -3.47 C
2883 24-01-2019 00:10:00 -1.9 C 89 % -3.47 C
2884 24-01-2019 00:15:00 -1.8 C 89 % -3.37 C
2885 24-01-2019 00:20:00 -1.9 C 88 % -3.62 C
2886 24-01-2019 00:25:00 -1.8 C 88 % -3.52 C
2887 24-01-2019 00:30:00 -1.8 C 88 % -3.52 C
2888 24-01-2019 00:35:00 -1.8 C 88 % -3.52 C
2889 24-01-2019 00:40:00 -1.8 C 88 % -3.52 C
2890 24-01-2019 00:45:00 -1.8 C 87 % -3.67 C
2891 24-01-2019 00:50:00 -1.8 C 87 % -3.67 C
2892 24-01-2019 00:55:00 -1.8 C 86 % -3.83 C
2893 24-01-2019 01:00:00 -1.7 C 86 % -3.73 C
2894 24-01-2019 01:05:00 -1.7 C 85 % -3.88 C
2895 24-01-2019 01:10:00 -1.7 C 85 % -3.88 C
2896 24-01-2019 01:15:00 -1.7 C 84 % -4.04 C
2897 24-01-2019 01:20:00 -1.7 C 83 % -4.2 C
2898 24-01-2019 01:25:00 -1.6 C 83 % -4.1 C
2899 24-01-2019 01:30:00 -1.6 C 83 % -4.1 C
2900 24-01-2019 01:35:00 -1.6 C 83 % -4.1 C
Sensor: Nr:Datum:Temp:Feuchte:Taupunkt:
Aussen-T/F 2901 24-01-2019 01:40:00 -1.6 C 82 % -4.26 C
2902 24-01-2019 01:45:00 -1.6 C 82 % -4.26 C
2903 24-01-2019 01:50:00 -1.6 C 82 % -4.26 C
2904 24-01-2019 01:55:00 -1.6 C 82 % -4.26 C
2905 24-01-2019 02:00:00 -1.6 C 82 % -4.26 C
2906 24-01-2019 02:05:00 -1.6 C 82 % -4.26 C
2907 24-01-2019 02:10:00 -1.6 C 82 % -4.26 C
2908 24-01-2019 02:15:00 -1.6 C 83 % -4.1 C
2909 24-01-2019 02:20:00 -1.6 C 83 % -4.1 C
2910 24-01-2019 02:25:00 -1.7 C 82 % -4.36 C
2911 24-01-2019 02:30:00 -1.7 C 82 % -4.36 C
2912 24-01-2019 02:35:00 -1.7 C 82 % -4.36 C
2913 24-01-2019 02:40:00 -1.7 C 82 % -4.36 C
2914 24-01-2019 02:45:00 -1.7 C 82 % -4.36 C
2915 24-01-2019 02:50:00 -1.7 C 82 % -4.36 C
2916 24-01-2019 02:55:00 -1.7 C 82 % -4.36 C
2917 24-01-2019 03:00:00 -1.7 C 83 % -4.2 C
2918 24-01-2019 03:05:00 -1.7 C 82 % -4.36 C
2919 24-01-2019 03:10:00 -1.7 C 82 % -4.36 C
2920 24-01-2019 03:15:00 -1.7 C 83 % -4.2 C
2921 24-01-2019 03:20:00 -1.7 C 83 % -4.2 C
2922 24-01-2019 03:25:00 -1.7 C 82 % -4.36 C
2923 24-01-2019 03:30:00 -1.7 C 82 % -4.36 C
2924 24-01-2019 03:35:00 -1.7 C 83 % -4.2 C
2925 24-01-2019 03:40:00 -1.7 C 83 % -4.2 C
Sensor: Nr:Datum:Temp:Feuchte:Taupunkt:
Aussen-T/F 2926 24-01-2019 03:45:00 -1.8 C 83 % -4.3 C
2927 24-01-2019 03:50:00 -1.8 C 83 % -4.3 C
2928 24-01-2019 03:55:00 -1.8 C 83 % -4.3 C
2929 24-01-2019 04:00:00 -1.8 C 83 % -4.3 C
2930 24-01-2019 04:05:00 -1.8 C 82 % -4.46 C
2931 24-01-2019 04:10:00 -1.8 C 83 % -4.3 C
2932 24-01-2019 04:15:00 -1.8 C 83 % -4.3 C
2933 24-01-2019 04:20:00 -1.8 C 83 % -4.3 C
2934 24-01-2019 04:25:00 -1.8 C 83 % -4.3 C
2935 24-01-2019 04:30:00 -1.8 C 83 % -4.3 C
2936 24-01-2019 04:35:00 -1.8 C 82 % -4.46 C
2937 24-01-2019 04:40:00 -1.9 C 83 % -4.4 C
2938 24-01-2019 04:45:00 -1.9 C 83 % -4.4 C
2939 24-01-2019 04:50:00 -1.9 C 83 % -4.4 C
2940 24-01-2019 04:55:00 -1.9 C 83 % -4.4 C
2941 24-01-2019 05:00:00 -1.9 C 83 % -4.4 C
2942 24-01-2019 05:05:00 -1.9 C 83 % -4.4 C
2943 24-01-2019 05:10:00 -1.9 C 83 % -4.4 C
2944 24-01-2019 05:15:00 -1.9 C 83 % -4.4 C
2945 24-01-2019 05:20:00 -1.9 C 83 % -4.4 C
2946 24-01-2019 05:25:00 -1.9 C 83 % -4.4 C
2947 24-01-2019 05:30:00 -1.9 C 82 % -4.56 C
2948 24-01-2019 05:35:00 -1.9 C 83 % -4.4 C
2949 24-01-2019 05:40:00 -1.9 C 82 % -4.56 C
2950 24-01-2019 05:45:00 -1.9 C 83 % -4.4 C
Sensor: Nr:Datum:Temp:Feuchte:Taupunkt:
Aussen-T/F 2951 24-01-2019 05:50:00 -1.9 C 82 % -4.56 C
2952 24-01-2019 05:55:00 -1.9 C 82 % -4.56 C
2953 24-01-2019 06:00:00 -1.9 C 83 % -4.4 C
2954 24-01-2019 06:05:00 -1.9 C 83 % -4.4 C
2955 24-01-2019 06:10:00 -2 C 83 % -4.49 C
2956 24-01-2019 06:15:00 -2 C 84 % -4.34 C
2957 24-01-2019 06:20:00 -2 C 84 % -4.34 C
2958 24-01-2019 06:25:00 -2 C 84 % -4.34 C
2959 24-01-2019 06:30:00 -2 C 83 % -4.49 C
2960 24-01-2019 06:35:00 -2.1 C 83 % -4.59 C
2961 24-01-2019 06:40:00 -2.1 C 83 % -4.59 C
2962 24-01-2019 06:45:00 -2 C 83 % -4.49 C
2963 24-01-2019 06:50:00 -2.1 C 83 % -4.59 C
2964 24-01-2019 06:55:00 -2.1 C 83 % -4.59 C
2965 24-01-2019 07:00:00 -2.1 C 83 % -4.59 C
2966 24-01-2019 07:05:00 -2.1 C 83 % -4.59 C
2967 24-01-2019 07:10:00 -2.1 C 83 % -4.59 C
2968 24-01-2019 07:15:00 -2.1 C 83 % -4.59 C
2969 24-01-2019 07:20:00 -2.1 C 83 % -4.59 C
2970 24-01-2019 07:25:00 -2.1 C 83 % -4.59 C
2971 24-01-2019 07:30:00 -2.1 C 84 % -4.43 C
2972 24-01-2019 07:35:00 -2.1 C 83 % -4.59 C
2973 24-01-2019 07:40:00 -2.1 C 83 % -4.59 C
2974 24-01-2019 07:45:00 -2.1 C 84 % -4.43 C
2975 24-01-2019 07:50:00 -2.1 C 83 % -4.59 C
Sensor: Nr:Datum:Temp:Feuchte:Taupunkt:
Aussen-T/F 2976 24-01-2019 07:55:00 -2.1 C 84 % -4.43 C
2977 24-01-2019 08:00:00 -2.1 C 83 % -4.59 C
2978 24-01-2019 08:05:00 -2.1 C 84 % -4.43 C
2979 24-01-2019 08:10:00 -2.1 C 84 % -4.43 C
2980 24-01-2019 08:15:00 -2.1 C 84 % -4.43 C
2981 24-01-2019 08:20:00 -2.2 C 83 % -4.69 C
2982 24-01-2019 08:25:00 -2.2 C 84 % -4.53 C
2983 24-01-2019 08:30:00 -2.2 C 83 % -4.69 C
2984 24-01-2019 08:35:00 -2.2 C 83 % -4.69 C
2985 24-01-2019 08:40:00 -2.2 C 84 % -4.53 C
2986 24-01-2019 08:45:00 -2.2 C 84 % -4.53 C
2987 24-01-2019 08:50:00 -2.2 C 84 % -4.53 C
2988 24-01-2019 08:55:00 -2.2 C 84 % -4.53 C
2989 24-01-2019 09:00:00 -2.2 C 84 % -4.53 C
2990 24-01-2019 09:05:00 -2.2 C 84 % -4.53 C
2991 24-01-2019 09:10:00 -2.2 C 83 % -4.69 C
2992 24-01-2019 09:15:00 -2.2 C 84 % -4.53 C
2993 24-01-2019 09:20:00 -2.2 C 83 % -4.69 C
2994 24-01-2019 09:25:00 -2.2 C 83 % -4.69 C
2995 24-01-2019 09:30:00 -2.2 C 83 % -4.69 C
2996 24-01-2019 09:35:00 -2.1 C 83 % -4.59 C
2997 24-01-2019 09:40:00 -2.1 C 83 % -4.59 C
2998 24-01-2019 09:45:00 -2.1 C 84 % -4.43 C
2999 24-01-2019 09:50:00 -2 C 83 % -4.49 C
3000 24-01-2019 09:55:00 -2 C 83 % -4.49 C
Sensor: Nr:Datum:Temp:Feuchte:Taupunkt:
Aussen-T/F 3001 24-01-2019 10:00:00 -2 C 83 % -4.49 C
3002 24-01-2019 10:05:00 -1.9 C 83 % -4.4 C
3003 24-01-2019 10:10:00 -1.9 C 83 % -4.4 C
3004 24-01-2019 10:15:00 -1.9 C 83 % -4.4 C
3005 24-01-2019 10:20:00 -1.9 C 83 % -4.4 C
3006 24-01-2019 10:25:00 -1.9 C 83 % -4.4 C
3007 24-01-2019 10:30:00 -1.9 C 83 % -4.4 C
3008 24-01-2019 10:35:00 -1.9 C 84 % -4.24 C
3009 24-01-2019 10:40:00 -1.9 C 84 % -4.24 C
3010 24-01-2019 10:45:00 -1.9 C 85 % -4.08 C
3011 24-01-2019 10:50:00 -1.9 C 85 % -4.08 C
3012 24-01-2019 10:55:00 -1.9 C 85 % -4.08 C
3013 24-01-2019 11:00:00 -1.9 C 86 % -3.92 C
3014 24-01-2019 11:05:00 -1.9 C 87 % -3.77 C
3015 24-01-2019 11:10:00 -1.9 C 87 % -3.77 C
3016 24-01-2019 11:15:00 -2 C 88 % -3.72 C
3017 24-01-2019 11:20:00 -2.1 C 88 % -3.82 C
3018 24-01-2019 11:25:00 -2.1 C 89 % -3.66 C
3019 24-01-2019 11:30:00 -2.1 C 89 % -3.66 C
3020 24-01-2019 11:35:00 -2.1 C 89 % -3.66 C
3021 24-01-2019 11:40:00 -2.1 C 89 % -3.66 C
3022 24-01-2019 11:45:00 -2.2 C 89 % -3.76 C
3023 24-01-2019 11:50:00 -2.2 C 90 % -3.61 C
3024 24-01-2019 11:55:00 -2.1 C 90 % -3.52 C
3025 24-01-2019 12:00:00 -2.1 C 90 % -3.52 C
Sensor: Nr:Datum:Temp:Feuchte:Taupunkt:
Aussen-T/F 3026 24-01-2019 12:05:00 -2.1 C 90 % -3.52 C
3027 24-01-2019 12:10:00 -2.1 C 89 % -3.66 C
3028 24-01-2019 12:15:00 -2.1 C 89 % -3.66 C
3029 24-01-2019 12:20:00 -2 C 89 % -3.57 C
3030 24-01-2019 12:25:00 -1.9 C 89 % -3.47 C
3031 24-01-2019 12:30:00 -1.8 C 88 % -3.52 C
3032 24-01-2019 12:35:00 -1.8 C 88 % -3.52 C
3033 24-01-2019 12:40:00 -1.7 C 88 % -3.42 C
3034 24-01-2019 12:45:00 -1.6 C 88 % -3.32 C
3035 24-01-2019 12:50:00 -1.6 C 88 % -3.32 C
3036 24-01-2019 12:55:00 -1.6 C 87 % -3.48 C
3037 24-01-2019 13:00:00 -1.6 C 87 % -3.48 C
3038 24-01-2019 13:05:00 -1.5 C 88 % -3.22 C
3039 24-01-2019 13:10:00 -1.4 C 87 % -3.28 C
3040 24-01-2019 13:15:00 -1.4 C 86 % -3.43 C
3041 24-01-2019 13:20:00 -1.4 C 86 % -3.43 C
3042 24-01-2019 13:25:00 -1.3 C 85 % -3.49 C
3043 24-01-2019 13:30:00 -1.3 C 85 % -3.49 C
3044 24-01-2019 13:35:00 -1.3 C 84 % -3.65 C
3045 24-01-2019 13:40:00 -1.3 C 84 % -3.65 C
3046 24-01-2019 13:45:00 -1.2 C 84 % -3.55 C
3047 24-01-2019 13:50:00 -1.2 C 84 % -3.55 C
3048 24-01-2019 13:55:00 -1.2 C 83 % -3.71 C
3049 24-01-2019 14:00:00 -1.2 C 83 % -3.71 C
3050 24-01-2019 14:05:00 -1.2 C 83 % -3.71 C
Sensor: Nr:Datum:Temp:Feuchte:Taupunkt:
Aussen-T/F 3051 24-01-2019 14:10:00 -1.1 C 83 % -3.61 C
3052 24-01-2019 14:15:00 -1.2 C 82 % -3.87 C
3053 24-01-2019 14:20:00 -1.2 C 82 % -3.87 C
3054 24-01-2019 14:25:00 -1.3 C 83 % -3.81 C
3055 24-01-2019 14:30:00 -1.3 C 82 % -3.97 C
3056 24-01-2019 14:35:00 -1.3 C 83 % -3.81 C
3057 24-01-2019 14:40:00 -1.2 C 83 % -3.71 C
3058 24-01-2019 14:45:00 -1.2 C 82 % -3.87 C
3059 24-01-2019 14:50:00 -1.2 C 81 % -4.04 C
3060 24-01-2019 14:55:00 -1.2 C 81 % -4.04 C
3061 24-01-2019 15:00:00 -1.2 C 81 % -4.04 C
3062 24-01-2019 15:05:00 -1.3 C 80 % -4.3 C
3063 24-01-2019 15:10:00 -1.3 C 80 % -4.3 C
3064 24-01-2019 15:15:00 -1.4 C 79 % -4.56 C
3065 24-01-2019 15:20:00 -1.4 C 80 % -4.4 C
3066 24-01-2019 15:25:00 -1.4 C 80 % -4.4 C
3067 24-01-2019 15:30:00 -1.4 C 80 % -4.4 C
3068 24-01-2019 15:35:00 -1.3 C 80 % -4.3 C
3069 24-01-2019 15:40:00 -1.3 C 80 % -4.3 C
3070 24-01-2019 15:45:00 -1.3 C 80 % -4.3 C
3071 24-01-2019 15:50:00 -1.3 C 80 % -4.3 C
3072 24-01-2019 15:55:00 -1.3 C 79 % -4.46 C
3073 24-01-2019 16:00:00 -1.3 C 79 % -4.46 C
3074 24-01-2019 16:05:00 -1.4 C 79 % -4.56 C
3075 24-01-2019 16:10:00 -1.4 C 80 % -4.4 C
Sensor: Nr:Datum:Temp:Feuchte:Taupunkt:
Aussen-T/F 3076 24-01-2019 16:15:00 -1.4 C 80 % -4.4 C
3077 24-01-2019 16:20:00 -1.4 C 80 % -4.4 C
3078 24-01-2019 16:25:00 -1.4 C 80 % -4.4 C
3079 24-01-2019 16:30:00 -1.4 C 81 % -4.23 C
3080 24-01-2019 16:35:00 -1.5 C 81 % -4.33 C
3081 24-01-2019 16:40:00 -1.6 C 81 % -4.43 C
3082 24-01-2019 16:45:00 -1.6 C 81 % -4.43 C
3083 24-01-2019 16:50:00 -1.6 C 82 % -4.26 C
3084 24-01-2019 16:55:00 -1.7 C 82 % -4.36 C
3085 24-01-2019 17:00:00 -1.7 C 83 % -4.2 C
3086 24-01-2019 17:05:00 -1.7 C 83 % -4.2 C
3087 24-01-2019 17:10:00 -1.7 C 83 % -4.2 C
3088 24-01-2019 17:15:00 -1.7 C 82 % -4.36 C
3089 24-01-2019 17:20:00 -1.7 C 83 % -4.2 C
3090 24-01-2019 17:25:00 -1.8 C 81 % -4.62 C
3091 24-01-2019 17:30:00 -1.8 C 81 % -4.62 C
3092 24-01-2019 17:35:00 -1.8 C 81 % -4.62 C
3093 24-01-2019 17:40:00 -1.8 C 80 % -4.79 C
3094 24-01-2019 17:45:00 -1.8 C 80 % -4.79 C
3095 24-01-2019 17:50:00 -1.8 C 80 % -4.79 C
3096 24-01-2019 17:55:00 -1.8 C 80 % -4.79 C
3097 24-01-2019 18:00:00 -1.9 C 80 % -4.88 C
3098 24-01-2019 18:05:00 -1.9 C 81 % -4.72 C
3099 24-01-2019 18:10:00 -1.9 C 80 % -4.88 C
3100 24-01-2019 18:15:00 -1.9 C 82 % -4.56 C
Sensor: Nr:Datum:Temp:Feuchte:Taupunkt:
Aussen-T/F 3101 24-01-2019 18:20:00 -1.9 C 81 % -4.72 C
3102 24-01-2019 18:25:00 -1.9 C 82 % -4.56 C
3103 24-01-2019 18:30:00 -1.9 C 82 % -4.56 C
3104 24-01-2019 18:35:00 -2 C 81 % -4.82 C
3105 24-01-2019 18:40:00 -2 C 80 % -4.98 C
3106 24-01-2019 18:45:00 -1.9 C 81 % -4.72 C
3107 24-01-2019 18:50:00 -1.9 C 81 % -4.72 C
3108 24-01-2019 18:55:00 -1.9 C 82 % -4.56 C
3109 24-01-2019 19:00:00 -2 C 81 % -4.82 C
3110 24-01-2019 19:05:00 -2 C 81 % -4.82 C
3111 24-01-2019 19:10:00 -2 C 81 % -4.82 C
3112 24-01-2019 19:15:00 -2 C 82 % -4.65 C
3113 24-01-2019 19:20:00 -2 C 83 % -4.49 C
3114 24-01-2019 19:25:00 -2.1 C 83 % -4.59 C
3115 24-01-2019 19:30:00 -2.1 C 83 % -4.59 C
3116 24-01-2019 19:35:00 -2.1 C 83 % -4.59 C
3117 24-01-2019 19:40:00 -2.1 C 84 % -4.43 C
3118 24-01-2019 19:45:00 -2.2 C 84 % -4.53 C
3119 24-01-2019 19:50:00 -2.2 C 84 % -4.53 C
3120 24-01-2019 19:55:00 -2.2 C 84 % -4.53 C
3121 24-01-2019 20:00:00 -2.3 C 84 % -4.63 C
3122 24-01-2019 20:05:00 -2.3 C 84 % -4.63 C
3123 24-01-2019 20:10:00 -2.3 C 84 % -4.63 C
3124 24-01-2019 20:15:00 -2.3 C 85 % -4.47 C
3125 24-01-2019 20:20:00 -2.3 C 85 % -4.47 C
Sensor: Nr:Datum:Temp:Feuchte:Taupunkt:
Aussen-T/F 3126 24-01-2019 20:25:00 -2.4 C 84 % -4.73 C
3127 24-01-2019 20:30:00 -2.5 C 84 % -4.83 C
3128 24-01-2019 20:35:00 -2.6 C 84 % -4.92 C
3129 24-01-2019 20:40:00 -2.7 C 84 % -5.02 C
3130 24-01-2019 20:45:00 -2.7 C 85 % -4.87 C
3131 24-01-2019 20:50:00 -2.7 C 85 % -4.87 C
3132 24-01-2019 20:55:00 -2.7 C 85 % -4.87 C
3133 24-01-2019 21:00:00 -2.7 C 86 % -4.71 C
3134 24-01-2019 21:05:00 -2.7 C 86 % -4.71 C
3135 24-01-2019 21:10:00 -2.7 C 86 % -4.71 C
3136 24-01-2019 21:15:00 -2.7 C 86 % -4.71 C
3137 24-01-2019 21:20:00 -2.6 C 87 % -4.46 C
3138 24-01-2019 21:25:00 -2.6 C 87 % -4.46 C
3139 24-01-2019 21:30:00 -2.6 C 86 % -4.61 C
3140 24-01-2019 21:35:00 -2.6 C 86 % -4.61 C
3141 24-01-2019 21:40:00 -2.6 C 86 % -4.61 C
3142 24-01-2019 21:45:00 -2.6 C 86 % -4.61 C
3143 24-01-2019 21:50:00 -2.6 C 86 % -4.61 C
3144 24-01-2019 21:55:00 -2.6 C 87 % -4.46 C
3145 24-01-2019 22:00:00 -2.6 C 86 % -4.61 C
3146 24-01-2019 22:05:00 -2.6 C 86 % -4.61 C
3147 24-01-2019 22:10:00 -2.6 C 86 % -4.61 C
3148 24-01-2019 22:15:00 -2.6 C 86 % -4.61 C
3149 24-01-2019 22:20:00 -2.6 C 86 % -4.61 C
3150 24-01-2019 22:25:00 -2.6 C 86 % -4.61 C
Sensor: Nr:Datum:Temp:Feuchte:Taupunkt:
Aussen-T/F 3151 24-01-2019 22:30:00 -2.5 C 86 % -4.51 C
3152 24-01-2019 22:35:00 -2.5 C 87 % -4.36 C
3153 24-01-2019 22:40:00 -2.5 C 87 % -4.36 C
3154 24-01-2019 22:45:00 -2.5 C 87 % -4.36 C
3155 24-01-2019 22:50:00 -2.4 C 87 % -4.26 C
3156 24-01-2019 22:55:00 -2.4 C 87 % -4.26 C
3157 24-01-2019 23:00:00 -2.4 C 87 % -4.26 C
3158 24-01-2019 23:05:00 -2.4 C 87 % -4.26 C
3159 24-01-2019 23:10:00 -2.4 C 87 % -4.26 C
3160 24-01-2019 23:15:00 -2.4 C 87 % -4.26 C
3161 24-01-2019 23:20:00 -2.4 C 87 % -4.26 C
3162 24-01-2019 23:25:00 -2.4 C 87 % -4.26 C
3163 24-01-2019 23:30:00 -2.4 C 87 % -4.26 C
3164 24-01-2019 23:35:00 -2.4 C 87 % -4.26 C
3165 24-01-2019 23:40:00 -2.4 C 88 % -4.11 C
3166 24-01-2019 23:45:00 -2.4 C 87 % -4.26 C
3167 24-01-2019 23:50:00 -2.4 C 87 % -4.26 C
3168 24-01-2019 23:55:00 -2.4 C 87 % -4.26 C
3169 25-01-2019 00:00:00 -2.4 C 87 % -4.26 C
3170 25-01-2019 00:05:00 -2.4 C 87 % -4.26 C
3171 25-01-2019 00:10:00 -2.4 C 87 % -4.26 C
3172 25-01-2019 00:15:00 -2.4 C 87 % -4.26 C
3173 25-01-2019 00:20:00 -2.4 C 87 % -4.26 C
3174 25-01-2019 00:25:00 -2.4 C 87 % -4.26 C
3175 25-01-2019 00:30:00 -2.4 C 87 % -4.26 C
Sensor: Nr:Datum:Temp:Feuchte:Taupunkt:
Aussen-T/F 3176 25-01-2019 00:35:00 -2.4 C 86 % -4.42 C
3177 25-01-2019 00:40:00 -2.4 C 86 % -4.42 C
3178 25-01-2019 00:45:00 -2.3 C 86 % -4.32 C
3179 25-01-2019 00:50:00 -2.3 C 86 % -4.32 C
3180 25-01-2019 00:55:00 -2.3 C 86 % -4.32 C
3181 25-01-2019 01:00:00 -2.3 C 86 % -4.32 C
3182 25-01-2019 01:05:00 -2.3 C 86 % -4.32 C
3183 25-01-2019 01:10:00 -2.2 C 86 % -4.22 C
3184 25-01-2019 01:15:00 -2.2 C 86 % -4.22 C
3185 25-01-2019 01:20:00 -2.2 C 86 % -4.22 C
3186 25-01-2019 01:25:00 -2.2 C 86 % -4.22 C
3187 25-01-2019 01:30:00 -2.1 C 86 % -4.12 C
3188 25-01-2019 01:35:00 -2.1 C 86 % -4.12 C
3189 25-01-2019 01:40:00 -2.1 C 86 % -4.12 C
3190 25-01-2019 01:45:00 -2 C 86 % -4.02 C
3191 25-01-2019 01:50:00 -2 C 86 % -4.02 C
3192 25-01-2019 01:55:00 -1.9 C 86 % -3.92 C
3193 25-01-2019 02:00:00 -1.9 C 86 % -3.92 C
3194 25-01-2019 02:05:00 -1.9 C 86 % -3.92 C
3195 25-01-2019 02:10:00 -1.9 C 86 % -3.92 C
3196 25-01-2019 02:15:00 -1.8 C 86 % -3.83 C
3197 25-01-2019 02:20:00 -1.8 C 87 % -3.67 C
3198 25-01-2019 02:25:00 -1.8 C 86 % -3.83 C
3199 25-01-2019 02:30:00 -1.8 C 87 % -3.67 C
3200 25-01-2019 02:35:00 -1.8 C 86 % -3.83 C
Sensor: Nr:Datum:Temp:Feuchte:Taupunkt:
Aussen-T/F 3201 25-01-2019 02:40:00 -1.8 C 87 % -3.67 C
3202 25-01-2019 02:45:00 -1.8 C 87 % -3.67 C
3203 25-01-2019 02:50:00 -1.7 C 87 % -3.57 C
3204 25-01-2019 02:55:00 -1.7 C 87 % -3.57 C
3205 25-01-2019 03:00:00 -1.7 C 87 % -3.57 C
3206 25-01-2019 03:05:00 -1.7 C 87 % -3.57 C
3207 25-01-2019 03:10:00 -1.7 C 87 % -3.57 C
3208 25-01-2019 03:15:00 -1.7 C 87 % -3.57 C
3209 25-01-2019 03:20:00 -1.7 C 88 % -3.42 C
3210 25-01-2019 03:25:00 -1.7 C 88 % -3.42 C
3211 25-01-2019 03:30:00 -1.7 C 88 % -3.42 C
3212 25-01-2019 03:35:00 -1.7 C 88 % -3.42 C
3213 25-01-2019 03:40:00 -1.7 C 88 % -3.42 C
3214 25-01-2019 03:45:00 -1.7 C 88 % -3.42 C
3215 25-01-2019 03:50:00 -1.7 C 88 % -3.42 C
3216 25-01-2019 03:55:00 -1.7 C 88 % -3.42 C
3217 25-01-2019 04:00:00 -1.6 C 88 % -3.32 C
3218 25-01-2019 04:05:00 -1.6 C 88 % -3.32 C
3219 25-01-2019 04:10:00 -1.6 C 88 % -3.32 C
3220 25-01-2019 04:15:00 -1.6 C 88 % -3.32 C
3221 25-01-2019 04:20:00 -1.6 C 88 % -3.32 C
3222 25-01-2019 04:25:00 -1.6 C 88 % -3.32 C
3223 25-01-2019 04:30:00 -1.6 C 88 % -3.32 C
3224 25-01-2019 04:35:00 -1.6 C 89 % -3.17 C
3225 25-01-2019 04:40:00 -1.5 C 89 % -3.07 C
Sensor: Nr:Datum:Temp:Feuchte:Taupunkt:
Aussen-T/F 3226 25-01-2019 04:45:00 -1.5 C 89 % -3.07 C
3227 25-01-2019 04:50:00 -1.5 C 89 % -3.07 C
3228 25-01-2019 04:55:00 -1.5 C 89 % -3.07 C
3229 25-01-2019 05:00:00 -1.4 C 89 % -2.97 C
3230 25-01-2019 05:05:00 -1.4 C 89 % -2.97 C
3231 25-01-2019 05:10:00 -1.4 C 89 % -2.97 C
3232 25-01-2019 05:15:00 -1.4 C 89 % -2.97 C
3233 25-01-2019 05:20:00 -1.4 C 89 % -2.97 C
3234 25-01-2019 05:25:00 -1.4 C 89 % -2.97 C
3235 25-01-2019 05:30:00 -1.4 C 89 % -2.97 C
3236 25-01-2019 05:35:00 -1.4 C 89 % -2.97 C
3237 25-01-2019 05:40:00 -1.4 C 89 % -2.97 C
3238 25-01-2019 05:45:00 -1.4 C 90 % -2.82 C
3239 25-01-2019 05:50:00 -1.4 C 90 % -2.82 C
3240 25-01-2019 05:55:00 -1.4 C 90 % -2.82 C
3241 25-01-2019 06:00:00 -1.3 C 90 % -2.73 C
3242 25-01-2019 06:05:00 -1.3 C 90 % -2.73 C
3243 25-01-2019 06:10:00 -1.3 C 90 % -2.73 C
3244 25-01-2019 06:15:00 -1.3 C 90 % -2.73 C
3245 25-01-2019 06:20:00 -1.3 C 90 % -2.73 C
3246 25-01-2019 06:25:00 -1.3 C 90 % -2.73 C
3247 25-01-2019 06:30:00 -1.3 C 90 % -2.73 C
3248 25-01-2019 06:35:00 -1.3 C 90 % -2.73 C
3249 25-01-2019 06:40:00 -1.3 C 90 % -2.73 C
3250 25-01-2019 06:45:00 -1.3 C 90 % -2.73 C
Sensor: Nr:Datum:Temp:Feuchte:Taupunkt:
Aussen-T/F 3251 25-01-2019 06:50:00 -1.3 C 90 % -2.73 C
3252 25-01-2019 06:55:00 -1.3 C 90 % -2.73 C
3253 25-01-2019 07:00:00 -1.3 C 90 % -2.73 C
3254 25-01-2019 07:05:00 -1.3 C 90 % -2.73 C
3255 25-01-2019 07:10:00 -1.3 C 90 % -2.73 C
3256 25-01-2019 07:15:00 -1.3 C 90 % -2.73 C
3257 25-01-2019 07:20:00 -1.3 C 90 % -2.73 C
3258 25-01-2019 07:25:00 -1.2 C 90 % -2.63 C
3259 25-01-2019 07:30:00 -1.2 C 90 % -2.63 C
3260 25-01-2019 07:35:00 -1.2 C 90 % -2.63 C
3261 25-01-2019 07:40:00 -1.2 C 90 % -2.63 C
3262 25-01-2019 07:45:00 -1.2 C 91 % -2.48 C
3263 25-01-2019 07:50:00 -1.2 C 91 % -2.48 C
3264 25-01-2019 07:55:00 -1.2 C 91 % -2.48 C
3265 25-01-2019 08:00:00 -1.2 C 91 % -2.48 C
3266 25-01-2019 08:05:00 -1.2 C 91 % -2.48 C
3267 25-01-2019 08:10:00 -1.2 C 91 % -2.48 C
3268 25-01-2019 08:15:00 -1.2 C 91 % -2.48 C
3269 25-01-2019 08:20:00 -1.2 C 91 % -2.48 C
3270 25-01-2019 08:25:00 -1.1 C 91 % -2.38 C
3271 25-01-2019 08:30:00 -1.1 C 91 % -2.38 C
3272 25-01-2019 08:35:00 -1.1 C 91 % -2.38 C
3273 25-01-2019 08:40:00 -1 C 91 % -2.28 C
3274 25-01-2019 08:45:00 -1 C 91 % -2.28 C
3275 25-01-2019 08:50:00 -1 C 91 % -2.28 C
Sensor: Nr:Datum:Temp:Feuchte:Taupunkt:
Aussen-T/F 3276 25-01-2019 08:55:00 -0.9 C 91 % -2.18 C
3277 25-01-2019 09:00:00 -0.9 C 91 % -2.18 C
3278 25-01-2019 09:05:00 -0.9 C 91 % -2.18 C
3279 25-01-2019 09:10:00 -0.9 C 91 % -2.18 C
3280 25-01-2019 09:15:00 -0.8 C 91 % -2.08 C
3281 25-01-2019 09:20:00 -0.8 C 91 % -2.08 C
3282 25-01-2019 09:25:00 -0.8 C 91 % -2.08 C
3283 25-01-2019 09:30:00 -0.8 C 91 % -2.08 C
3284 25-01-2019 09:35:00 -0.7 C 91 % -1.98 C
3285 25-01-2019 09:40:00 -0.7 C 91 % -1.98 C
3286 25-01-2019 09:45:00 -0.6 C 91 % -1.88 C
3287 25-01-2019 09:50:00 -0.6 C 91 % -1.88 C
3288 25-01-2019 09:55:00 -0.5 C 91 % -1.78 C
3289 25-01-2019 10:00:00 -0.5 C 91 % -1.78 C
3290 25-01-2019 10:05:00 -0.4 C 91 % -1.69 C
3291 25-01-2019 10:10:00 -0.4 C 91 % -1.69 C
3292 25-01-2019 10:15:00 -0.3 C 91 % -1.59 C
3293 25-01-2019 10:20:00 -0.3 C 91 % -1.59 C
3294 25-01-2019 10:25:00 -0.2 C 91 % -1.49 C
3295 25-01-2019 10:30:00 -0.2 C 91 % -1.49 C
3296 25-01-2019 10:35:00 -0.1 C 91 % -1.39 C
3297 25-01-2019 10:40:00 -0.1 C 91 % -1.39 C
3298 25-01-2019 10:45:00 0 C 92 % -1.14 C
3299 25-01-2019 10:50:00 0 C 91 % -1.29 C
3300 25-01-2019 10:55:00 0.1 C 91 % -1.19 C
Sensor: Nr:Datum:Temp:Feuchte:Taupunkt:
Aussen-T/F 3301 25-01-2019 11:00:00 0.1 C 91 % -1.19 C
3302 25-01-2019 11:05:00 0.2 C 91 % -1.09 C
3303 25-01-2019 11:10:00 0.3 C 91 % -0.99 C
3304 25-01-2019 11:15:00 0.4 C 91 % -0.89 C
3305 25-01-2019 11:20:00 0.4 C 90 % -1.04 C
3306 25-01-2019 11:25:00 0.5 C 90 % -0.95 C
3307 25-01-2019 11:30:00 0.7 C 90 % -0.75 C
3308 25-01-2019 11:35:00 0.8 C 90 % -0.65 C
3309 25-01-2019 11:40:00 0.9 C 90 % -0.55 C
3310 25-01-2019 11:45:00 1 C 89 % -0.6 C
3311 25-01-2019 11:50:00 1.1 C 89 % -0.51 C
3312 25-01-2019 11:55:00 1.2 C 88 % -0.56 C
3313 25-01-2019 12:00:00 1.2 C 88 % -0.56 C
3314 25-01-2019 12:05:00 1.2 C 88 % -0.56 C
3315 25-01-2019 12:10:00 1.3 C 88 % -0.46 C
3316 25-01-2019 12:15:00 1.4 C 88 % -0.36 C
3317 25-01-2019 12:20:00 1.5 C 87 % -0.42 C
3318 25-01-2019 12:25:00 1.6 C 87 % -0.32 C
3319 25-01-2019 12:30:00 1.7 C 86 % -0.38 C
3320 25-01-2019 12:35:00 1.7 C 86 % -0.38 C
3321 25-01-2019 12:40:00 1.8 C 86 % -0.29 C
3322 25-01-2019 12:45:00 1.9 C 86 % -0.19 C
3323 25-01-2019 12:50:00 2.1 C 85 % -0.15 C
3324 25-01-2019 12:55:00 2.2 C 84 % -0.22 C
3325 25-01-2019 13:00:00 2.3 C 84 % -0.12 C
Sensor: Nr:Datum:Temp:Feuchte:Taupunkt:
Aussen-T/F 3326 25-01-2019 13:05:00 2.3 C 83 % -0.28 C
3327 25-01-2019 13:10:00 2.4 C 82 % -0.35 C
3328 25-01-2019 13:15:00 2.5 C 81 % -0.42 C
3329 25-01-2019 13:20:00 2.6 C 81 % -0.32 C
3330 25-01-2019 13:25:00 2.6 C 80 % -0.49 C
3331 25-01-2019 13:30:00 2.6 C 81 % -0.32 C
3332 25-01-2019 13:35:00 2.6 C 80 % -0.49 C
3333 25-01-2019 13:40:00 2.4 C 81 % -0.52 C
3334 25-01-2019 13:45:00 2.4 C 81 % -0.52 C
3335 25-01-2019 13:50:00 2.4 C 81 % -0.52 C
3336 25-01-2019 13:55:00 2.4 C 80 % -0.69 C
3337 25-01-2019 14:00:00 2.3 C 80 % -0.79 C
3338 25-01-2019 14:05:00 2.3 C 81 % -0.62 C
3339 25-01-2019 14:10:00 2.3 C 81 % -0.62 C
3340 25-01-2019 14:15:00 2.3 C 81 % -0.62 C
3341 25-01-2019 14:20:00 2.3 C 81 % -0.62 C
3342 25-01-2019 14:25:00 2.2 C 81 % -0.71 C
3343 25-01-2019 14:30:00 2.2 C 81 % -0.71 C
3344 25-01-2019 14:35:00 2.2 C 81 % -0.71 C
3345 25-01-2019 14:40:00 2.2 C 81 % -0.71 C
3346 25-01-2019 14:45:00 2.2 C 82 % -0.55 C
3347 25-01-2019 14:50:00 2.2 C 81 % -0.71 C
3348 25-01-2019 14:55:00 2.2 C 81 % -0.71 C
3349 25-01-2019 15:00:00 2.2 C 82 % -0.55 C
3350 25-01-2019 15:05:00 2.2 C 82 % -0.55 C
Sensor: Nr:Datum:Temp:Feuchte:Taupunkt:
Aussen-T/F 3351 25-01-2019 15:10:00 2.2 C 82 % -0.55 C
3352 25-01-2019 15:15:00 2.1 C 82 % -0.64 C
3353 25-01-2019 15:20:00 2 C 82 % -0.74 C
3354 25-01-2019 15:25:00 1.9 C 83 % -0.67 C
3355 25-01-2019 15:30:00 1.9 C 83 % -0.67 C
3356 25-01-2019 15:35:00 1.9 C 83 % -0.67 C
3357 25-01-2019 15:40:00 1.8 C 83 % -0.77 C
3358 25-01-2019 15:45:00 1.8 C 83 % -0.77 C
3359 25-01-2019 15:50:00 1.8 C 83 % -0.77 C
3360 25-01-2019 15:55:00 1.8 C 84 % -0.61 C
3361 25-01-2019 16:00:00 1.8 C 84 % -0.61 C
3362 25-01-2019 16:05:00 1.8 C 84 % -0.61 C
3363 25-01-2019 16:10:00 1.8 C 84 % -0.61 C
3364 25-01-2019 16:15:00 1.8 C 85 % -0.45 C
3365 25-01-2019 16:20:00 1.7 C 85 % -0.54 C
3366 25-01-2019 16:25:00 1.7 C 85 % -0.54 C
3367 25-01-2019 16:30:00 1.7 C 85 % -0.54 C
3368 25-01-2019 16:35:00 1.7 C 86 % -0.38 C
3369 25-01-2019 16:40:00 1.7 C 86 % -0.38 C
3370 25-01-2019 16:45:00 1.6 C 86 % -0.48 C
3371 25-01-2019 16:50:00 1.7 C 86 % -0.38 C
3372 25-01-2019 16:55:00 1.7 C 86 % -0.38 C
3373 25-01-2019 17:00:00 1.7 C 86 % -0.38 C
3374 25-01-2019 17:05:00 1.7 C 87 % -0.23 C
3375 25-01-2019 17:10:00 1.7 C 87 % -0.23 C
Sensor: Nr:Datum:Temp:Feuchte:Taupunkt:
Aussen-T/F 3376 25-01-2019 17:15:00 1.7 C 87 % -0.23 C
3377 25-01-2019 17:20:00 1.7 C 87 % -0.23 C
3378 25-01-2019 17:25:00 1.7 C 87 % -0.23 C
3379 25-01-2019 17:30:00 1.7 C 87 % -0.23 C
3380 25-01-2019 17:35:00 1.7 C 87 % -0.23 C
3381 25-01-2019 17:40:00 1.7 C 87 % -0.23 C
3382 25-01-2019 17:45:00 1.7 C 87 % -0.23 C
3383 25-01-2019 17:50:00 1.7 C 87 % -0.23 C
3384 25-01-2019 17:55:00 1.7 C 87 % -0.23 C
3385 25-01-2019 18:00:00 1.7 C 87 % -0.23 C
3386 25-01-2019 18:05:00 1.7 C 87 % -0.23 C
3387 25-01-2019 18:10:00 1.7 C 87 % -0.23 C
3388 25-01-2019 18:15:00 1.7 C 87 % -0.23 C
3389 25-01-2019 18:20:00 1.8 C 87 % -0.13 C
3390 25-01-2019 18:25:00 1.8 C 87 % -0.13 C
3391 25-01-2019 18:30:00 1.8 C 87 % -0.13 C
3392 25-01-2019 18:35:00 1.8 C 87 % -0.13 C
3393 25-01-2019 18:40:00 1.8 C 87 % -0.13 C
3394 25-01-2019 18:45:00 1.8 C 87 % -0.13 C
3395 25-01-2019 18:50:00 1.8 C 87 % -0.13 C
3396 25-01-2019 18:55:00 1.8 C 87 % -0.13 C
3397 25-01-2019 19:00:00 1.8 C 87 % -0.13 C
3398 25-01-2019 19:05:00 1.8 C 88 % 0.03 C
3399 25-01-2019 19:10:00 1.7 C 88 % -0.07 C
3400 25-01-2019 19:15:00 1.7 C 89 % 0.09 C
Sensor: Nr:Datum:Temp:Feuchte:Taupunkt:
Aussen-T/F 3401 25-01-2019 19:20:00 1.6 C 89 % -0.01 C
3402 25-01-2019 19:25:00 1.6 C 90 % 0.14 C
3403 25-01-2019 19:30:00 1.4 C 90 % -0.06 C
3404 25-01-2019 19:35:00 1.4 C 91 % 0.1 C
3405 25-01-2019 19:40:00 1.3 C 91 % 0 C
3406 25-01-2019 19:45:00 1.3 C 91 % 0 C
3407 25-01-2019 19:50:00 1.3 C 91 % 0 C
3408 25-01-2019 19:55:00 1.3 C 92 % 0.15 C
3409 25-01-2019 20:00:00 1.4 C 92 % 0.25 C
3410 25-01-2019 20:05:00 1.4 C 92 % 0.25 C
3411 25-01-2019 20:10:00 1.4 C 91 % 0.1 C
3412 25-01-2019 20:15:00 1.4 C 91 % 0.1 C
3413 25-01-2019 20:20:00 1.5 C 91 % 0.19 C
3414 25-01-2019 20:25:00 1.6 C 91 % 0.29 C
3415 25-01-2019 20:30:00 1.6 C 91 % 0.29 C
3416 25-01-2019 20:35:00 1.6 C 91 % 0.29 C
3417 25-01-2019 20:40:00 1.6 C 91 % 0.29 C
3418 25-01-2019 20:45:00 1.5 C 91 % 0.19 C
3419 25-01-2019 20:50:00 1.5 C 91 % 0.19 C
3420 25-01-2019 20:55:00 1.5 C 91 % 0.19 C
3421 25-01-2019 21:00:00 1.6 C 91 % 0.29 C
3422 25-01-2019 21:05:00 1.6 C 91 % 0.29 C
3423 25-01-2019 21:10:00 1.6 C 91 % 0.29 C
3424 25-01-2019 21:15:00 1.6 C 91 % 0.29 C
3425 25-01-2019 21:20:00 1.7 C 91 % 0.39 C
Sensor: Nr:Datum:Temp:Feuchte:Taupunkt:
Aussen-T/F 3426 25-01-2019 21:25:00 1.7 C 91 % 0.39 C
3427 25-01-2019 21:30:00 1.7 C 91 % 0.39 C
3428 25-01-2019 21:35:00 1.7 C 91 % 0.39 C
3429 25-01-2019 21:40:00 1.7 C 91 % 0.39 C
3430 25-01-2019 21:45:00 1.7 C 91 % 0.39 C
3431 25-01-2019 21:50:00 1.7 C 91 % 0.39 C
3432 25-01-2019 21:55:00 1.7 C 91 % 0.39 C
3433 25-01-2019 22:00:00 1.7 C 91 % 0.39 C
3434 25-01-2019 22:05:00 1.7 C 91 % 0.39 C
3435 25-01-2019 22:10:00 1.8 C 91 % 0.49 C
3436 25-01-2019 22:15:00 1.8 C 91 % 0.49 C
3437 25-01-2019 22:20:00 1.8 C 91 % 0.49 C
3438 25-01-2019 22:25:00 1.8 C 91 % 0.49 C
3439 25-01-2019 22:30:00 1.8 C 92 % 0.64 C
3440 25-01-2019 22:35:00 1.8 C 92 % 0.64 C
3441 25-01-2019 22:40:00 1.8 C 92 % 0.64 C
3442 25-01-2019 22:45:00 1.8 C 92 % 0.64 C
3443 25-01-2019 22:50:00 1.8 C 92 % 0.64 C
3444 25-01-2019 22:55:00 1.8 C 93 % 0.79 C
3445 25-01-2019 23:00:00 1.8 C 93 % 0.79 C
3446 25-01-2019 23:05:00 1.8 C 93 % 0.79 C
3447 25-01-2019 23:10:00 1.8 C 93 % 0.79 C
3448 25-01-2019 23:15:00 1.8 C 93 % 0.79 C
3449 25-01-2019 23:20:00 1.8 C 93 % 0.79 C
3450 25-01-2019 23:25:00 1.8 C 93 % 0.79 C
Sensor: Nr:Datum:Temp:Feuchte:Taupunkt:
Aussen-T/F 3451 25-01-2019 23:30:00 1.8 C 93 % 0.79 C
3452 25-01-2019 23:35:00 1.8 C 94 % 0.94 C
3453 25-01-2019 23:40:00 1.8 C 94 % 0.94 C
3454 25-01-2019 23:45:00 1.8 C 94 % 0.94 C
3455 25-01-2019 23:50:00 1.8 C 94 % 0.94 C
3456 25-01-2019 23:55:00 1.8 C 94 % 0.94 C
3457 26-01-2019 00:00:00 1.8 C 94 % 0.94 C
3458 26-01-2019 00:05:00 1.8 C 94 % 0.94 C
3459 26-01-2019 00:10:00 1.8 C 94 % 0.94 C
3460 26-01-2019 00:15:00 1.8 C 94 % 0.94 C
3461 26-01-2019 00:20:00 1.8 C 94 % 0.94 C
3462 26-01-2019 00:25:00 1.8 C 94 % 0.94 C
3463 26-01-2019 00:30:00 1.9 C 94 % 1.04 C
3464 26-01-2019 00:35:00 1.9 C 94 % 1.04 C
3465 26-01-2019 00:40:00 1.9 C 94 % 1.04 C
3466 26-01-2019 00:45:00 1.9 C 95 % 1.19 C
3467 26-01-2019 00:50:00 1.9 C 95 % 1.19 C
3468 26-01-2019 00:55:00 1.9 C 95 % 1.19 C
3469 26-01-2019 01:00:00 1.9 C 95 % 1.19 C
3470 26-01-2019 01:05:00 1.9 C 95 % 1.19 C
3471 26-01-2019 01:10:00 1.9 C 95 % 1.19 C
3472 26-01-2019 01:15:00 2 C 95 % 1.29 C
3473 26-01-2019 01:20:00 2 C 95 % 1.29 C
3474 26-01-2019 01:25:00 2.1 C 95 % 1.38 C
3475 26-01-2019 01:30:00 2.1 C 95 % 1.38 C
Sensor: Nr:Datum:Temp:Feuchte:Taupunkt:
Aussen-T/F 3476 26-01-2019 01:35:00 2.1 C 95 % 1.38 C
3477 26-01-2019 01:40:00 2.1 C 94 % 1.24 C
3478 26-01-2019 01:45:00 2.1 C 94 % 1.24 C
3479 26-01-2019 01:50:00 2.1 C 94 % 1.24 C
3480 26-01-2019 01:55:00 2.2 C 94 % 1.34 C
3481 26-01-2019 02:00:00 2.2 C 94 % 1.34 C
3482 26-01-2019 02:05:00 2.2 C 94 % 1.34 C
3483 26-01-2019 02:10:00 2.3 C 94 % 1.44 C
3484 26-01-2019 02:15:00 2.3 C 94 % 1.44 C
3485 26-01-2019 02:20:00 2.3 C 94 % 1.44 C
3486 26-01-2019 02:25:00 2.3 C 94 % 1.44 C
3487 26-01-2019 02:30:00 2.3 C 94 % 1.44 C
3488 26-01-2019 02:35:00 2.4 C 94 % 1.54 C
3489 26-01-2019 02:40:00 2.4 C 94 % 1.54 C
3490 26-01-2019 02:45:00 2.4 C 94 % 1.54 C
3491 26-01-2019 02:50:00 2.4 C 94 % 1.54 C
3492 26-01-2019 02:55:00 2.4 C 94 % 1.54 C
3493 26-01-2019 03:00:00 2.5 C 94 % 1.63 C
3494 26-01-2019 03:05:00 2.5 C 94 % 1.63 C
3495 26-01-2019 03:10:00 2.5 C 94 % 1.63 C
3496 26-01-2019 03:15:00 2.5 C 93 % 1.49 C
3497 26-01-2019 03:20:00 2.6 C 93 % 1.59 C
3498 26-01-2019 03:25:00 2.6 C 94 % 1.73 C
3499 26-01-2019 03:30:00 2.6 C 94 % 1.73 C
3500 26-01-2019 03:35:00 2.7 C 93 % 1.68 C
Sensor: Nr:Datum:Temp:Feuchte:Taupunkt:
Aussen-T/F 3501 26-01-2019 03:40:00 2.7 C 93 % 1.68 C
3502 26-01-2019 03:45:00 2.7 C 93 % 1.68 C
3503 26-01-2019 03:50:00 2.8 C 93 % 1.78 C
3504 26-01-2019 03:55:00 2.8 C 93 % 1.78 C
3505 26-01-2019 04:00:00 2.8 C 93 % 1.78 C
3506 26-01-2019 04:05:00 2.8 C 93 % 1.78 C
3507 26-01-2019 04:10:00 2.8 C 93 % 1.78 C
3508 26-01-2019 04:15:00 2.9 C 93 % 1.88 C
3509 26-01-2019 04:20:00 2.9 C 93 % 1.88 C
3510 26-01-2019 04:25:00 2.9 C 93 % 1.88 C
3511 26-01-2019 04:30:00 3 C 93 % 1.98 C
3512 26-01-2019 04:35:00 3 C 93 % 1.98 C
3513 26-01-2019 04:40:00 3.1 C 93 % 2.08 C
3514 26-01-2019 04:45:00 3.1 C 92 % 1.93 C
3515 26-01-2019 04:50:00 3.2 C 93 % 2.18 C
3516 26-01-2019 04:55:00 3.2 C 92 % 2.03 C
3517 26-01-2019 05:00:00 3.3 C 92 % 2.13 C
3518 26-01-2019 05:05:00 3.3 C 92 % 2.13 C
3519 26-01-2019 05:10:00 3.3 C 92 % 2.13 C
3520 26-01-2019 05:15:00 3.4 C 92 % 2.23 C
3521 26-01-2019 05:20:00 3.4 C 92 % 2.23 C
3522 26-01-2019 05:25:00 3.4 C 92 % 2.23 C
3523 26-01-2019 05:30:00 3.4 C 92 % 2.23 C
3524 26-01-2019 05:35:00 3.4 C 92 % 2.23 C
3525 26-01-2019 05:40:00 3.4 C 92 % 2.23 C
Sensor: Nr:Datum:Temp:Feuchte:Taupunkt:
Aussen-T/F 3526 26-01-2019 05:45:00 3.4 C 92 % 2.23 C
3527 26-01-2019 05:50:00 3.3 C 92 % 2.13 C
3528 26-01-2019 05:55:00 3.3 C 92 % 2.13 C
3529 26-01-2019 06:00:00 3.3 C 92 % 2.13 C
3530 26-01-2019 06:05:00 3.3 C 92 % 2.13 C
3531 26-01-2019 06:10:00 3.3 C 92 % 2.13 C
3532 26-01-2019 06:15:00 3.3 C 92 % 2.13 C
3533 26-01-2019 06:20:00 3.2 C 92 % 2.03 C
3534 26-01-2019 06:25:00 3.2 C 93 % 2.18 C
3535 26-01-2019 06:30:00 3.2 C 93 % 2.18 C
3536 26-01-2019 06:35:00 3.2 C 93 % 2.18 C
3537 26-01-2019 06:40:00 3.2 C 93 % 2.18 C
3538 26-01-2019 06:45:00 3.2 C 93 % 2.18 C
3539 26-01-2019 06:50:00 3.3 C 93 % 2.28 C
3540 26-01-2019 06:55:00 3.2 C 93 % 2.18 C
3541 26-01-2019 07:00:00 3.2 C 93 % 2.18 C
3542 26-01-2019 07:05:00 3.2 C 93 % 2.18 C
3543 26-01-2019 07:10:00 3.2 C 93 % 2.18 C
3544 26-01-2019 07:15:00 3.2 C 93 % 2.18 C
3545 26-01-2019 07:20:00 3.2 C 93 % 2.18 C
3546 26-01-2019 07:25:00 3.2 C 94 % 2.33 C
3547 26-01-2019 07:30:00 3.3 C 94 % 2.43 C
3548 26-01-2019 07:35:00 3.3 C 94 % 2.43 C
3549 26-01-2019 07:40:00 3.3 C 94 % 2.43 C
3550 26-01-2019 07:45:00 3.3 C 94 % 2.43 C
Sensor: Nr:Datum:Temp:Feuchte:Taupunkt:
Aussen-T/F 3551 26-01-2019 07:50:00 3.3 C 94 % 2.43 C
3552 26-01-2019 07:55:00 3.4 C 94 % 2.53 C
3553 26-01-2019 08:00:00 3.4 C 94 % 2.53 C
3554 26-01-2019 08:05:00 3.6 C 94 % 2.73 C
3555 26-01-2019 08:10:00 3.7 C 94 % 2.83 C
3556 26-01-2019 08:15:00 3.7 C 94 % 2.83 C
3557 26-01-2019 08:20:00 3.7 C 94 % 2.83 C
3558 26-01-2019 08:25:00 3.8 C 94 % 2.93 C
3559 26-01-2019 08:30:00 3.8 C 94 % 2.93 C
3560 26-01-2019 08:35:00 3.8 C 94 % 2.93 C
3561 26-01-2019 08:40:00 3.8 C 94 % 2.93 C
3562 26-01-2019 08:45:00 3.9 C 94 % 3.02 C
3563 26-01-2019 08:50:00 3.9 C 94 % 3.02 C
3564 26-01-2019 08:55:00 4 C 93 % 2.97 C
3565 26-01-2019 09:00:00 4.1 C 93 % 3.07 C
3566 26-01-2019 09:05:00 4.1 C 93 % 3.07 C
3567 26-01-2019 09:10:00 4.1 C 93 % 3.07 C
3568 26-01-2019 09:15:00 4.2 C 93 % 3.17 C
3569 26-01-2019 09:20:00 4.2 C 93 % 3.17 C
3570 26-01-2019 09:25:00 4.2 C 93 % 3.17 C
3571 26-01-2019 09:30:00 4.2 C 93 % 3.17 C
3572 26-01-2019 09:35:00 4.3 C 93 % 3.27 C
3573 26-01-2019 09:40:00 4.4 C 93 % 3.37 C
3574 26-01-2019 09:45:00 4.6 C 93 % 3.57 C
3575 26-01-2019 09:50:00 4.7 C 93 % 3.67 C
Sensor: Nr:Datum:Temp:Feuchte:Taupunkt:
Aussen-T/F 3576 26-01-2019 09:55:00 4.8 C 92 % 3.61 C
3577 26-01-2019 10:00:00 4.9 C 92 % 3.71 C
3578 26-01-2019 10:05:00 4.9 C 92 % 3.71 C
3579 26-01-2019 10:10:00 4.9 C 91 % 3.56 C
3580 26-01-2019 10:15:00 4.9 C 92 % 3.71 C
3581 26-01-2019 10:20:00 4.9 C 92 % 3.71 C
3582 26-01-2019 10:25:00 4.8 C 92 % 3.61 C
3583 26-01-2019 10:30:00 4.8 C 92 % 3.61 C
3584 26-01-2019 10:35:00 4.8 C 92 % 3.61 C
3585 26-01-2019 10:40:00 4.8 C 92 % 3.61 C
3586 26-01-2019 10:45:00 4.7 C 92 % 3.51 C
3587 26-01-2019 10:50:00 4.8 C 92 % 3.61 C
3588 26-01-2019 10:55:00 4.8 C 92 % 3.61 C
3589 26-01-2019 11:00:00 4.9 C 92 % 3.71 C
3590 26-01-2019 11:05:00 4.9 C 92 % 3.71 C
3591 26-01-2019 11:10:00 5 C 92 % 3.81 C
3592 26-01-2019 11:15:00 5.1 C 92 % 3.91 C
3593 26-01-2019 11:20:00 5.1 C 92 % 3.91 C
3594 26-01-2019 11:25:00 5.2 C 92 % 4.01 C
3595 26-01-2019 11:30:00 5.2 C 92 % 4.01 C
3596 26-01-2019 11:35:00 5.2 C 92 % 4.01 C
3597 26-01-2019 11:40:00 5.3 C 92 % 4.11 C
3598 26-01-2019 11:45:00 5.3 C 92 % 4.11 C
3599 26-01-2019 11:50:00 5.4 C 92 % 4.21 C
3600 26-01-2019 11:55:00 5.4 C 92 % 4.21 C
Sensor: Nr:Datum:Temp:Feuchte:Taupunkt:
Aussen-T/F 3601 26-01-2019 12:00:00 5.4 C 92 % 4.21 C
3602 26-01-2019 12:05:00 5.5 C 92 % 4.31 C
3603 26-01-2019 12:10:00 5.6 C 91 % 4.25 C
3604 26-01-2019 12:15:00 5.6 C 91 % 4.25 C
3605 26-01-2019 12:20:00 5.7 C 91 % 4.35 C
3606 26-01-2019 12:25:00 5.8 C 91 % 4.45 C
3607 26-01-2019 12:30:00 5.9 C 91 % 4.55 C
3608 26-01-2019 12:35:00 5.9 C 90 % 4.39 C
3609 26-01-2019 12:40:00 6 C 90 % 4.49 C
3610 26-01-2019 12:45:00 6 C 90 % 4.49 C
3611 26-01-2019 12:50:00 6.1 C 90 % 4.59 C
3612 26-01-2019 12:55:00 6.2 C 90 % 4.69 C
3613 26-01-2019 13:00:00 6.2 C 90 % 4.69 C
3614 26-01-2019 13:05:00 6.1 C 90 % 4.59 C
3615 26-01-2019 13:10:00 6.1 C 90 % 4.59 C
3616 26-01-2019 13:15:00 6 C 90 % 4.49 C
3617 26-01-2019 13:20:00 5.9 C 90 % 4.39 C
3618 26-01-2019 13:25:00 5.9 C 90 % 4.39 C
3619 26-01-2019 13:30:00 5.9 C 90 % 4.39 C
3620 26-01-2019 13:35:00 5.9 C 90 % 4.39 C
3621 26-01-2019 13:40:00 5.9 C 90 % 4.39 C
3622 26-01-2019 13:45:00 5.9 C 90 % 4.39 C
3623 26-01-2019 13:50:00 5.8 C 90 % 4.29 C
3624 26-01-2019 13:55:00 5.8 C 90 % 4.29 C
3625 26-01-2019 14:00:00 5.8 C 90 % 4.29 C
Sensor: Nr:Datum:Temp:Feuchte:Taupunkt:
Aussen-T/F 3626 26-01-2019 14:05:00 5.8 C 90 % 4.29 C
3627 26-01-2019 14:10:00 5.8 C 91 % 4.45 C
3628 26-01-2019 14:15:00 5.8 C 91 % 4.45 C
3629 26-01-2019 14:20:00 5.9 C 91 % 4.55 C
3630 26-01-2019 14:25:00 5.9 C 91 % 4.55 C
3631 26-01-2019 14:30:00 5.9 C 91 % 4.55 C
3632 26-01-2019 14:35:00 6 C 91 % 4.65 C
3633 26-01-2019 14:40:00 6.1 C 91 % 4.74 C
3634 26-01-2019 14:45:00 6.1 C 90 % 4.59 C
3635 26-01-2019 14:50:00 6.2 C 91 % 4.84 C
3636 26-01-2019 14:55:00 6.2 C 90 % 4.69 C
3637 26-01-2019 15:00:00 6.3 C 90 % 4.78 C
3638 26-01-2019 15:05:00 6.3 C 90 % 4.78 C
3639 26-01-2019 15:10:00 6.3 C 89 % 4.62 C
3640 26-01-2019 15:15:00 6.3 C 89 % 4.62 C
3641 26-01-2019 15:20:00 6.3 C 89 % 4.62 C
3642 26-01-2019 15:25:00 6.2 C 89 % 4.53 C
3643 26-01-2019 15:30:00 6.2 C 89 % 4.53 C
3644 26-01-2019 15:35:00 6.2 C 89 % 4.53 C
3645 26-01-2019 15:40:00 6.2 C 89 % 4.53 C
3646 26-01-2019 15:45:00 6.1 C 89 % 4.43 C
3647 26-01-2019 15:50:00 6.1 C 89 % 4.43 C
3648 26-01-2019 15:55:00 6.1 C 90 % 4.59 C
3649 26-01-2019 16:00:00 6.1 C 90 % 4.59 C
3650 26-01-2019 16:05:00 6.1 C 90 % 4.59 C
Sensor: Nr:Datum:Temp:Feuchte:Taupunkt:
Aussen-T/F 3651 26-01-2019 16:10:00 6 C 90 % 4.49 C
3652 26-01-2019 16:15:00 6 C 90 % 4.49 C
3653 26-01-2019 16:20:00 6 C 90 % 4.49 C
3654 26-01-2019 16:25:00 5.9 C 90 % 4.39 C
3655 26-01-2019 16:30:00 5.9 C 90 % 4.39 C
3656 26-01-2019 16:35:00 5.9 C 90 % 4.39 C
3657 26-01-2019 16:40:00 5.9 C 90 % 4.39 C
3658 26-01-2019 16:45:00 5.9 C 90 % 4.39 C
3659 26-01-2019 16:50:00 5.9 C 90 % 4.39 C
3660 26-01-2019 16:55:00 5.9 C 90 % 4.39 C
3661 26-01-2019 17:00:00 5.9 C 90 % 4.39 C
3662 26-01-2019 17:05:00 5.9 C 90 % 4.39 C
3663 26-01-2019 17:10:00 5.8 C 89 % 4.13 C
3664 26-01-2019 17:15:00 5.7 C 90 % 4.19 C
3665 26-01-2019 17:20:00 5.7 C 90 % 4.19 C
3666 26-01-2019 17:25:00 5.6 C 90 % 4.09 C
3667 26-01-2019 17:30:00 5.6 C 90 % 4.09 C
3668 26-01-2019 17:35:00 5.6 C 90 % 4.09 C
3669 26-01-2019 17:40:00 5.4 C 90 % 3.89 C
3670 26-01-2019 17:45:00 5.3 C 90 % 3.8 C
3671 26-01-2019 17:50:00 5.2 C 90 % 3.7 C
3672 26-01-2019 17:55:00 5.1 C 90 % 3.6 C
3673 26-01-2019 18:00:00 5.1 C 91 % 3.76 C
3674 26-01-2019 18:05:00 5 C 91 % 3.66 C
3675 26-01-2019 18:10:00 4.9 C 92 % 3.71 C
Sensor: Nr:Datum:Temp:Feuchte:Taupunkt:
Aussen-T/F 3676 26-01-2019 18:15:00 4.9 C 92 % 3.71 C
3677 26-01-2019 18:20:00 4.9 C 92 % 3.71 C
3678 26-01-2019 18:25:00 4.8 C 92 % 3.61 C
3679 26-01-2019 18:30:00 4.8 C 92 % 3.61 C
3680 26-01-2019 18:35:00 4.7 C 93 % 3.67 C
3681 26-01-2019 18:40:00 4.7 C 93 % 3.67 C
3682 26-01-2019 18:45:00 4.9 C 93 % 3.87 C
3683 26-01-2019 18:50:00 5 C 94 % 4.12 C
3684 26-01-2019 18:55:00 5 C 93 % 3.96 C
3685 26-01-2019 19:00:00 5.1 C 93 % 4.06 C
3686 26-01-2019 19:05:00 5.1 C 94 % 4.22 C
3687 26-01-2019 19:10:00 5.1 C 94 % 4.22 C
3688 26-01-2019 19:15:00 5.1 C 93 % 4.06 C
3689 26-01-2019 19:20:00 5 C 93 % 3.96 C
3690 26-01-2019 19:25:00 5 C 94 % 4.12 C
3691 26-01-2019 19:30:00 5 C 94 % 4.12 C
3692 26-01-2019 19:35:00 5 C 94 % 4.12 C
3693 26-01-2019 19:40:00 5 C 94 % 4.12 C
3694 26-01-2019 19:45:00 4.9 C 94 % 4.02 C
3695 26-01-2019 19:50:00 4.9 C 94 % 4.02 C
3696 26-01-2019 19:55:00 4.9 C 94 % 4.02 C
3697 26-01-2019 20:00:00 5 C 94 % 4.12 C
3698 26-01-2019 20:05:00 5.1 C 94 % 4.22 C
3699 26-01-2019 20:10:00 5.2 C 95 % 4.47 C
3700 26-01-2019 20:15:00 5.3 C 94 % 4.41 C
Sensor: Nr:Datum:Temp:Feuchte:Taupunkt:
Aussen-T/F 3701 26-01-2019 20:20:00 5.4 C 94 % 4.51 C
3702 26-01-2019 20:25:00 5.4 C 94 % 4.51 C
3703 26-01-2019 20:30:00 5.4 C 94 % 4.51 C
3704 26-01-2019 20:35:00 5.3 C 94 % 4.41 C
3705 26-01-2019 20:40:00 5.4 C 94 % 4.51 C
3706 26-01-2019 20:45:00 5.4 C 94 % 4.51 C
3707 26-01-2019 20:50:00 5.4 C 94 % 4.51 C
3708 26-01-2019 20:55:00 5.5 C 94 % 4.61 C
3709 26-01-2019 21:00:00 5.5 C 93 % 4.46 C
3710 26-01-2019 21:05:00 5.5 C 93 % 4.46 C
3711 26-01-2019 21:10:00 5.5 C 93 % 4.46 C
3712 26-01-2019 21:15:00 5.5 C 93 % 4.46 C
3713 26-01-2019 21:20:00 5.6 C 93 % 4.56 C
3714 26-01-2019 21:25:00 5.6 C 93 % 4.56 C
3715 26-01-2019 21:30:00 5.7 C 93 % 4.66 C
3716 26-01-2019 21:35:00 5.7 C 93 % 4.66 C
3717 26-01-2019 21:40:00 5.7 C 93 % 4.66 C
3718 26-01-2019 21:45:00 5.7 C 93 % 4.66 C
3719 26-01-2019 21:50:00 5.8 C 92 % 4.6 C
3720 26-01-2019 21:55:00 5.8 C 92 % 4.6 C
3721 26-01-2019 22:00:00 5.9 C 92 % 4.7 C
3722 26-01-2019 22:05:00 5.9 C 92 % 4.7 C
3723 26-01-2019 22:10:00 5.9 C 91 % 4.55 C
3724 26-01-2019 22:15:00 5.9 C 91 % 4.55 C
3725 26-01-2019 22:20:00 5.9 C 91 % 4.55 C
Sensor: Nr:Datum:Temp:Feuchte:Taupunkt:
Aussen-T/F 3726 26-01-2019 22:25:00 6.1 C 91 % 4.74 C
3727 26-01-2019 22:30:00 6.1 C 91 % 4.74 C
3728 26-01-2019 22:35:00 6.1 C 91 % 4.74 C
3729 26-01-2019 22:40:00 6.1 C 91 % 4.74 C
3730 26-01-2019 22:45:00 6 C 91 % 4.65 C
3731 26-01-2019 22:50:00 5.9 C 91 % 4.55 C
3732 26-01-2019 22:55:00 5.9 C 91 % 4.55 C
3733 26-01-2019 23:00:00 5.8 C 92 % 4.6 C
3734 26-01-2019 23:05:00 5.8 C 92 % 4.6 C
3735 26-01-2019 23:10:00 5.7 C 92 % 4.5 C
3736 26-01-2019 23:15:00 5.6 C 92 % 4.41 C
3737 26-01-2019 23:20:00 5.5 C 93 % 4.46 C
3738 26-01-2019 23:25:00 5.5 C 93 % 4.46 C
3739 26-01-2019 23:30:00 5.4 C 93 % 4.36 C
3740 26-01-2019 23:35:00 5.4 C 93 % 4.36 C
3741 26-01-2019 23:40:00 5.4 C 93 % 4.36 C
3742 26-01-2019 23:45:00 5.4 C 94 % 4.51 C
3743 26-01-2019 23:50:00 5.4 C 94 % 4.51 C
3744 26-01-2019 23:55:00 5.5 C 94 % 4.61 C
3745 27-01-2019 00:00:00 5.6 C 94 % 4.71 C
3746 27-01-2019 00:05:00 5.7 C 94 % 4.81 C
3747 27-01-2019 00:10:00 5.8 C 93 % 4.76 C
3748 27-01-2019 00:15:00 5.8 C 93 % 4.76 C
3749 27-01-2019 00:20:00 5.8 C 93 % 4.76 C
3750 27-01-2019 00:25:00 5.9 C 93 % 4.86 C
Sensor: Nr:Datum:Temp:Feuchte:Taupunkt:
Aussen-T/F 3751 27-01-2019 00:30:00 5.9 C 92 % 4.7 C
3752 27-01-2019 00:35:00 5.9 C 92 % 4.7 C
3753 27-01-2019 00:40:00 5.8 C 92 % 4.6 C
3754 27-01-2019 00:45:00 5.8 C 92 % 4.6 C
3755 27-01-2019 00:50:00 5.8 C 92 % 4.6 C
3756 27-01-2019 00:55:00 5.8 C 92 % 4.6 C
3757 27-01-2019 01:00:00 5.7 C 93 % 4.66 C
3758 27-01-2019 01:05:00 5.7 C 93 % 4.66 C
3759 27-01-2019 01:10:00 5.7 C 93 % 4.66 C
3760 27-01-2019 01:15:00 5.8 C 93 % 4.76 C
3761 27-01-2019 01:20:00 5.7 C 93 % 4.66 C
3762 27-01-2019 01:25:00 5.7 C 93 % 4.66 C
3763 27-01-2019 01:30:00 5.6 C 93 % 4.56 C
3764 27-01-2019 01:35:00 5.7 C 93 % 4.66 C
3765 27-01-2019 01:40:00 5.7 C 93 % 4.66 C
3766 27-01-2019 01:45:00 5.7 C 93 % 4.66 C
3767 27-01-2019 01:50:00 5.7 C 93 % 4.66 C
3768 27-01-2019 01:55:00 5.7 C 93 % 4.66 C
3769 27-01-2019 02:00:00 5.7 C 93 % 4.66 C
3770 27-01-2019 02:05:00 5.8 C 93 % 4.76 C
3771 27-01-2019 02:10:00 5.8 C 93 % 4.76 C
3772 27-01-2019 02:15:00 5.8 C 93 % 4.76 C
3773 27-01-2019 02:20:00 5.9 C 92 % 4.7 C
3774 27-01-2019 02:25:00 5.9 C 92 % 4.7 C
3775 27-01-2019 02:30:00 6 C 92 % 4.8 C
Sensor: Nr:Datum:Temp:Feuchte:Taupunkt:
Aussen-T/F 3776 27-01-2019 02:35:00 6.1 C 92 % 4.9 C
3777 27-01-2019 02:40:00 6.1 C 92 % 4.9 C
3778 27-01-2019 02:45:00 6.1 C 92 % 4.9 C
3779 27-01-2019 02:50:00 6.2 C 92 % 5 C
3780 27-01-2019 02:55:00 6.3 C 91 % 4.94 C
3781 27-01-2019 03:00:00 6.3 C 91 % 4.94 C
3782 27-01-2019 03:05:00 6.3 C 91 % 4.94 C
3783 27-01-2019 03:10:00 6.3 C 91 % 4.94 C
3784 27-01-2019 03:15:00 6.3 C 91 % 4.94 C
3785 27-01-2019 03:20:00 6.4 C 91 % 5.04 C
3786 27-01-2019 03:25:00 6.4 C 91 % 5.04 C
3787 27-01-2019 03:30:00 6.5 C 90 % 4.98 C
3788 27-01-2019 03:35:00 6.5 C 90 % 4.98 C
3789 27-01-2019 03:40:00 6.5 C 90 % 4.98 C
3790 27-01-2019 03:45:00 6.5 C 91 % 5.14 C
3791 27-01-2019 03:50:00 6.5 C 91 % 5.14 C
3792 27-01-2019 03:55:00 6.5 C 90 % 4.98 C
3793 27-01-2019 04:00:00 6.5 C 90 % 4.98 C
3794 27-01-2019 04:05:00 6.4 C 90 % 4.88 C
3795 27-01-2019 04:10:00 6.4 C 90 % 4.88 C
3796 27-01-2019 04:15:00 6.4 C 91 % 5.04 C
3797 27-01-2019 04:20:00 6.3 C 91 % 4.94 C
3798 27-01-2019 04:25:00 6.2 C 91 % 4.84 C
3799 27-01-2019 04:30:00 6.2 C 92 % 5 C
3800 27-01-2019 04:35:00 6.1 C 91 % 4.74 C
Sensor: Nr:Datum:Temp:Feuchte:Taupunkt:
Aussen-T/F 3801 27-01-2019 04:40:00 6 C 92 % 4.8 C
3802 27-01-2019 04:45:00 5.9 C 92 % 4.7 C
3803 27-01-2019 04:50:00 5.9 C 92 % 4.7 C
3804 27-01-2019 04:55:00 5.9 C 92 % 4.7 C
3805 27-01-2019 05:00:00 5.9 C 92 % 4.7 C
3806 27-01-2019 05:05:00 5.9 C 92 % 4.7 C
3807 27-01-2019 05:10:00 5.9 C 92 % 4.7 C
3808 27-01-2019 05:15:00 5.9 C 92 % 4.7 C
3809 27-01-2019 05:20:00 5.9 C 92 % 4.7 C
3810 27-01-2019 05:25:00 5.9 C 92 % 4.7 C
3811 27-01-2019 05:30:00 5.9 C 91 % 4.55 C
3812 27-01-2019 05:35:00 5.9 C 91 % 4.55 C
3813 27-01-2019 05:40:00 5.9 C 91 % 4.55 C
3814 27-01-2019 05:45:00 5.9 C 91 % 4.55 C
3815 27-01-2019 05:50:00 5.9 C 91 % 4.55 C
3816 27-01-2019 05:55:00 5.9 C 91 % 4.55 C
3817 27-01-2019 06:00:00 5.9 C 91 % 4.55 C
3818 27-01-2019 06:05:00 6 C 91 % 4.65 C
3819 27-01-2019 06:10:00 6.1 C 91 % 4.74 C
3820 27-01-2019 06:15:00 6.1 C 90 % 4.59 C
3821 27-01-2019 06:20:00 6.1 C 90 % 4.59 C
3822 27-01-2019 06:25:00 6.1 C 90 % 4.59 C
3823 27-01-2019 06:30:00 6.2 C 90 % 4.69 C
3824 27-01-2019 06:35:00 6.2 C 90 % 4.69 C
3825 27-01-2019 06:40:00 6.2 C 90 % 4.69 C
Sensor: Nr:Datum:Temp:Feuchte:Taupunkt:
Aussen-T/F 3826 27-01-2019 06:45:00 6.2 C 90 % 4.69 C
3827 27-01-2019 06:50:00 6.2 C 91 % 4.84 C
3828 27-01-2019 06:55:00 6.3 C 91 % 4.94 C
3829 27-01-2019 07:00:00 6.4 C 91 % 5.04 C
3830 27-01-2019 07:05:00 6.4 C 90 % 4.88 C
3831 27-01-2019 07:10:00 6.4 C 90 % 4.88 C
3832 27-01-2019 07:15:00 6.5 C 91 % 5.14 C
3833 27-01-2019 07:20:00 6.5 C 91 % 5.14 C
3834 27-01-2019 07:25:00 6.6 C 91 % 5.24 C
3835 27-01-2019 07:30:00 6.6 C 91 % 5.24 C
3836 27-01-2019 07:35:00 6.6 C 91 % 5.24 C
3837 27-01-2019 07:40:00 6.6 C 91 % 5.24 C
3838 27-01-2019 07:45:00 6.6 C 91 % 5.24 C
3839 27-01-2019 07:50:00 6.6 C 91 % 5.24 C
3840 27-01-2019 07:55:00 6.4 C 91 % 5.04 C
3841 27-01-2019 08:00:00 6.4 C 91 % 5.04 C
3842 27-01-2019 08:05:00 6.4 C 91 % 5.04 C
3843 27-01-2019 08:10:00 6.6 C 91 % 5.24 C
3844 27-01-2019 08:15:00 6.6 C 90 % 5.08 C
3845 27-01-2019 08:20:00 6.6 C 90 % 5.08 C
3846 27-01-2019 08:25:00 6.6 C 90 % 5.08 C
3847 27-01-2019 08:30:00 6.6 C 90 % 5.08 C
3848 27-01-2019 08:35:00 6.6 C 90 % 5.08 C
3849 27-01-2019 08:40:00 6.5 C 91 % 5.14 C
3850 27-01-2019 08:45:00 6.4 C 91 % 5.04 C
Sensor: Nr:Datum:Temp:Feuchte:Taupunkt:
Aussen-T/F 3851 27-01-2019 08:50:00 6.4 C 92 % 5.2 C
3852 27-01-2019 08:55:00 6.3 C 92 % 5.1 C
3853 27-01-2019 09:00:00 6.3 C 92 % 5.1 C
3854 27-01-2019 09:05:00 6.2 C 92 % 5 C
3855 27-01-2019 09:10:00 6.2 C 93 % 5.15 C
3856 27-01-2019 09:15:00 6.1 C 93 % 5.06 C
3857 27-01-2019 09:20:00 6.1 C 93 % 5.06 C
3858 27-01-2019 09:25:00 6 C 93 % 4.96 C
3859 27-01-2019 09:30:00 5.9 C 93 % 4.86 C
3860 27-01-2019 09:35:00 5.9 C 93 % 4.86 C
3861 27-01-2019 09:40:00 5.9 C 93 % 4.86 C
3862 27-01-2019 09:45:00 5.8 C 94 % 4.91 C
3863 27-01-2019 09:50:00 5.8 C 94 % 4.91 C
3864 27-01-2019 09:55:00 5.7 C 94 % 4.81 C
3865 27-01-2019 10:00:00 5.7 C 94 % 4.81 C
3866 27-01-2019 10:05:00 5.7 C 94 % 4.81 C
3867 27-01-2019 10:10:00 5.7 C 94 % 4.81 C
3868 27-01-2019 10:15:00 5.6 C 94 % 4.71 C
3869 27-01-2019 10:20:00 5.5 C 95 % 4.76 C
3870 27-01-2019 10:25:00 5.4 C 94 % 4.51 C
3871 27-01-2019 10:30:00 5.4 C 95 % 4.66 C
3872 27-01-2019 10:35:00 5.6 C 95 % 4.86 C
3873 27-01-2019 10:40:00 5.8 C 95 % 5.06 C
3874 27-01-2019 10:45:00 6 C 96 % 5.41 C
3875 27-01-2019 10:50:00 6.2 C 95 % 5.46 C
Sensor: Nr:Datum:Temp:Feuchte:Taupunkt:
Aussen-T/F 3876 27-01-2019 10:55:00 6.3 C 95 % 5.56 C
3877 27-01-2019 11:00:00 6.4 C 95 % 5.66 C
3878 27-01-2019 11:05:00 6.6 C 94 % 5.71 C
3879 27-01-2019 11:10:00 6.7 C 94 % 5.8 C
3880 27-01-2019 11:15:00 6.8 C 93 % 5.75 C
3881 27-01-2019 11:20:00 6.9 C 92 % 5.69 C
3882 27-01-2019 11:25:00 7.1 C 92 % 5.89 C
3883 27-01-2019 11:30:00 7.2 C 91 % 5.83 C
3884 27-01-2019 11:35:00 7.2 C 90 % 5.67 C
3885 27-01-2019 11:40:00 7.3 C 90 % 5.77 C
3886 27-01-2019 11:45:00 7.3 C 90 % 5.77 C
3887 27-01-2019 11:50:00 7.4 C 90 % 5.87 C
3888 27-01-2019 11:55:00 7.4 C 90 % 5.87 C
3889 27-01-2019 12:00:00 7.6 C 90 %